<?xml version="1.0" encoding="UTF-8" standalone="no" ?>
<gpx xmlns="http://www.topografix.com/GPX/1/1" xmlns:xsi="http://www.w3.org/2001/XMLSchema-instance" xsi:schemaLocation="http://www.topografix.com/GPX/1/1 http://www.topografix.com/GPX/1/1/gpx.xsd" version="1.1" creator="VisuGPX - https://www.visugpx.com">
  <metadata>
    <name>VTT - Vers Piégros la Clastre.</name>
    <desc><![CDATA[Petite sortie car oublie de trace dans le gps et plus de piles !!! Pas grave c'était bien sympa quand même.
]]></desc>
  </metadata>
  <trk>
    <name><![CDATA[03-JAN-19 10:26:57]]></name>
    <trkseg>
      <trkpt lat="44.69898" lon="5.097">
        <ele>233.26</ele>
        <time>2019-01-03T08:04:44Z</time>
      </trkpt>
      <trkpt lat="44.69899" lon="5.09701">
        <ele>234.7</ele>
        <time>2019-01-03T08:05:14Z</time>
      </trkpt>
      <trkpt lat="44.69898" lon="5.09696">
        <ele>234.7</ele>
        <time>2019-01-03T08:05:27Z</time>
      </trkpt>
      <trkpt lat="44.69897" lon="5.09693">
        <ele>234.22</ele>
        <time>2019-01-03T08:05:36Z</time>
      </trkpt>
      <trkpt lat="44.69887" lon="5.09681">
        <ele>234.22</ele>
        <time>2019-01-03T08:05:45Z</time>
      </trkpt>
      <trkpt lat="44.69875" lon="5.09669">
        <ele>235.66</ele>
        <time>2019-01-03T08:05:55Z</time>
      </trkpt>
      <trkpt lat="44.69876" lon="5.09665">
        <ele>235.18</ele>
        <time>2019-01-03T08:05:57Z</time>
      </trkpt>
      <trkpt lat="44.69879" lon="5.09653">
        <ele>236.14</ele>
        <time>2019-01-03T08:06:09Z</time>
      </trkpt>
      <trkpt lat="44.69883" lon="5.09642">
        <ele>231.33</ele>
        <time>2019-01-03T08:06:17Z</time>
      </trkpt>
      <trkpt lat="44.69883" lon="5.09641">
        <ele>236.14</ele>
        <time>2019-01-03T08:06:18Z</time>
      </trkpt>
      <trkpt lat="44.69884" lon="5.0964">
        <ele>238.54</ele>
        <time>2019-01-03T08:06:19Z</time>
      </trkpt>
      <trkpt lat="44.69887" lon="5.09637">
        <ele>235.66</ele>
        <time>2019-01-03T08:06:22Z</time>
      </trkpt>
      <trkpt lat="44.69891" lon="5.09632">
        <ele>235.18</ele>
        <time>2019-01-03T08:06:24Z</time>
      </trkpt>
      <trkpt lat="44.69917" lon="5.09581">
        <ele>230.37</ele>
        <time>2019-01-03T08:06:36Z</time>
      </trkpt>
      <trkpt lat="44.69925" lon="5.09524">
        <ele>232.3</ele>
        <time>2019-01-03T08:06:49Z</time>
      </trkpt>
      <trkpt lat="44.69927" lon="5.09471">
        <ele>233.26</ele>
        <time>2019-01-03T08:07:01Z</time>
      </trkpt>
      <trkpt lat="44.69929" lon="5.09439">
        <ele>235.18</ele>
        <time>2019-01-03T08:07:11Z</time>
      </trkpt>
      <trkpt lat="44.69934" lon="5.09389">
        <ele>235.18</ele>
        <time>2019-01-03T08:07:23Z</time>
      </trkpt>
      <trkpt lat="44.69941" lon="5.09359">
        <ele>231.33</ele>
        <time>2019-01-03T08:07:32Z</time>
      </trkpt>
      <trkpt lat="44.69942" lon="5.09356">
        <ele>234.7</ele>
        <time>2019-01-03T08:07:33Z</time>
      </trkpt>
      <trkpt lat="44.69957" lon="5.09296">
        <ele>234.7</ele>
        <time>2019-01-03T08:07:47Z</time>
      </trkpt>
      <trkpt lat="44.6997" lon="5.09253">
        <ele>234.7</ele>
        <time>2019-01-03T08:07:59Z</time>
      </trkpt>
      <trkpt lat="44.69973" lon="5.09244">
        <ele>227.97</ele>
        <time>2019-01-03T08:08:02Z</time>
      </trkpt>
      <trkpt lat="44.69974" lon="5.09241">
        <ele>241.43</ele>
        <time>2019-01-03T08:08:03Z</time>
      </trkpt>
      <trkpt lat="44.69975" lon="5.09239">
        <ele>233.74</ele>
        <time>2019-01-03T08:08:04Z</time>
      </trkpt>
      <trkpt lat="44.69976" lon="5.09237">
        <ele>237.58</ele>
        <time>2019-01-03T08:08:05Z</time>
      </trkpt>
      <trkpt lat="44.69977" lon="5.09234">
        <ele>233.74</ele>
        <time>2019-01-03T08:08:06Z</time>
      </trkpt>
      <trkpt lat="44.69977" lon="5.09189">
        <ele>231.33</ele>
        <time>2019-01-03T08:08:17Z</time>
      </trkpt>
      <trkpt lat="44.69965" lon="5.09127">
        <ele>231.81</ele>
        <time>2019-01-03T08:08:30Z</time>
      </trkpt>
      <trkpt lat="44.69964" lon="5.09125">
        <ele>231.81</ele>
        <time>2019-01-03T08:08:31Z</time>
      </trkpt>
      <trkpt lat="44.69962" lon="5.09124">
        <ele>231.81</ele>
        <time>2019-01-03T08:08:32Z</time>
      </trkpt>
      <trkpt lat="44.69959" lon="5.09124">
        <ele>231.81</ele>
        <time>2019-01-03T08:08:33Z</time>
      </trkpt>
      <trkpt lat="44.69957" lon="5.09125">
        <ele>231.81</ele>
        <time>2019-01-03T08:08:34Z</time>
      </trkpt>
      <trkpt lat="44.69954" lon="5.09125">
        <ele>231.81</ele>
        <time>2019-01-03T08:08:35Z</time>
      </trkpt>
      <trkpt lat="44.69946" lon="5.09122">
        <ele>232.3</ele>
        <time>2019-01-03T08:08:40Z</time>
      </trkpt>
      <trkpt lat="44.69946" lon="5.09124">
        <ele>232.78</ele>
        <time>2019-01-03T08:08:41Z</time>
      </trkpt>
      <trkpt lat="44.69948" lon="5.09125">
        <ele>232.3</ele>
        <time>2019-01-03T08:08:42Z</time>
      </trkpt>
      <trkpt lat="44.69951" lon="5.09125">
        <ele>232.3</ele>
        <time>2019-01-03T08:08:43Z</time>
      </trkpt>
      <trkpt lat="44.69953" lon="5.09126">
        <ele>231.81</ele>
        <time>2019-01-03T08:08:44Z</time>
      </trkpt>
      <trkpt lat="44.69956" lon="5.09127">
        <ele>231.81</ele>
        <time>2019-01-03T08:08:45Z</time>
      </trkpt>
      <trkpt lat="44.69959" lon="5.0913">
        <ele>231.33</ele>
        <time>2019-01-03T08:08:46Z</time>
      </trkpt>
      <trkpt lat="44.69971" lon="5.09169">
        <ele>232.3</ele>
        <time>2019-01-03T08:08:55Z</time>
      </trkpt>
      <trkpt lat="44.69961" lon="5.09173">
        <ele>234.7</ele>
        <time>2019-01-03T08:09:02Z</time>
      </trkpt>
      <trkpt lat="44.6994" lon="5.09176">
        <ele>238.06</ele>
        <time>2019-01-03T08:09:14Z</time>
      </trkpt>
      <trkpt lat="44.69938" lon="5.09176">
        <ele>238.06</ele>
        <time>2019-01-03T08:09:15Z</time>
      </trkpt>
      <trkpt lat="44.69926" lon="5.09177">
        <ele>240.47</ele>
        <time>2019-01-03T08:09:22Z</time>
      </trkpt>
      <trkpt lat="44.69917" lon="5.09176">
        <ele>241.91</ele>
        <time>2019-01-03T08:09:28Z</time>
      </trkpt>
      <trkpt lat="44.69908" lon="5.09177">
        <ele>244.31</ele>
        <time>2019-01-03T08:09:34Z</time>
      </trkpt>
      <trkpt lat="44.69899" lon="5.09178">
        <ele>245.75</ele>
        <time>2019-01-03T08:09:39Z</time>
      </trkpt>
      <trkpt lat="44.69888" lon="5.0918">
        <ele>249.12</ele>
        <time>2019-01-03T08:09:47Z</time>
      </trkpt>
      <trkpt lat="44.69873" lon="5.09192">
        <ele>252</ele>
        <time>2019-01-03T08:09:57Z</time>
      </trkpt>
      <trkpt lat="44.69868" lon="5.09196">
        <ele>252.48</ele>
        <time>2019-01-03T08:10:00Z</time>
      </trkpt>
      <trkpt lat="44.69861" lon="5.09203">
        <ele>254.41</ele>
        <time>2019-01-03T08:10:05Z</time>
      </trkpt>
      <trkpt lat="44.6985" lon="5.09228">
        <ele>257.77</ele>
        <time>2019-01-03T08:10:17Z</time>
      </trkpt>
      <trkpt lat="44.69848" lon="5.09237">
        <ele>258.73</ele>
        <time>2019-01-03T08:10:21Z</time>
      </trkpt>
      <trkpt lat="44.69833" lon="5.09271">
        <ele>261.62</ele>
        <time>2019-01-03T08:10:33Z</time>
      </trkpt>
      <trkpt lat="44.69808" lon="5.09312">
        <ele>262.58</ele>
        <time>2019-01-03T08:10:50Z</time>
      </trkpt>
      <trkpt lat="44.69786" lon="5.09355">
        <ele>262.58</ele>
        <time>2019-01-03T08:11:05Z</time>
      </trkpt>
      <trkpt lat="44.6976" lon="5.09397">
        <ele>264.02</ele>
        <time>2019-01-03T08:11:21Z</time>
      </trkpt>
      <trkpt lat="44.69745" lon="5.09413">
        <ele>266.42</ele>
        <time>2019-01-03T08:11:30Z</time>
      </trkpt>
      <trkpt lat="44.69741" lon="5.09408">
        <ele>266.9</ele>
        <time>2019-01-03T08:11:34Z</time>
      </trkpt>
      <trkpt lat="44.69734" lon="5.09401">
        <ele>266.9</ele>
        <time>2019-01-03T08:11:39Z</time>
      </trkpt>
      <trkpt lat="44.69725" lon="5.09398">
        <ele>267.86</ele>
        <time>2019-01-03T08:11:45Z</time>
      </trkpt>
      <trkpt lat="44.69701" lon="5.09391">
        <ele>271.23</ele>
        <time>2019-01-03T08:11:59Z</time>
      </trkpt>
      <trkpt lat="44.69689" lon="5.09389">
        <ele>272.67</ele>
        <time>2019-01-03T08:12:06Z</time>
      </trkpt>
      <trkpt lat="44.69682" lon="5.09387">
        <ele>274.11</ele>
        <time>2019-01-03T08:12:11Z</time>
      </trkpt>
      <trkpt lat="44.69662" lon="5.09386">
        <ele>277</ele>
        <time>2019-01-03T08:12:23Z</time>
      </trkpt>
      <trkpt lat="44.69644" lon="5.09389">
        <ele>280.36</ele>
        <time>2019-01-03T08:12:34Z</time>
      </trkpt>
      <trkpt lat="44.69621" lon="5.09403">
        <ele>280.84</ele>
        <time>2019-01-03T08:12:47Z</time>
      </trkpt>
      <trkpt lat="44.69591" lon="5.09422">
        <ele>280.84</ele>
        <time>2019-01-03T08:13:02Z</time>
      </trkpt>
      <trkpt lat="44.69559" lon="5.09434">
        <ele>281.32</ele>
        <time>2019-01-03T08:13:16Z</time>
      </trkpt>
      <trkpt lat="44.69523" lon="5.09444">
        <ele>279.4</ele>
        <time>2019-01-03T08:13:28Z</time>
      </trkpt>
      <trkpt lat="44.69487" lon="5.0945">
        <ele>279.88</ele>
        <time>2019-01-03T08:13:40Z</time>
      </trkpt>
      <trkpt lat="44.69447" lon="5.09446">
        <ele>280.84</ele>
        <time>2019-01-03T08:13:54Z</time>
      </trkpt>
      <trkpt lat="44.69415" lon="5.0944">
        <ele>284.21</ele>
        <time>2019-01-03T08:14:07Z</time>
      </trkpt>
      <trkpt lat="44.69396" lon="5.09439">
        <ele>286.13</ele>
        <time>2019-01-03T08:14:18Z</time>
      </trkpt>
      <trkpt lat="44.69384" lon="5.09442">
        <ele>289.49</ele>
        <time>2019-01-03T08:14:26Z</time>
      </trkpt>
      <trkpt lat="44.69378" lon="5.09443">
        <ele>291.42</ele>
        <time>2019-01-03T08:14:30Z</time>
      </trkpt>
      <trkpt lat="44.69363" lon="5.09452">
        <ele>293.82</ele>
        <time>2019-01-03T08:14:42Z</time>
      </trkpt>
      <trkpt lat="44.69361" lon="5.0946">
        <ele>294.3</ele>
        <time>2019-01-03T08:14:47Z</time>
      </trkpt>
      <trkpt lat="44.69357" lon="5.09467">
        <ele>294.78</ele>
        <time>2019-01-03T08:14:52Z</time>
      </trkpt>
      <trkpt lat="44.69358" lon="5.0947">
        <ele>294.78</ele>
        <time>2019-01-03T08:14:55Z</time>
      </trkpt>
      <trkpt lat="44.69365" lon="5.09449">
        <ele>292.86</ele>
        <time>2019-01-03T08:15:05Z</time>
      </trkpt>
      <trkpt lat="44.69359" lon="5.09441">
        <ele>294.78</ele>
        <time>2019-01-03T08:15:13Z</time>
      </trkpt>
      <trkpt lat="44.6935" lon="5.09437">
        <ele>297.18</ele>
        <time>2019-01-03T08:15:21Z</time>
      </trkpt>
      <trkpt lat="44.69343" lon="5.09432">
        <ele>299.11</ele>
        <time>2019-01-03T08:15:27Z</time>
      </trkpt>
      <trkpt lat="44.69335" lon="5.09427">
        <ele>301.03</ele>
        <time>2019-01-03T08:15:35Z</time>
      </trkpt>
      <trkpt lat="44.69326" lon="5.09423">
        <ele>301.99</ele>
        <time>2019-01-03T08:15:42Z</time>
      </trkpt>
      <trkpt lat="44.69305" lon="5.09423">
        <ele>304.88</ele>
        <time>2019-01-03T08:15:58Z</time>
      </trkpt>
      <trkpt lat="44.69285" lon="5.09421">
        <ele>308.24</ele>
        <time>2019-01-03T08:16:12Z</time>
      </trkpt>
      <trkpt lat="44.69263" lon="5.0942">
        <ele>310.16</ele>
        <time>2019-01-03T08:16:26Z</time>
      </trkpt>
      <trkpt lat="44.69246" lon="5.09415">
        <ele>312.09</ele>
        <time>2019-01-03T08:16:37Z</time>
      </trkpt>
      <trkpt lat="44.69237" lon="5.09412">
        <ele>312.57</ele>
        <time>2019-01-03T08:16:43Z</time>
      </trkpt>
      <trkpt lat="44.69211" lon="5.09403">
        <ele>315.45</ele>
        <time>2019-01-03T08:17:00Z</time>
      </trkpt>
      <trkpt lat="44.69199" lon="5.09399">
        <ele>316.41</ele>
        <time>2019-01-03T08:17:08Z</time>
      </trkpt>
      <trkpt lat="44.6918" lon="5.09391">
        <ele>317.37</ele>
        <time>2019-01-03T08:17:21Z</time>
      </trkpt>
      <trkpt lat="44.69172" lon="5.09388">
        <ele>317.85</ele>
        <time>2019-01-03T08:17:26Z</time>
      </trkpt>
      <trkpt lat="44.69146" lon="5.09379">
        <ele>319.3</ele>
        <time>2019-01-03T08:17:42Z</time>
      </trkpt>
      <trkpt lat="44.69117" lon="5.0937">
        <ele>320.74</ele>
        <time>2019-01-03T08:17:59Z</time>
      </trkpt>
      <trkpt lat="44.69093" lon="5.09363">
        <ele>322.18</ele>
        <time>2019-01-03T08:18:14Z</time>
      </trkpt>
      <trkpt lat="44.69091" lon="5.09362">
        <ele>322.66</ele>
        <time>2019-01-03T08:18:15Z</time>
      </trkpt>
      <trkpt lat="44.69082" lon="5.09364">
        <ele>323.62</ele>
        <time>2019-01-03T08:18:21Z</time>
      </trkpt>
      <trkpt lat="44.69074" lon="5.09374">
        <ele>324.1</ele>
        <time>2019-01-03T08:18:27Z</time>
      </trkpt>
      <trkpt lat="44.69064" lon="5.09386">
        <ele>325.06</ele>
        <time>2019-01-03T08:18:35Z</time>
      </trkpt>
      <trkpt lat="44.69048" lon="5.09402">
        <ele>328.91</ele>
        <time>2019-01-03T08:18:48Z</time>
      </trkpt>
      <trkpt lat="44.69042" lon="5.09405">
        <ele>328.91</ele>
        <time>2019-01-03T08:18:52Z</time>
      </trkpt>
      <trkpt lat="44.69024" lon="5.09405">
        <ele>331.31</ele>
        <time>2019-01-03T08:19:04Z</time>
      </trkpt>
      <trkpt lat="44.69011" lon="5.09403">
        <ele>332.75</ele>
        <time>2019-01-03T08:19:12Z</time>
      </trkpt>
      <trkpt lat="44.69002" lon="5.09408">
        <ele>334.68</ele>
        <time>2019-01-03T08:19:19Z</time>
      </trkpt>
      <trkpt lat="44.68988" lon="5.09417">
        <ele>337.08</ele>
        <time>2019-01-03T08:19:30Z</time>
      </trkpt>
      <trkpt lat="44.68973" lon="5.09424">
        <ele>338.04</ele>
        <time>2019-01-03T08:19:39Z</time>
      </trkpt>
      <trkpt lat="44.6897" lon="5.09428">
        <ele>338.04</ele>
        <time>2019-01-03T08:19:41Z</time>
      </trkpt>
      <trkpt lat="44.68962" lon="5.09433">
        <ele>338.52</ele>
        <time>2019-01-03T08:19:45Z</time>
      </trkpt>
      <trkpt lat="44.6894" lon="5.0944">
        <ele>339</ele>
        <time>2019-01-03T08:19:57Z</time>
      </trkpt>
      <trkpt lat="44.68934" lon="5.09443">
        <ele>339.48</ele>
        <time>2019-01-03T08:20:02Z</time>
      </trkpt>
      <trkpt lat="44.6893" lon="5.09442">
        <ele>339.96</ele>
        <time>2019-01-03T08:20:04Z</time>
      </trkpt>
      <trkpt lat="44.6892" lon="5.09435">
        <ele>342.85</ele>
        <time>2019-01-03T08:20:17Z</time>
      </trkpt>
      <trkpt lat="44.68918" lon="5.09434">
        <ele>342.85</ele>
        <time>2019-01-03T08:20:36Z</time>
      </trkpt>
      <trkpt lat="44.68916" lon="5.09431">
        <ele>343.81</ele>
        <time>2019-01-03T08:20:49Z</time>
      </trkpt>
      <trkpt lat="44.68911" lon="5.09425">
        <ele>346.69</ele>
        <time>2019-01-03T08:20:58Z</time>
      </trkpt>
      <trkpt lat="44.68905" lon="5.09417">
        <ele>350.06</ele>
        <time>2019-01-03T08:21:08Z</time>
      </trkpt>
      <trkpt lat="44.68901" lon="5.09408">
        <ele>351.5</ele>
        <time>2019-01-03T08:21:16Z</time>
      </trkpt>
      <trkpt lat="44.68895" lon="5.09398">
        <ele>354.38</ele>
        <time>2019-01-03T08:21:28Z</time>
      </trkpt>
      <trkpt lat="44.68893" lon="5.09391">
        <ele>357.27</ele>
        <time>2019-01-03T08:21:41Z</time>
      </trkpt>
      <trkpt lat="44.68888" lon="5.09389">
        <ele>359.19</ele>
        <time>2019-01-03T08:21:53Z</time>
      </trkpt>
      <trkpt lat="44.68881" lon="5.09386">
        <ele>361.59</ele>
        <time>2019-01-03T08:22:06Z</time>
      </trkpt>
      <trkpt lat="44.68873" lon="5.09377">
        <ele>364.48</ele>
        <time>2019-01-03T08:22:20Z</time>
      </trkpt>
      <trkpt lat="44.6887" lon="5.09373">
        <ele>366.4</ele>
        <time>2019-01-03T08:22:26Z</time>
      </trkpt>
      <trkpt lat="44.68865" lon="5.09371">
        <ele>366.4</ele>
        <time>2019-01-03T08:22:40Z</time>
      </trkpt>
      <trkpt lat="44.68853" lon="5.09371">
        <ele>367.36</ele>
        <time>2019-01-03T08:22:53Z</time>
      </trkpt>
      <trkpt lat="44.68851" lon="5.09372">
        <ele>366.4</ele>
        <time>2019-01-03T08:23:06Z</time>
      </trkpt>
      <trkpt lat="44.68852" lon="5.09372">
        <ele>367.36</ele>
        <time>2019-01-03T08:23:16Z</time>
      </trkpt>
      <trkpt lat="44.68854" lon="5.09372">
        <ele>366.88</ele>
        <time>2019-01-03T08:23:20Z</time>
      </trkpt>
      <trkpt lat="44.68863" lon="5.09371">
        <ele>366.4</ele>
        <time>2019-01-03T08:23:32Z</time>
      </trkpt>
      <trkpt lat="44.68864" lon="5.09371">
        <ele>366.88</ele>
        <time>2019-01-03T08:23:45Z</time>
      </trkpt>
      <trkpt lat="44.68864" lon="5.09371">
        <ele>365.92</ele>
        <time>2019-01-03T08:23:59Z</time>
      </trkpt>
      <trkpt lat="44.68865" lon="5.09371">
        <ele>366.4</ele>
        <time>2019-01-03T08:24:21Z</time>
      </trkpt>
      <trkpt lat="44.68865" lon="5.09371">
        <ele>366.4</ele>
        <time>2019-01-03T08:24:45Z</time>
      </trkpt>
      <trkpt lat="44.68865" lon="5.0937">
        <ele>365.92</ele>
        <time>2019-01-03T08:25:08Z</time>
      </trkpt>
      <trkpt lat="44.68865" lon="5.0937">
        <ele>365.92</ele>
        <time>2019-01-03T08:25:39Z</time>
      </trkpt>
      <trkpt lat="44.68865" lon="5.0937">
        <ele>365.92</ele>
        <time>2019-01-03T08:26:08Z</time>
      </trkpt>
      <trkpt lat="44.68865" lon="5.0937">
        <ele>365.44</ele>
        <time>2019-01-03T08:26:37Z</time>
      </trkpt>
      <trkpt lat="44.68865" lon="5.09369">
        <ele>365.44</ele>
        <time>2019-01-03T08:27:02Z</time>
      </trkpt>
      <trkpt lat="44.68865" lon="5.09369">
        <ele>359.67</ele>
        <time>2019-01-03T08:27:11Z</time>
      </trkpt>
      <trkpt lat="44.68865" lon="5.09369">
        <ele>372.17</ele>
        <time>2019-01-03T08:27:12Z</time>
      </trkpt>
      <trkpt lat="44.68865" lon="5.09369">
        <ele>364.48</ele>
        <time>2019-01-03T08:27:13Z</time>
      </trkpt>
      <trkpt lat="44.68865" lon="5.09369">
        <ele>364.96</ele>
        <time>2019-01-03T08:27:17Z</time>
      </trkpt>
      <trkpt lat="44.68865" lon="5.09369">
        <ele>360.63</ele>
        <time>2019-01-03T08:27:19Z</time>
      </trkpt>
      <trkpt lat="44.68865" lon="5.09369">
        <ele>371.69</ele>
        <time>2019-01-03T08:27:20Z</time>
      </trkpt>
      <trkpt lat="44.68865" lon="5.09369">
        <ele>364.96</ele>
        <time>2019-01-03T08:27:21Z</time>
      </trkpt>
      <trkpt lat="44.68865" lon="5.09369">
        <ele>361.11</ele>
        <time>2019-01-03T08:27:28Z</time>
      </trkpt>
      <trkpt lat="44.68865" lon="5.09369">
        <ele>370.24</ele>
        <time>2019-01-03T08:27:29Z</time>
      </trkpt>
      <trkpt lat="44.68865" lon="5.09369">
        <ele>368.32</ele>
        <time>2019-01-03T08:27:30Z</time>
      </trkpt>
      <trkpt lat="44.68865" lon="5.09369">
        <ele>364.48</ele>
        <time>2019-01-03T08:27:32Z</time>
      </trkpt>
      <trkpt lat="44.68865" lon="5.09369">
        <ele>361.11</ele>
        <time>2019-01-03T08:27:37Z</time>
      </trkpt>
      <trkpt lat="44.68865" lon="5.09369">
        <ele>368.8</ele>
        <time>2019-01-03T08:27:38Z</time>
      </trkpt>
      <trkpt lat="44.68865" lon="5.09369">
        <ele>364</ele>
        <time>2019-01-03T08:27:39Z</time>
      </trkpt>
      <trkpt lat="44.68865" lon="5.09369">
        <ele>367.84</ele>
        <time>2019-01-03T08:27:44Z</time>
      </trkpt>
      <trkpt lat="44.68865" lon="5.09369">
        <ele>363.52</ele>
        <time>2019-01-03T08:27:45Z</time>
      </trkpt>
      <trkpt lat="44.68865" lon="5.09369">
        <ele>366.88</ele>
        <time>2019-01-03T08:27:46Z</time>
      </trkpt>
      <trkpt lat="44.68865" lon="5.09369">
        <ele>361.11</ele>
        <time>2019-01-03T08:27:50Z</time>
      </trkpt>
      <trkpt lat="44.68865" lon="5.09369">
        <ele>369.28</ele>
        <time>2019-01-03T08:27:51Z</time>
      </trkpt>
      <trkpt lat="44.68865" lon="5.09369">
        <ele>363.52</ele>
        <time>2019-01-03T08:27:52Z</time>
      </trkpt>
      <trkpt lat="44.68866" lon="5.09372">
        <ele>365.44</ele>
        <time>2019-01-03T08:28:06Z</time>
      </trkpt>
      <trkpt lat="44.68869" lon="5.09376">
        <ele>364</ele>
        <time>2019-01-03T08:28:09Z</time>
      </trkpt>
      <trkpt lat="44.68872" lon="5.09383">
        <ele>360.63</ele>
        <time>2019-01-03T08:28:13Z</time>
      </trkpt>
      <trkpt lat="44.68874" lon="5.09384">
        <ele>359.67</ele>
        <time>2019-01-03T08:28:15Z</time>
      </trkpt>
      <trkpt lat="44.6888" lon="5.09388">
        <ele>356.31</ele>
        <time>2019-01-03T08:28:22Z</time>
      </trkpt>
      <trkpt lat="44.68881" lon="5.09387">
        <ele>355.83</ele>
        <time>2019-01-03T08:28:24Z</time>
      </trkpt>
      <trkpt lat="44.68883" lon="5.09392">
        <ele>353.9</ele>
        <time>2019-01-03T08:28:35Z</time>
      </trkpt>
      <trkpt lat="44.68887" lon="5.09393">
        <ele>352.94</ele>
        <time>2019-01-03T08:28:48Z</time>
      </trkpt>
      <trkpt lat="44.68893" lon="5.09404">
        <ele>349.58</ele>
        <time>2019-01-03T08:28:53Z</time>
      </trkpt>
      <trkpt lat="44.68901" lon="5.09418">
        <ele>346.21</ele>
        <time>2019-01-03T08:28:58Z</time>
      </trkpt>
      <trkpt lat="44.6891" lon="5.0943">
        <ele>340.92</ele>
        <time>2019-01-03T08:29:01Z</time>
      </trkpt>
      <trkpt lat="44.68911" lon="5.09435">
        <ele>339.96</ele>
        <time>2019-01-03T08:29:02Z</time>
      </trkpt>
      <trkpt lat="44.6891" lon="5.09448">
        <ele>338.04</ele>
        <time>2019-01-03T08:29:09Z</time>
      </trkpt>
      <trkpt lat="44.68885" lon="5.09447">
        <ele>335.64</ele>
        <time>2019-01-03T08:29:18Z</time>
      </trkpt>
      <trkpt lat="44.68875" lon="5.09445">
        <ele>334.2</ele>
        <time>2019-01-03T08:29:20Z</time>
      </trkpt>
      <trkpt lat="44.68848" lon="5.09446">
        <ele>331.79</ele>
        <time>2019-01-03T08:29:25Z</time>
      </trkpt>
      <trkpt lat="44.68815" lon="5.09462">
        <ele>327.95</ele>
        <time>2019-01-03T08:29:32Z</time>
      </trkpt>
      <trkpt lat="44.68809" lon="5.09462">
        <ele>327.95</ele>
        <time>2019-01-03T08:29:33Z</time>
      </trkpt>
      <trkpt lat="44.68798" lon="5.09462">
        <ele>327.95</ele>
        <time>2019-01-03T08:29:35Z</time>
      </trkpt>
      <trkpt lat="44.68781" lon="5.09461">
        <ele>329.87</ele>
        <time>2019-01-03T08:29:39Z</time>
      </trkpt>
      <trkpt lat="44.68753" lon="5.09465">
        <ele>327.47</ele>
        <time>2019-01-03T08:29:48Z</time>
      </trkpt>
      <trkpt lat="44.68735" lon="5.09463">
        <ele>323.62</ele>
        <time>2019-01-03T08:29:51Z</time>
      </trkpt>
      <trkpt lat="44.68729" lon="5.09461">
        <ele>323.14</ele>
        <time>2019-01-03T08:29:52Z</time>
      </trkpt>
      <trkpt lat="44.68722" lon="5.0946">
        <ele>322.66</ele>
        <time>2019-01-03T08:29:53Z</time>
      </trkpt>
      <trkpt lat="44.68715" lon="5.09458">
        <ele>321.7</ele>
        <time>2019-01-03T08:29:54Z</time>
      </trkpt>
      <trkpt lat="44.68709" lon="5.09456">
        <ele>321.7</ele>
        <time>2019-01-03T08:29:55Z</time>
      </trkpt>
      <trkpt lat="44.68703" lon="5.09454">
        <ele>321.7</ele>
        <time>2019-01-03T08:29:56Z</time>
      </trkpt>
      <trkpt lat="44.6869" lon="5.09453">
        <ele>321.22</ele>
        <time>2019-01-03T08:29:58Z</time>
      </trkpt>
      <trkpt lat="44.68671" lon="5.09452">
        <ele>323.14</ele>
        <time>2019-01-03T08:30:04Z</time>
      </trkpt>
      <trkpt lat="44.68672" lon="5.09454">
        <ele>322.66</ele>
        <time>2019-01-03T08:30:07Z</time>
      </trkpt>
      <trkpt lat="44.68683" lon="5.09453">
        <ele>321.22</ele>
        <time>2019-01-03T08:30:11Z</time>
      </trkpt>
      <trkpt lat="44.68685" lon="5.09451">
        <ele>321.22</ele>
        <time>2019-01-03T08:30:12Z</time>
      </trkpt>
      <trkpt lat="44.68689" lon="5.09445">
        <ele>323.62</ele>
        <time>2019-01-03T08:30:19Z</time>
      </trkpt>
      <trkpt lat="44.6869" lon="5.09443">
        <ele>324.58</ele>
        <time>2019-01-03T08:30:20Z</time>
      </trkpt>
      <trkpt lat="44.68691" lon="5.09442">
        <ele>325.06</ele>
        <time>2019-01-03T08:30:21Z</time>
      </trkpt>
      <trkpt lat="44.68692" lon="5.0944">
        <ele>325.06</ele>
        <time>2019-01-03T08:30:22Z</time>
      </trkpt>
      <trkpt lat="44.68694" lon="5.09439">
        <ele>325.06</ele>
        <time>2019-01-03T08:30:23Z</time>
      </trkpt>
      <trkpt lat="44.68695" lon="5.09438">
        <ele>325.54</ele>
        <time>2019-01-03T08:30:24Z</time>
      </trkpt>
      <trkpt lat="44.68696" lon="5.09436">
        <ele>325.54</ele>
        <time>2019-01-03T08:30:25Z</time>
      </trkpt>
      <trkpt lat="44.68698" lon="5.09435">
        <ele>326.02</ele>
        <time>2019-01-03T08:30:26Z</time>
      </trkpt>
      <trkpt lat="44.68699" lon="5.09434">
        <ele>326.5</ele>
        <time>2019-01-03T08:30:27Z</time>
      </trkpt>
      <trkpt lat="44.687" lon="5.09433">
        <ele>326.5</ele>
        <time>2019-01-03T08:30:28Z</time>
      </trkpt>
      <trkpt lat="44.68701" lon="5.09434">
        <ele>326.99</ele>
        <time>2019-01-03T08:30:29Z</time>
      </trkpt>
      <trkpt lat="44.68703" lon="5.09434">
        <ele>326.99</ele>
        <time>2019-01-03T08:30:30Z</time>
      </trkpt>
      <trkpt lat="44.68703" lon="5.09432">
        <ele>326.99</ele>
        <time>2019-01-03T08:30:31Z</time>
      </trkpt>
      <trkpt lat="44.687" lon="5.09431">
        <ele>326.99</ele>
        <time>2019-01-03T08:30:34Z</time>
      </trkpt>
      <trkpt lat="44.68693" lon="5.09437">
        <ele>326.02</ele>
        <time>2019-01-03T08:30:37Z</time>
      </trkpt>
      <trkpt lat="44.68689" lon="5.09441">
        <ele>325.06</ele>
        <time>2019-01-03T08:30:38Z</time>
      </trkpt>
      <trkpt lat="44.68675" lon="5.09457">
        <ele>321.22</ele>
        <time>2019-01-03T08:30:42Z</time>
      </trkpt>
      <trkpt lat="44.68673" lon="5.09461">
        <ele>321.22</ele>
        <time>2019-01-03T08:30:43Z</time>
      </trkpt>
      <trkpt lat="44.68672" lon="5.09467">
        <ele>320.74</ele>
        <time>2019-01-03T08:30:44Z</time>
      </trkpt>
      <trkpt lat="44.68664" lon="5.09499">
        <ele>317.37</ele>
        <time>2019-01-03T08:30:49Z</time>
      </trkpt>
      <trkpt lat="44.68664" lon="5.09518">
        <ele>315.45</ele>
        <time>2019-01-03T08:30:53Z</time>
      </trkpt>
      <trkpt lat="44.68663" lon="5.09521">
        <ele>314.97</ele>
        <time>2019-01-03T08:30:54Z</time>
      </trkpt>
      <trkpt lat="44.68661" lon="5.09522">
        <ele>315.45</ele>
        <time>2019-01-03T08:30:55Z</time>
      </trkpt>
      <trkpt lat="44.68658" lon="5.09524">
        <ele>315.45</ele>
        <time>2019-01-03T08:30:56Z</time>
      </trkpt>
      <trkpt lat="44.68656" lon="5.09525">
        <ele>315.93</ele>
        <time>2019-01-03T08:30:57Z</time>
      </trkpt>
      <trkpt lat="44.68636" lon="5.09534">
        <ele>317.85</ele>
        <time>2019-01-03T08:31:08Z</time>
      </trkpt>
      <trkpt lat="44.6861" lon="5.09542">
        <ele>320.26</ele>
        <time>2019-01-03T08:31:23Z</time>
      </trkpt>
      <trkpt lat="44.68588" lon="5.09543">
        <ele>321.22</ele>
        <time>2019-01-03T08:31:34Z</time>
      </trkpt>
      <trkpt lat="44.6855" lon="5.09527">
        <ele>323.62</ele>
        <time>2019-01-03T08:31:51Z</time>
      </trkpt>
      <trkpt lat="44.68547" lon="5.09523">
        <ele>317.37</ele>
        <time>2019-01-03T08:31:53Z</time>
      </trkpt>
      <trkpt lat="44.68545" lon="5.09522">
        <ele>327.47</ele>
        <time>2019-01-03T08:31:54Z</time>
      </trkpt>
      <trkpt lat="44.6854" lon="5.09518">
        <ele>323.14</ele>
        <time>2019-01-03T08:31:57Z</time>
      </trkpt>
      <trkpt lat="44.68535" lon="5.09514">
        <ele>318.81</ele>
        <time>2019-01-03T08:32:00Z</time>
      </trkpt>
      <trkpt lat="44.68533" lon="5.09513">
        <ele>331.31</ele>
        <time>2019-01-03T08:32:01Z</time>
      </trkpt>
      <trkpt lat="44.68532" lon="5.09512">
        <ele>324.58</ele>
        <time>2019-01-03T08:32:02Z</time>
      </trkpt>
      <trkpt lat="44.68505" lon="5.09506">
        <ele>327.47</ele>
        <time>2019-01-03T08:32:16Z</time>
      </trkpt>
      <trkpt lat="44.68496" lon="5.09507">
        <ele>327.95</ele>
        <time>2019-01-03T08:32:20Z</time>
      </trkpt>
      <trkpt lat="44.68495" lon="5.09508">
        <ele>328.43</ele>
        <time>2019-01-03T08:32:21Z</time>
      </trkpt>
      <trkpt lat="44.68477" lon="5.09534">
        <ele>330.83</ele>
        <time>2019-01-03T08:32:34Z</time>
      </trkpt>
      <trkpt lat="44.68455" lon="5.09554">
        <ele>332.75</ele>
        <time>2019-01-03T08:32:46Z</time>
      </trkpt>
      <trkpt lat="44.68436" lon="5.09548">
        <ele>334.68</ele>
        <time>2019-01-03T08:32:56Z</time>
      </trkpt>
      <trkpt lat="44.68426" lon="5.09513">
        <ele>336.12</ele>
        <time>2019-01-03T08:33:09Z</time>
      </trkpt>
      <trkpt lat="44.68411" lon="5.09479">
        <ele>339.48</ele>
        <time>2019-01-03T08:33:22Z</time>
      </trkpt>
      <trkpt lat="44.68403" lon="5.09469">
        <ele>341.89</ele>
        <time>2019-01-03T08:33:27Z</time>
      </trkpt>
      <trkpt lat="44.68371" lon="5.0944">
        <ele>344.29</ele>
        <time>2019-01-03T08:33:44Z</time>
      </trkpt>
      <trkpt lat="44.68348" lon="5.09408">
        <ele>347.65</ele>
        <time>2019-01-03T08:33:59Z</time>
      </trkpt>
      <trkpt lat="44.68344" lon="5.09377">
        <ele>350.06</ele>
        <time>2019-01-03T08:34:10Z</time>
      </trkpt>
      <trkpt lat="44.68344" lon="5.09335">
        <ele>352.46</ele>
        <time>2019-01-03T08:34:25Z</time>
      </trkpt>
      <trkpt lat="44.68346" lon="5.09312">
        <ele>354.86</ele>
        <time>2019-01-03T08:34:33Z</time>
      </trkpt>
      <trkpt lat="44.68347" lon="5.0931">
        <ele>355.34</ele>
        <time>2019-01-03T08:34:34Z</time>
      </trkpt>
      <trkpt lat="44.68348" lon="5.09308">
        <ele>355.83</ele>
        <time>2019-01-03T08:34:35Z</time>
      </trkpt>
      <trkpt lat="44.68351" lon="5.09307">
        <ele>355.83</ele>
        <time>2019-01-03T08:34:36Z</time>
      </trkpt>
      <trkpt lat="44.68353" lon="5.09307">
        <ele>355.83</ele>
        <time>2019-01-03T08:34:37Z</time>
      </trkpt>
      <trkpt lat="44.68355" lon="5.09309">
        <ele>356.31</ele>
        <time>2019-01-03T08:34:38Z</time>
      </trkpt>
      <trkpt lat="44.68357" lon="5.09311">
        <ele>356.79</ele>
        <time>2019-01-03T08:34:39Z</time>
      </trkpt>
      <trkpt lat="44.68358" lon="5.09314">
        <ele>356.79</ele>
        <time>2019-01-03T08:34:40Z</time>
      </trkpt>
      <trkpt lat="44.68359" lon="5.09317">
        <ele>357.27</ele>
        <time>2019-01-03T08:34:41Z</time>
      </trkpt>
      <trkpt lat="44.6836" lon="5.0932">
        <ele>357.75</ele>
        <time>2019-01-03T08:34:42Z</time>
      </trkpt>
      <trkpt lat="44.68361" lon="5.09323">
        <ele>357.75</ele>
        <time>2019-01-03T08:34:43Z</time>
      </trkpt>
      <trkpt lat="44.68369" lon="5.09353">
        <ele>358.71</ele>
        <time>2019-01-03T08:34:54Z</time>
      </trkpt>
      <trkpt lat="44.68389" lon="5.09359">
        <ele>360.15</ele>
        <time>2019-01-03T08:35:05Z</time>
      </trkpt>
      <trkpt lat="44.68391" lon="5.09356">
        <ele>359.67</ele>
        <time>2019-01-03T08:35:06Z</time>
      </trkpt>
      <trkpt lat="44.68394" lon="5.09321">
        <ele>363.04</ele>
        <time>2019-01-03T08:35:17Z</time>
      </trkpt>
      <trkpt lat="44.68397" lon="5.0928">
        <ele>367.36</ele>
        <time>2019-01-03T08:35:30Z</time>
      </trkpt>
      <trkpt lat="44.68402" lon="5.09236">
        <ele>368.32</ele>
        <time>2019-01-03T08:35:45Z</time>
      </trkpt>
      <trkpt lat="44.68423" lon="5.09209">
        <ele>370.73</ele>
        <time>2019-01-03T08:35:59Z</time>
      </trkpt>
      <trkpt lat="44.68459" lon="5.09189">
        <ele>374.09</ele>
        <time>2019-01-03T08:36:16Z</time>
      </trkpt>
      <trkpt lat="44.68491" lon="5.09173">
        <ele>377.45</ele>
        <time>2019-01-03T08:36:31Z</time>
      </trkpt>
      <trkpt lat="44.68526" lon="5.09162">
        <ele>380.82</ele>
        <time>2019-01-03T08:36:46Z</time>
      </trkpt>
      <trkpt lat="44.68556" lon="5.09151">
        <ele>382.26</ele>
        <time>2019-01-03T08:36:59Z</time>
      </trkpt>
      <trkpt lat="44.68569" lon="5.09122">
        <ele>385.15</ele>
        <time>2019-01-03T08:37:13Z</time>
      </trkpt>
      <trkpt lat="44.68565" lon="5.09102">
        <ele>388.03</ele>
        <time>2019-01-03T08:37:20Z</time>
      </trkpt>
      <trkpt lat="44.68557" lon="5.09091">
        <ele>389.47</ele>
        <time>2019-01-03T08:37:25Z</time>
      </trkpt>
      <trkpt lat="44.68541" lon="5.09083">
        <ele>391.39</ele>
        <time>2019-01-03T08:37:33Z</time>
      </trkpt>
      <trkpt lat="44.68531" lon="5.09081">
        <ele>393.32</ele>
        <time>2019-01-03T08:37:41Z</time>
      </trkpt>
      <trkpt lat="44.68529" lon="5.09081">
        <ele>393.8</ele>
        <time>2019-01-03T08:37:43Z</time>
      </trkpt>
      <trkpt lat="44.68502" lon="5.09083">
        <ele>396.2</ele>
        <time>2019-01-03T08:37:53Z</time>
      </trkpt>
      <trkpt lat="44.68481" lon="5.09076">
        <ele>398.6</ele>
        <time>2019-01-03T08:38:04Z</time>
      </trkpt>
      <trkpt lat="44.68459" lon="5.09065">
        <ele>401.01</ele>
        <time>2019-01-03T08:38:14Z</time>
      </trkpt>
      <trkpt lat="44.68433" lon="5.09046">
        <ele>402.93</ele>
        <time>2019-01-03T08:38:25Z</time>
      </trkpt>
      <trkpt lat="44.68424" lon="5.09037">
        <ele>403.41</ele>
        <time>2019-01-03T08:38:29Z</time>
      </trkpt>
      <trkpt lat="44.68424" lon="5.09033">
        <ele>403.41</ele>
        <time>2019-01-03T08:38:30Z</time>
      </trkpt>
      <trkpt lat="44.68425" lon="5.0903">
        <ele>403.89</ele>
        <time>2019-01-03T08:38:31Z</time>
      </trkpt>
      <trkpt lat="44.68426" lon="5.09028">
        <ele>403.89</ele>
        <time>2019-01-03T08:38:32Z</time>
      </trkpt>
      <trkpt lat="44.68428" lon="5.09026">
        <ele>404.37</ele>
        <time>2019-01-03T08:38:33Z</time>
      </trkpt>
      <trkpt lat="44.6843" lon="5.09026">
        <ele>404.37</ele>
        <time>2019-01-03T08:38:34Z</time>
      </trkpt>
      <trkpt lat="44.68432" lon="5.09027">
        <ele>404.85</ele>
        <time>2019-01-03T08:38:35Z</time>
      </trkpt>
      <trkpt lat="44.68434" lon="5.09028">
        <ele>405.33</ele>
        <time>2019-01-03T08:38:36Z</time>
      </trkpt>
      <trkpt lat="44.68436" lon="5.0903">
        <ele>405.81</ele>
        <time>2019-01-03T08:38:37Z</time>
      </trkpt>
      <trkpt lat="44.68464" lon="5.09041">
        <ele>407.26</ele>
        <time>2019-01-03T08:38:49Z</time>
      </trkpt>
      <trkpt lat="44.68486" lon="5.09018">
        <ele>408.22</ele>
        <time>2019-01-03T08:39:01Z</time>
      </trkpt>
      <trkpt lat="44.6849" lon="5.09006">
        <ele>408.22</ele>
        <time>2019-01-03T08:39:06Z</time>
      </trkpt>
      <trkpt lat="44.68489" lon="5.09004">
        <ele>406.77</ele>
        <time>2019-01-03T08:39:07Z</time>
      </trkpt>
      <trkpt lat="44.68489" lon="5.09001">
        <ele>412.54</ele>
        <time>2019-01-03T08:39:08Z</time>
      </trkpt>
      <trkpt lat="44.68489" lon="5.08998">
        <ele>410.14</ele>
        <time>2019-01-03T08:39:09Z</time>
      </trkpt>
      <trkpt lat="44.68489" lon="5.08996">
        <ele>410.14</ele>
        <time>2019-01-03T08:39:10Z</time>
      </trkpt>
      <trkpt lat="44.68489" lon="5.08993">
        <ele>410.62</ele>
        <time>2019-01-03T08:39:11Z</time>
      </trkpt>
      <trkpt lat="44.68489" lon="5.0899">
        <ele>409.66</ele>
        <time>2019-01-03T08:39:12Z</time>
      </trkpt>
      <trkpt lat="44.68489" lon="5.08988">
        <ele>412.06</ele>
        <time>2019-01-03T08:39:13Z</time>
      </trkpt>
      <trkpt lat="44.68489" lon="5.08985">
        <ele>410.14</ele>
        <time>2019-01-03T08:39:14Z</time>
      </trkpt>
      <trkpt lat="44.68488" lon="5.08982">
        <ele>412.06</ele>
        <time>2019-01-03T08:39:15Z</time>
      </trkpt>
      <trkpt lat="44.68487" lon="5.08979">
        <ele>411.1</ele>
        <time>2019-01-03T08:39:16Z</time>
      </trkpt>
      <trkpt lat="44.68474" lon="5.08956">
        <ele>413.98</ele>
        <time>2019-01-03T08:39:26Z</time>
      </trkpt>
      <trkpt lat="44.68458" lon="5.08938">
        <ele>416.39</ele>
        <time>2019-01-03T08:39:38Z</time>
      </trkpt>
      <trkpt lat="44.68458" lon="5.08938">
        <ele>411.1</ele>
        <time>2019-01-03T08:39:50Z</time>
      </trkpt>
      <trkpt lat="44.68458" lon="5.08938">
        <ele>419.75</ele>
        <time>2019-01-03T08:39:51Z</time>
      </trkpt>
      <trkpt lat="44.68458" lon="5.08938">
        <ele>415.43</ele>
        <time>2019-01-03T08:39:52Z</time>
      </trkpt>
      <trkpt lat="44.68458" lon="5.08938">
        <ele>418.79</ele>
        <time>2019-01-03T08:39:56Z</time>
      </trkpt>
      <trkpt lat="44.68458" lon="5.08938">
        <ele>415.91</ele>
        <time>2019-01-03T08:40:02Z</time>
      </trkpt>
      <trkpt lat="44.68457" lon="5.08936">
        <ele>416.39</ele>
        <time>2019-01-03T08:40:04Z</time>
      </trkpt>
      <trkpt lat="44.68457" lon="5.08933">
        <ele>414.95</ele>
        <time>2019-01-03T08:40:05Z</time>
      </trkpt>
      <trkpt lat="44.68455" lon="5.08931">
        <ele>417.35</ele>
        <time>2019-01-03T08:40:06Z</time>
      </trkpt>
      <trkpt lat="44.68454" lon="5.08928">
        <ele>416.87</ele>
        <time>2019-01-03T08:40:07Z</time>
      </trkpt>
      <trkpt lat="44.68453" lon="5.08926">
        <ele>416.87</ele>
        <time>2019-01-03T08:40:08Z</time>
      </trkpt>
      <trkpt lat="44.68452" lon="5.08923">
        <ele>416.87</ele>
        <time>2019-01-03T08:40:09Z</time>
      </trkpt>
      <trkpt lat="44.68451" lon="5.0892">
        <ele>417.35</ele>
        <time>2019-01-03T08:40:10Z</time>
      </trkpt>
      <trkpt lat="44.6845" lon="5.08917">
        <ele>417.35</ele>
        <time>2019-01-03T08:40:11Z</time>
      </trkpt>
      <trkpt lat="44.6845" lon="5.08914">
        <ele>417.35</ele>
        <time>2019-01-03T08:40:12Z</time>
      </trkpt>
      <trkpt lat="44.6845" lon="5.08911">
        <ele>417.35</ele>
        <time>2019-01-03T08:40:13Z</time>
      </trkpt>
      <trkpt lat="44.6845" lon="5.08909">
        <ele>417.83</ele>
        <time>2019-01-03T08:40:14Z</time>
      </trkpt>
      <trkpt lat="44.68451" lon="5.08906">
        <ele>417.83</ele>
        <time>2019-01-03T08:40:15Z</time>
      </trkpt>
      <trkpt lat="44.68451" lon="5.08904">
        <ele>417.83</ele>
        <time>2019-01-03T08:40:16Z</time>
      </trkpt>
      <trkpt lat="44.68451" lon="5.08901">
        <ele>417.83</ele>
        <time>2019-01-03T08:40:17Z</time>
      </trkpt>
      <trkpt lat="44.68452" lon="5.08899">
        <ele>417.83</ele>
        <time>2019-01-03T08:40:18Z</time>
      </trkpt>
      <trkpt lat="44.68453" lon="5.08897">
        <ele>418.31</ele>
        <time>2019-01-03T08:40:19Z</time>
      </trkpt>
      <trkpt lat="44.68457" lon="5.08891">
        <ele>418.31</ele>
        <time>2019-01-03T08:40:22Z</time>
      </trkpt>
      <trkpt lat="44.68459" lon="5.08889">
        <ele>418.31</ele>
        <time>2019-01-03T08:40:23Z</time>
      </trkpt>
      <trkpt lat="44.68461" lon="5.08887">
        <ele>418.31</ele>
        <time>2019-01-03T08:40:24Z</time>
      </trkpt>
      <trkpt lat="44.68462" lon="5.08885">
        <ele>418.31</ele>
        <time>2019-01-03T08:40:25Z</time>
      </trkpt>
      <trkpt lat="44.68464" lon="5.08884">
        <ele>418.31</ele>
        <time>2019-01-03T08:40:26Z</time>
      </trkpt>
      <trkpt lat="44.6848" lon="5.08867">
        <ele>418.31</ele>
        <time>2019-01-03T08:40:35Z</time>
      </trkpt>
      <trkpt lat="44.68482" lon="5.08866">
        <ele>419.27</ele>
        <time>2019-01-03T08:40:36Z</time>
      </trkpt>
      <trkpt lat="44.68484" lon="5.08865">
        <ele>419.27</ele>
        <time>2019-01-03T08:40:37Z</time>
      </trkpt>
      <trkpt lat="44.68506" lon="5.0884">
        <ele>422.64</ele>
        <time>2019-01-03T08:40:49Z</time>
      </trkpt>
      <trkpt lat="44.68522" lon="5.08812">
        <ele>423.6</ele>
        <time>2019-01-03T08:41:00Z</time>
      </trkpt>
      <trkpt lat="44.68523" lon="5.0881">
        <ele>423.6</ele>
        <time>2019-01-03T08:41:01Z</time>
      </trkpt>
      <trkpt lat="44.68547" lon="5.08771">
        <ele>426.48</ele>
        <time>2019-01-03T08:41:15Z</time>
      </trkpt>
      <trkpt lat="44.68553" lon="5.08764">
        <ele>427.44</ele>
        <time>2019-01-03T08:41:19Z</time>
      </trkpt>
      <trkpt lat="44.68555" lon="5.08763">
        <ele>427.92</ele>
        <time>2019-01-03T08:41:20Z</time>
      </trkpt>
      <trkpt lat="44.68557" lon="5.08761">
        <ele>427.92</ele>
        <time>2019-01-03T08:41:21Z</time>
      </trkpt>
      <trkpt lat="44.68558" lon="5.08759">
        <ele>428.4</ele>
        <time>2019-01-03T08:41:22Z</time>
      </trkpt>
      <trkpt lat="44.6856" lon="5.08756">
        <ele>428.4</ele>
        <time>2019-01-03T08:41:23Z</time>
      </trkpt>
      <trkpt lat="44.68562" lon="5.08755">
        <ele>428.89</ele>
        <time>2019-01-03T08:41:24Z</time>
      </trkpt>
      <trkpt lat="44.68564" lon="5.08753">
        <ele>428.89</ele>
        <time>2019-01-03T08:41:25Z</time>
      </trkpt>
      <trkpt lat="44.68566" lon="5.08752">
        <ele>428.89</ele>
        <time>2019-01-03T08:41:26Z</time>
      </trkpt>
      <trkpt lat="44.68588" lon="5.08734">
        <ele>431.29</ele>
        <time>2019-01-03T08:41:37Z</time>
      </trkpt>
      <trkpt lat="44.68591" lon="5.08733">
        <ele>431.29</ele>
        <time>2019-01-03T08:41:39Z</time>
      </trkpt>
      <trkpt lat="44.68593" lon="5.08731">
        <ele>431.77</ele>
        <time>2019-01-03T08:41:40Z</time>
      </trkpt>
      <trkpt lat="44.68595" lon="5.08729">
        <ele>431.77</ele>
        <time>2019-01-03T08:41:41Z</time>
      </trkpt>
      <trkpt lat="44.68597" lon="5.08728">
        <ele>432.25</ele>
        <time>2019-01-03T08:41:42Z</time>
      </trkpt>
      <trkpt lat="44.68598" lon="5.08726">
        <ele>432.73</ele>
        <time>2019-01-03T08:41:43Z</time>
      </trkpt>
      <trkpt lat="44.686" lon="5.08725">
        <ele>433.21</ele>
        <time>2019-01-03T08:41:44Z</time>
      </trkpt>
      <trkpt lat="44.68601" lon="5.08724">
        <ele>433.21</ele>
        <time>2019-01-03T08:41:45Z</time>
      </trkpt>
      <trkpt lat="44.68603" lon="5.08723">
        <ele>433.21</ele>
        <time>2019-01-03T08:41:46Z</time>
      </trkpt>
      <trkpt lat="44.68615" lon="5.08718">
        <ele>434.17</ele>
        <time>2019-01-03T08:41:53Z</time>
      </trkpt>
      <trkpt lat="44.6865" lon="5.08701">
        <ele>436.58</ele>
        <time>2019-01-03T08:42:04Z</time>
      </trkpt>
      <trkpt lat="44.68652" lon="5.08697">
        <ele>436.58</ele>
        <time>2019-01-03T08:42:05Z</time>
      </trkpt>
      <trkpt lat="44.68653" lon="5.08694">
        <ele>437.06</ele>
        <time>2019-01-03T08:42:06Z</time>
      </trkpt>
      <trkpt lat="44.68653" lon="5.08691">
        <ele>437.06</ele>
        <time>2019-01-03T08:42:07Z</time>
      </trkpt>
      <trkpt lat="44.68652" lon="5.08688">
        <ele>437.54</ele>
        <time>2019-01-03T08:42:08Z</time>
      </trkpt>
      <trkpt lat="44.68651" lon="5.08686">
        <ele>437.54</ele>
        <time>2019-01-03T08:42:09Z</time>
      </trkpt>
      <trkpt lat="44.68649" lon="5.08685">
        <ele>438.5</ele>
        <time>2019-01-03T08:42:10Z</time>
      </trkpt>
      <trkpt lat="44.68647" lon="5.08686">
        <ele>438.5</ele>
        <time>2019-01-03T08:42:11Z</time>
      </trkpt>
      <trkpt lat="44.68645" lon="5.08687">
        <ele>438.5</ele>
        <time>2019-01-03T08:42:12Z</time>
      </trkpt>
      <trkpt lat="44.68627" lon="5.08696">
        <ele>439.94</ele>
        <time>2019-01-03T08:42:22Z</time>
      </trkpt>
      <trkpt lat="44.68625" lon="5.08696">
        <ele>440.42</ele>
        <time>2019-01-03T08:42:24Z</time>
      </trkpt>
      <trkpt lat="44.68624" lon="5.08697">
        <ele>440.42</ele>
        <time>2019-01-03T08:42:25Z</time>
      </trkpt>
      <trkpt lat="44.68623" lon="5.08698">
        <ele>440.42</ele>
        <time>2019-01-03T08:42:26Z</time>
      </trkpt>
      <trkpt lat="44.68602" lon="5.08701">
        <ele>442.82</ele>
        <time>2019-01-03T08:42:37Z</time>
      </trkpt>
      <trkpt lat="44.68588" lon="5.08707">
        <ele>443.79</ele>
        <time>2019-01-03T08:42:44Z</time>
      </trkpt>
      <trkpt lat="44.68587" lon="5.08708">
        <ele>444.27</ele>
        <time>2019-01-03T08:42:45Z</time>
      </trkpt>
      <trkpt lat="44.6858" lon="5.08711">
        <ele>444.75</ele>
        <time>2019-01-03T08:42:48Z</time>
      </trkpt>
      <trkpt lat="44.68577" lon="5.08712">
        <ele>445.23</ele>
        <time>2019-01-03T08:42:49Z</time>
      </trkpt>
      <trkpt lat="44.6856" lon="5.08716">
        <ele>446.67</ele>
        <time>2019-01-03T08:42:57Z</time>
      </trkpt>
      <trkpt lat="44.68558" lon="5.08716">
        <ele>446.67</ele>
        <time>2019-01-03T08:42:58Z</time>
      </trkpt>
      <trkpt lat="44.68557" lon="5.08716">
        <ele>447.15</ele>
        <time>2019-01-03T08:42:59Z</time>
      </trkpt>
      <trkpt lat="44.68534" lon="5.08718">
        <ele>449.55</ele>
        <time>2019-01-03T08:43:10Z</time>
      </trkpt>
      <trkpt lat="44.68531" lon="5.08718">
        <ele>449.55</ele>
        <time>2019-01-03T08:43:11Z</time>
      </trkpt>
      <trkpt lat="44.68529" lon="5.08718">
        <ele>450.03</ele>
        <time>2019-01-03T08:43:12Z</time>
      </trkpt>
      <trkpt lat="44.68523" lon="5.0872">
        <ele>450.52</ele>
        <time>2019-01-03T08:43:15Z</time>
      </trkpt>
      <trkpt lat="44.68521" lon="5.0872">
        <ele>450.52</ele>
        <time>2019-01-03T08:43:16Z</time>
      </trkpt>
      <trkpt lat="44.68519" lon="5.0872">
        <ele>451</ele>
        <time>2019-01-03T08:43:17Z</time>
      </trkpt>
      <trkpt lat="44.68516" lon="5.08721">
        <ele>450.52</ele>
        <time>2019-01-03T08:43:18Z</time>
      </trkpt>
      <trkpt lat="44.68514" lon="5.08722">
        <ele>451</ele>
        <time>2019-01-03T08:43:19Z</time>
      </trkpt>
      <trkpt lat="44.68503" lon="5.08728">
        <ele>451.96</ele>
        <time>2019-01-03T08:43:25Z</time>
      </trkpt>
      <trkpt lat="44.68502" lon="5.08729">
        <ele>452.44</ele>
        <time>2019-01-03T08:43:26Z</time>
      </trkpt>
      <trkpt lat="44.68471" lon="5.08744">
        <ele>454.84</ele>
        <time>2019-01-03T08:43:38Z</time>
      </trkpt>
      <trkpt lat="44.68445" lon="5.08746">
        <ele>456.28</ele>
        <time>2019-01-03T08:43:48Z</time>
      </trkpt>
      <trkpt lat="44.68439" lon="5.08746">
        <ele>451.96</ele>
        <time>2019-01-03T08:43:57Z</time>
      </trkpt>
      <trkpt lat="44.68439" lon="5.08746">
        <ele>455.8</ele>
        <time>2019-01-03T08:43:58Z</time>
      </trkpt>
      <trkpt lat="44.68439" lon="5.08746">
        <ele>457.72</ele>
        <time>2019-01-03T08:44:00Z</time>
      </trkpt>
      <trkpt lat="44.68439" lon="5.08746">
        <ele>452.44</ele>
        <time>2019-01-03T08:44:03Z</time>
      </trkpt>
      <trkpt lat="44.68439" lon="5.08746">
        <ele>462.53</ele>
        <time>2019-01-03T08:44:04Z</time>
      </trkpt>
      <trkpt lat="44.68439" lon="5.08746">
        <ele>457.24</ele>
        <time>2019-01-03T08:44:05Z</time>
      </trkpt>
      <trkpt lat="44.68439" lon="5.08746">
        <ele>453.88</ele>
        <time>2019-01-03T08:44:11Z</time>
      </trkpt>
      <trkpt lat="44.68439" lon="5.08746">
        <ele>460.61</ele>
        <time>2019-01-03T08:44:12Z</time>
      </trkpt>
      <trkpt lat="44.68439" lon="5.08746">
        <ele>457.24</ele>
        <time>2019-01-03T08:44:13Z</time>
      </trkpt>
      <trkpt lat="44.68439" lon="5.08746">
        <ele>460.61</ele>
        <time>2019-01-03T08:44:17Z</time>
      </trkpt>
      <trkpt lat="44.68439" lon="5.08746">
        <ele>456.76</ele>
        <time>2019-01-03T08:44:18Z</time>
      </trkpt>
      <trkpt lat="44.68439" lon="5.08746">
        <ele>460.13</ele>
        <time>2019-01-03T08:44:19Z</time>
      </trkpt>
      <trkpt lat="44.68432" lon="5.08751">
        <ele>457.24</ele>
        <time>2019-01-03T08:44:25Z</time>
      </trkpt>
      <trkpt lat="44.68428" lon="5.08754">
        <ele>457.24</ele>
        <time>2019-01-03T08:44:26Z</time>
      </trkpt>
      <trkpt lat="44.68425" lon="5.08756">
        <ele>457.72</ele>
        <time>2019-01-03T08:44:27Z</time>
      </trkpt>
      <trkpt lat="44.68422" lon="5.08757">
        <ele>457.72</ele>
        <time>2019-01-03T08:44:28Z</time>
      </trkpt>
      <trkpt lat="44.6842" lon="5.08758">
        <ele>457.72</ele>
        <time>2019-01-03T08:44:29Z</time>
      </trkpt>
      <trkpt lat="44.68418" lon="5.08759">
        <ele>457.72</ele>
        <time>2019-01-03T08:44:30Z</time>
      </trkpt>
      <trkpt lat="44.68415" lon="5.0876">
        <ele>458.21</ele>
        <time>2019-01-03T08:44:31Z</time>
      </trkpt>
      <trkpt lat="44.68413" lon="5.0876">
        <ele>458.21</ele>
        <time>2019-01-03T08:44:32Z</time>
      </trkpt>
      <trkpt lat="44.68411" lon="5.08761">
        <ele>458.21</ele>
        <time>2019-01-03T08:44:33Z</time>
      </trkpt>
      <trkpt lat="44.68408" lon="5.08761">
        <ele>458.69</ele>
        <time>2019-01-03T08:44:34Z</time>
      </trkpt>
      <trkpt lat="44.68403" lon="5.08763">
        <ele>459.17</ele>
        <time>2019-01-03T08:44:38Z</time>
      </trkpt>
      <trkpt lat="44.68402" lon="5.08763">
        <ele>459.17</ele>
        <time>2019-01-03T08:44:39Z</time>
      </trkpt>
      <trkpt lat="44.68392" lon="5.08764">
        <ele>459.65</ele>
        <time>2019-01-03T08:44:43Z</time>
      </trkpt>
      <trkpt lat="44.68374" lon="5.08769">
        <ele>461.09</ele>
        <time>2019-01-03T08:44:53Z</time>
      </trkpt>
      <trkpt lat="44.68361" lon="5.08773">
        <ele>462.53</ele>
        <time>2019-01-03T08:44:58Z</time>
      </trkpt>
      <trkpt lat="44.68358" lon="5.08774">
        <ele>462.53</ele>
        <time>2019-01-03T08:44:59Z</time>
      </trkpt>
      <trkpt lat="44.68321" lon="5.08783">
        <ele>464.93</ele>
        <time>2019-01-03T08:45:13Z</time>
      </trkpt>
      <trkpt lat="44.68284" lon="5.08773">
        <ele>467.82</ele>
        <time>2019-01-03T08:45:28Z</time>
      </trkpt>
      <trkpt lat="44.6826" lon="5.08736">
        <ele>470.7</ele>
        <time>2019-01-03T08:45:43Z</time>
      </trkpt>
      <trkpt lat="44.68234" lon="5.08706">
        <ele>473.59</ele>
        <time>2019-01-03T08:45:58Z</time>
      </trkpt>
      <trkpt lat="44.68215" lon="5.08692">
        <ele>475.99</ele>
        <time>2019-01-03T08:46:08Z</time>
      </trkpt>
      <trkpt lat="44.68212" lon="5.08692">
        <ele>476.47</ele>
        <time>2019-01-03T08:46:09Z</time>
      </trkpt>
      <trkpt lat="44.6821" lon="5.08692">
        <ele>476.95</ele>
        <time>2019-01-03T08:46:10Z</time>
      </trkpt>
      <trkpt lat="44.68208" lon="5.08693">
        <ele>476.95</ele>
        <time>2019-01-03T08:46:11Z</time>
      </trkpt>
      <trkpt lat="44.68206" lon="5.08694">
        <ele>476.95</ele>
        <time>2019-01-03T08:46:12Z</time>
      </trkpt>
      <trkpt lat="44.68205" lon="5.08695">
        <ele>476.95</ele>
        <time>2019-01-03T08:46:13Z</time>
      </trkpt>
      <trkpt lat="44.68203" lon="5.08697">
        <ele>476.95</ele>
        <time>2019-01-03T08:46:14Z</time>
      </trkpt>
      <trkpt lat="44.68202" lon="5.08698">
        <ele>477.43</ele>
        <time>2019-01-03T08:46:15Z</time>
      </trkpt>
      <trkpt lat="44.682" lon="5.08699">
        <ele>477.43</ele>
        <time>2019-01-03T08:46:16Z</time>
      </trkpt>
      <trkpt lat="44.68181" lon="5.0871">
        <ele>478.87</ele>
        <time>2019-01-03T08:46:26Z</time>
      </trkpt>
      <trkpt lat="44.68179" lon="5.0871">
        <ele>479.35</ele>
        <time>2019-01-03T08:46:27Z</time>
      </trkpt>
      <trkpt lat="44.68177" lon="5.08711">
        <ele>479.35</ele>
        <time>2019-01-03T08:46:28Z</time>
      </trkpt>
      <trkpt lat="44.68175" lon="5.08711">
        <ele>479.84</ele>
        <time>2019-01-03T08:46:29Z</time>
      </trkpt>
      <trkpt lat="44.68173" lon="5.08711">
        <ele>480.32</ele>
        <time>2019-01-03T08:46:30Z</time>
      </trkpt>
      <trkpt lat="44.6817" lon="5.08711">
        <ele>480.32</ele>
        <time>2019-01-03T08:46:31Z</time>
      </trkpt>
      <trkpt lat="44.68168" lon="5.08711">
        <ele>480.32</ele>
        <time>2019-01-03T08:46:32Z</time>
      </trkpt>
      <trkpt lat="44.68165" lon="5.0871">
        <ele>480.8</ele>
        <time>2019-01-03T08:46:33Z</time>
      </trkpt>
      <trkpt lat="44.68163" lon="5.08709">
        <ele>481.28</ele>
        <time>2019-01-03T08:46:34Z</time>
      </trkpt>
      <trkpt lat="44.68134" lon="5.08693">
        <ele>483.68</ele>
        <time>2019-01-03T08:46:47Z</time>
      </trkpt>
      <trkpt lat="44.68108" lon="5.08673">
        <ele>486.08</ele>
        <time>2019-01-03T08:46:59Z</time>
      </trkpt>
      <trkpt lat="44.68085" lon="5.08656">
        <ele>487.53</ele>
        <time>2019-01-03T08:47:09Z</time>
      </trkpt>
      <trkpt lat="44.6806" lon="5.08636">
        <ele>488.97</ele>
        <time>2019-01-03T08:47:21Z</time>
      </trkpt>
      <trkpt lat="44.68042" lon="5.0863">
        <ele>490.41</ele>
        <time>2019-01-03T08:47:29Z</time>
      </trkpt>
      <trkpt lat="44.68018" lon="5.08616">
        <ele>491.85</ele>
        <time>2019-01-03T08:47:39Z</time>
      </trkpt>
      <trkpt lat="44.67983" lon="5.08604">
        <ele>494.74</ele>
        <time>2019-01-03T08:47:53Z</time>
      </trkpt>
      <trkpt lat="44.67965" lon="5.08583">
        <ele>496.66</ele>
        <time>2019-01-03T08:48:03Z</time>
      </trkpt>
      <trkpt lat="44.6798" lon="5.08585">
        <ele>498.1</ele>
        <time>2019-01-03T08:48:12Z</time>
      </trkpt>
      <trkpt lat="44.68" lon="5.086">
        <ele>499.54</ele>
        <time>2019-01-03T08:48:24Z</time>
      </trkpt>
      <trkpt lat="44.68" lon="5.086">
        <ele>499.54</ele>
        <time>2019-01-03T08:48:39Z</time>
      </trkpt>
      <trkpt lat="44.68" lon="5.086">
        <ele>499.06</ele>
        <time>2019-01-03T08:49:02Z</time>
      </trkpt>
      <trkpt lat="44.68" lon="5.086">
        <ele>500.02</ele>
        <time>2019-01-03T08:49:34Z</time>
      </trkpt>
      <trkpt lat="44.68" lon="5.086">
        <ele>500.02</ele>
        <time>2019-01-03T08:50:02Z</time>
      </trkpt>
      <trkpt lat="44.68" lon="5.086">
        <ele>499.06</ele>
        <time>2019-01-03T08:50:29Z</time>
      </trkpt>
      <trkpt lat="44.68" lon="5.086">
        <ele>499.54</ele>
        <time>2019-01-03T08:51:00Z</time>
      </trkpt>
      <trkpt lat="44.68" lon="5.08599">
        <ele>499.54</ele>
        <time>2019-01-03T08:51:28Z</time>
      </trkpt>
      <trkpt lat="44.68019" lon="5.08599">
        <ele>500.5</ele>
        <time>2019-01-03T08:51:38Z</time>
      </trkpt>
      <trkpt lat="44.68039" lon="5.0859">
        <ele>502.91</ele>
        <time>2019-01-03T08:51:49Z</time>
      </trkpt>
      <trkpt lat="44.68062" lon="5.08578">
        <ele>504.83</ele>
        <time>2019-01-03T08:52:00Z</time>
      </trkpt>
      <trkpt lat="44.68067" lon="5.08579">
        <ele>505.79</ele>
        <time>2019-01-03T08:52:02Z</time>
      </trkpt>
      <trkpt lat="44.68086" lon="5.08582">
        <ele>507.23</ele>
        <time>2019-01-03T08:52:10Z</time>
      </trkpt>
      <trkpt lat="44.68089" lon="5.08585">
        <ele>508.19</ele>
        <time>2019-01-03T08:52:12Z</time>
      </trkpt>
      <trkpt lat="44.68103" lon="5.08591">
        <ele>511.56</ele>
        <time>2019-01-03T08:52:18Z</time>
      </trkpt>
      <trkpt lat="44.68113" lon="5.08591">
        <ele>510.12</ele>
        <time>2019-01-03T08:52:22Z</time>
      </trkpt>
      <trkpt lat="44.68122" lon="5.0859">
        <ele>510.6</ele>
        <time>2019-01-03T08:52:26Z</time>
      </trkpt>
      <trkpt lat="44.68138" lon="5.0857">
        <ele>512.52</ele>
        <time>2019-01-03T08:52:34Z</time>
      </trkpt>
      <trkpt lat="44.68146" lon="5.08539">
        <ele>513.48</ele>
        <time>2019-01-03T08:52:44Z</time>
      </trkpt>
      <trkpt lat="44.68146" lon="5.08536">
        <ele>513.48</ele>
        <time>2019-01-03T08:52:45Z</time>
      </trkpt>
      <trkpt lat="44.68151" lon="5.085">
        <ele>514.92</ele>
        <time>2019-01-03T08:52:55Z</time>
      </trkpt>
      <trkpt lat="44.68154" lon="5.08478">
        <ele>515.4</ele>
        <time>2019-01-03T08:53:01Z</time>
      </trkpt>
      <trkpt lat="44.68164" lon="5.08445">
        <ele>518.77</ele>
        <time>2019-01-03T08:53:11Z</time>
      </trkpt>
      <trkpt lat="44.6817" lon="5.08434">
        <ele>520.21</ele>
        <time>2019-01-03T08:53:14Z</time>
      </trkpt>
      <trkpt lat="44.68182" lon="5.08431">
        <ele>519.73</ele>
        <time>2019-01-03T08:53:18Z</time>
      </trkpt>
      <trkpt lat="44.68217" lon="5.08416">
        <ele>520.69</ele>
        <time>2019-01-03T08:53:32Z</time>
      </trkpt>
      <trkpt lat="44.6823" lon="5.08368">
        <ele>524.06</ele>
        <time>2019-01-03T08:53:45Z</time>
      </trkpt>
      <trkpt lat="44.68234" lon="5.08328">
        <ele>526.94</ele>
        <time>2019-01-03T08:53:56Z</time>
      </trkpt>
      <trkpt lat="44.68235" lon="5.08317">
        <ele>528.38</ele>
        <time>2019-01-03T08:53:59Z</time>
      </trkpt>
      <trkpt lat="44.68237" lon="5.08301">
        <ele>530.3</ele>
        <time>2019-01-03T08:54:03Z</time>
      </trkpt>
      <trkpt lat="44.6824" lon="5.08273">
        <ele>533.67</ele>
        <time>2019-01-03T08:54:11Z</time>
      </trkpt>
      <trkpt lat="44.68241" lon="5.0827">
        <ele>534.15</ele>
        <time>2019-01-03T08:54:12Z</time>
      </trkpt>
      <trkpt lat="44.68242" lon="5.08264">
        <ele>534.63</ele>
        <time>2019-01-03T08:54:14Z</time>
      </trkpt>
      <trkpt lat="44.68232" lon="5.08254">
        <ele>531.75</ele>
        <time>2019-01-03T08:54:20Z</time>
      </trkpt>
      <trkpt lat="44.68221" lon="5.08248">
        <ele>532.71</ele>
        <time>2019-01-03T08:54:26Z</time>
      </trkpt>
      <trkpt lat="44.68205" lon="5.08246">
        <ele>533.67</ele>
        <time>2019-01-03T08:54:38Z</time>
      </trkpt>
      <trkpt lat="44.68205" lon="5.08246">
        <ele>533.19</ele>
        <time>2019-01-03T08:55:00Z</time>
      </trkpt>
      <trkpt lat="44.68192" lon="5.08246">
        <ele>534.15</ele>
        <time>2019-01-03T08:55:07Z</time>
      </trkpt>
      <trkpt lat="44.68176" lon="5.08257">
        <ele>534.63</ele>
        <time>2019-01-03T08:55:21Z</time>
      </trkpt>
      <trkpt lat="44.68172" lon="5.08261">
        <ele>534.63</ele>
        <time>2019-01-03T08:55:23Z</time>
      </trkpt>
      <trkpt lat="44.68162" lon="5.0828">
        <ele>533.19</ele>
        <time>2019-01-03T08:55:27Z</time>
      </trkpt>
      <trkpt lat="44.68159" lon="5.08284">
        <ele>532.71</ele>
        <time>2019-01-03T08:55:28Z</time>
      </trkpt>
      <trkpt lat="44.68154" lon="5.08289">
        <ele>532.23</ele>
        <time>2019-01-03T08:55:29Z</time>
      </trkpt>
      <trkpt lat="44.6815" lon="5.08292">
        <ele>532.23</ele>
        <time>2019-01-03T08:55:30Z</time>
      </trkpt>
      <trkpt lat="44.68146" lon="5.08294">
        <ele>531.75</ele>
        <time>2019-01-03T08:55:31Z</time>
      </trkpt>
      <trkpt lat="44.68141" lon="5.08296">
        <ele>531.75</ele>
        <time>2019-01-03T08:55:32Z</time>
      </trkpt>
      <trkpt lat="44.68137" lon="5.08298">
        <ele>531.27</ele>
        <time>2019-01-03T08:55:33Z</time>
      </trkpt>
      <trkpt lat="44.68133" lon="5.08298">
        <ele>531.75</ele>
        <time>2019-01-03T08:55:34Z</time>
      </trkpt>
      <trkpt lat="44.68129" lon="5.08299">
        <ele>532.23</ele>
        <time>2019-01-03T08:55:35Z</time>
      </trkpt>
      <trkpt lat="44.68093" lon="5.08308">
        <ele>534.15</ele>
        <time>2019-01-03T08:55:46Z</time>
      </trkpt>
      <trkpt lat="44.68082" lon="5.08311">
        <ele>534.15</ele>
        <time>2019-01-03T08:55:49Z</time>
      </trkpt>
      <trkpt lat="44.68078" lon="5.0831">
        <ele>534.15</ele>
        <time>2019-01-03T08:55:50Z</time>
      </trkpt>
      <trkpt lat="44.68073" lon="5.08304">
        <ele>534.15</ele>
        <time>2019-01-03T08:55:52Z</time>
      </trkpt>
      <trkpt lat="44.68071" lon="5.08301">
        <ele>534.63</ele>
        <time>2019-01-03T08:55:53Z</time>
      </trkpt>
      <trkpt lat="44.68069" lon="5.08298">
        <ele>534.63</ele>
        <time>2019-01-03T08:55:54Z</time>
      </trkpt>
      <trkpt lat="44.68067" lon="5.08295">
        <ele>534.15</ele>
        <time>2019-01-03T08:55:55Z</time>
      </trkpt>
      <trkpt lat="44.68065" lon="5.08291">
        <ele>534.15</ele>
        <time>2019-01-03T08:55:56Z</time>
      </trkpt>
      <trkpt lat="44.68039" lon="5.08281">
        <ele>531.75</ele>
        <time>2019-01-03T08:56:03Z</time>
      </trkpt>
      <trkpt lat="44.68034" lon="5.0828">
        <ele>531.27</ele>
        <time>2019-01-03T08:56:04Z</time>
      </trkpt>
      <trkpt lat="44.6803" lon="5.08277">
        <ele>530.79</ele>
        <time>2019-01-03T08:56:05Z</time>
      </trkpt>
      <trkpt lat="44.68026" lon="5.08275">
        <ele>530.79</ele>
        <time>2019-01-03T08:56:06Z</time>
      </trkpt>
      <trkpt lat="44.68022" lon="5.08273">
        <ele>530.3</ele>
        <time>2019-01-03T08:56:07Z</time>
      </trkpt>
      <trkpt lat="44.68017" lon="5.08269">
        <ele>529.82</ele>
        <time>2019-01-03T08:56:08Z</time>
      </trkpt>
      <trkpt lat="44.68012" lon="5.08265">
        <ele>529.82</ele>
        <time>2019-01-03T08:56:09Z</time>
      </trkpt>
      <trkpt lat="44.68007" lon="5.08261">
        <ele>529.82</ele>
        <time>2019-01-03T08:56:10Z</time>
      </trkpt>
      <trkpt lat="44.68001" lon="5.08258">
        <ele>529.82</ele>
        <time>2019-01-03T08:56:11Z</time>
      </trkpt>
      <trkpt lat="44.67996" lon="5.08255">
        <ele>529.34</ele>
        <time>2019-01-03T08:56:12Z</time>
      </trkpt>
      <trkpt lat="44.67986" lon="5.08248">
        <ele>528.86</ele>
        <time>2019-01-03T08:56:14Z</time>
      </trkpt>
      <trkpt lat="44.67981" lon="5.08243">
        <ele>527.9</ele>
        <time>2019-01-03T08:56:15Z</time>
      </trkpt>
      <trkpt lat="44.67976" lon="5.08237">
        <ele>527.9</ele>
        <time>2019-01-03T08:56:16Z</time>
      </trkpt>
      <trkpt lat="44.67972" lon="5.08232">
        <ele>527.9</ele>
        <time>2019-01-03T08:56:17Z</time>
      </trkpt>
      <trkpt lat="44.67969" lon="5.08226">
        <ele>527.9</ele>
        <time>2019-01-03T08:56:18Z</time>
      </trkpt>
      <trkpt lat="44.67954" lon="5.08205">
        <ele>528.86</ele>
        <time>2019-01-03T08:56:24Z</time>
      </trkpt>
      <trkpt lat="44.6795" lon="5.08204">
        <ele>527.9</ele>
        <time>2019-01-03T08:56:25Z</time>
      </trkpt>
      <trkpt lat="44.67938" lon="5.08196">
        <ele>526.46</ele>
        <time>2019-01-03T08:56:28Z</time>
      </trkpt>
      <trkpt lat="44.67934" lon="5.08193">
        <ele>525.5</ele>
        <time>2019-01-03T08:56:29Z</time>
      </trkpt>
      <trkpt lat="44.67928" lon="5.08189">
        <ele>525.02</ele>
        <time>2019-01-03T08:56:30Z</time>
      </trkpt>
      <trkpt lat="44.67917" lon="5.08184">
        <ele>523.58</ele>
        <time>2019-01-03T08:56:32Z</time>
      </trkpt>
      <trkpt lat="44.67911" lon="5.08182">
        <ele>523.09</ele>
        <time>2019-01-03T08:56:33Z</time>
      </trkpt>
      <trkpt lat="44.67905" lon="5.08178">
        <ele>522.61</ele>
        <time>2019-01-03T08:56:34Z</time>
      </trkpt>
      <trkpt lat="44.67899" lon="5.08175">
        <ele>522.61</ele>
        <time>2019-01-03T08:56:35Z</time>
      </trkpt>
      <trkpt lat="44.67894" lon="5.08172">
        <ele>522.13</ele>
        <time>2019-01-03T08:56:36Z</time>
      </trkpt>
      <trkpt lat="44.6789" lon="5.0817">
        <ele>522.61</ele>
        <time>2019-01-03T08:56:37Z</time>
      </trkpt>
      <trkpt lat="44.67885" lon="5.08168">
        <ele>522.61</ele>
        <time>2019-01-03T08:56:38Z</time>
      </trkpt>
      <trkpt lat="44.67881" lon="5.08166">
        <ele>523.58</ele>
        <time>2019-01-03T08:56:39Z</time>
      </trkpt>
      <trkpt lat="44.67864" lon="5.08158">
        <ele>526.46</ele>
        <time>2019-01-03T08:56:45Z</time>
      </trkpt>
      <trkpt lat="44.67861" lon="5.08157">
        <ele>527.42</ele>
        <time>2019-01-03T08:56:47Z</time>
      </trkpt>
      <trkpt lat="44.67858" lon="5.08156">
        <ele>527.9</ele>
        <time>2019-01-03T08:56:49Z</time>
      </trkpt>
      <trkpt lat="44.67848" lon="5.08164">
        <ele>527.42</ele>
        <time>2019-01-03T08:56:55Z</time>
      </trkpt>
      <trkpt lat="44.67847" lon="5.08167">
        <ele>526.94</ele>
        <time>2019-01-03T08:56:56Z</time>
      </trkpt>
      <trkpt lat="44.67844" lon="5.08169">
        <ele>526.46</ele>
        <time>2019-01-03T08:56:57Z</time>
      </trkpt>
      <trkpt lat="44.67842" lon="5.08171">
        <ele>525.98</ele>
        <time>2019-01-03T08:56:58Z</time>
      </trkpt>
      <trkpt lat="44.6784" lon="5.08173">
        <ele>525.98</ele>
        <time>2019-01-03T08:56:59Z</time>
      </trkpt>
      <trkpt lat="44.67838" lon="5.08175">
        <ele>525.98</ele>
        <time>2019-01-03T08:57:00Z</time>
      </trkpt>
      <trkpt lat="44.67835" lon="5.08178">
        <ele>525.5</ele>
        <time>2019-01-03T08:57:02Z</time>
      </trkpt>
      <trkpt lat="44.67828" lon="5.08184">
        <ele>525.5</ele>
        <time>2019-01-03T08:57:07Z</time>
      </trkpt>
      <trkpt lat="44.67826" lon="5.08185">
        <ele>525.02</ele>
        <time>2019-01-03T08:57:08Z</time>
      </trkpt>
      <trkpt lat="44.67824" lon="5.08185">
        <ele>524.54</ele>
        <time>2019-01-03T08:57:09Z</time>
      </trkpt>
      <trkpt lat="44.67821" lon="5.08187">
        <ele>525.02</ele>
        <time>2019-01-03T08:57:10Z</time>
      </trkpt>
      <trkpt lat="44.67818" lon="5.08188">
        <ele>524.54</ele>
        <time>2019-01-03T08:57:11Z</time>
      </trkpt>
      <trkpt lat="44.67814" lon="5.0819">
        <ele>523.58</ele>
        <time>2019-01-03T08:57:12Z</time>
      </trkpt>
      <trkpt lat="44.6781" lon="5.08191">
        <ele>523.58</ele>
        <time>2019-01-03T08:57:13Z</time>
      </trkpt>
      <trkpt lat="44.67805" lon="5.08191">
        <ele>523.09</ele>
        <time>2019-01-03T08:57:14Z</time>
      </trkpt>
      <trkpt lat="44.67801" lon="5.08192">
        <ele>523.09</ele>
        <time>2019-01-03T08:57:15Z</time>
      </trkpt>
      <trkpt lat="44.67796" lon="5.08193">
        <ele>522.61</ele>
        <time>2019-01-03T08:57:16Z</time>
      </trkpt>
      <trkpt lat="44.67792" lon="5.08194">
        <ele>522.61</ele>
        <time>2019-01-03T08:57:17Z</time>
      </trkpt>
      <trkpt lat="44.67787" lon="5.08193">
        <ele>522.61</ele>
        <time>2019-01-03T08:57:18Z</time>
      </trkpt>
      <trkpt lat="44.67783" lon="5.08193">
        <ele>522.61</ele>
        <time>2019-01-03T08:57:19Z</time>
      </trkpt>
      <trkpt lat="44.67754" lon="5.08206">
        <ele>525.02</ele>
        <time>2019-01-03T08:57:28Z</time>
      </trkpt>
      <trkpt lat="44.67753" lon="5.0821">
        <ele>525.02</ele>
        <time>2019-01-03T08:57:31Z</time>
      </trkpt>
      <trkpt lat="44.67754" lon="5.08211">
        <ele>523.58</ele>
        <time>2019-01-03T08:57:48Z</time>
      </trkpt>
      <trkpt lat="44.67754" lon="5.08211">
        <ele>522.61</ele>
        <time>2019-01-03T08:58:24Z</time>
      </trkpt>
      <trkpt lat="44.67752" lon="5.08212">
        <ele>523.09</ele>
        <time>2019-01-03T08:58:30Z</time>
      </trkpt>
      <trkpt lat="44.6775" lon="5.08213">
        <ele>523.58</ele>
        <time>2019-01-03T08:58:31Z</time>
      </trkpt>
      <trkpt lat="44.67749" lon="5.08214">
        <ele>523.58</ele>
        <time>2019-01-03T08:58:32Z</time>
      </trkpt>
      <trkpt lat="44.67747" lon="5.08216">
        <ele>523.58</ele>
        <time>2019-01-03T08:58:33Z</time>
      </trkpt>
      <trkpt lat="44.67745" lon="5.08219">
        <ele>523.09</ele>
        <time>2019-01-03T08:58:34Z</time>
      </trkpt>
      <trkpt lat="44.67742" lon="5.08221">
        <ele>523.09</ele>
        <time>2019-01-03T08:58:35Z</time>
      </trkpt>
      <trkpt lat="44.67739" lon="5.08224">
        <ele>523.09</ele>
        <time>2019-01-03T08:58:36Z</time>
      </trkpt>
      <trkpt lat="44.67736" lon="5.08227">
        <ele>522.61</ele>
        <time>2019-01-03T08:58:37Z</time>
      </trkpt>
      <trkpt lat="44.67733" lon="5.0823">
        <ele>522.61</ele>
        <time>2019-01-03T08:58:38Z</time>
      </trkpt>
      <trkpt lat="44.6773" lon="5.08233">
        <ele>522.13</ele>
        <time>2019-01-03T08:58:39Z</time>
      </trkpt>
      <trkpt lat="44.6772" lon="5.08245">
        <ele>520.21</ele>
        <time>2019-01-03T08:58:42Z</time>
      </trkpt>
      <trkpt lat="44.67717" lon="5.08251">
        <ele>520.21</ele>
        <time>2019-01-03T08:58:43Z</time>
      </trkpt>
      <trkpt lat="44.67715" lon="5.08256">
        <ele>519.73</ele>
        <time>2019-01-03T08:58:44Z</time>
      </trkpt>
      <trkpt lat="44.67712" lon="5.08262">
        <ele>519.73</ele>
        <time>2019-01-03T08:58:45Z</time>
      </trkpt>
      <trkpt lat="44.67709" lon="5.08267">
        <ele>518.77</ele>
        <time>2019-01-03T08:58:46Z</time>
      </trkpt>
      <trkpt lat="44.67706" lon="5.08272">
        <ele>518.29</ele>
        <time>2019-01-03T08:58:47Z</time>
      </trkpt>
      <trkpt lat="44.67703" lon="5.08276">
        <ele>517.81</ele>
        <time>2019-01-03T08:58:48Z</time>
      </trkpt>
      <trkpt lat="44.67701" lon="5.0828">
        <ele>516.85</ele>
        <time>2019-01-03T08:58:49Z</time>
      </trkpt>
      <trkpt lat="44.67696" lon="5.08287">
        <ele>516.37</ele>
        <time>2019-01-03T08:58:51Z</time>
      </trkpt>
      <trkpt lat="44.67682" lon="5.0831">
        <ele>513</ele>
        <time>2019-01-03T08:58:57Z</time>
      </trkpt>
      <trkpt lat="44.67671" lon="5.08314">
        <ele>511.08</ele>
        <time>2019-01-03T08:59:00Z</time>
      </trkpt>
      <trkpt lat="44.67667" lon="5.08313">
        <ele>510.6</ele>
        <time>2019-01-03T08:59:01Z</time>
      </trkpt>
      <trkpt lat="44.67663" lon="5.08311">
        <ele>509.64</ele>
        <time>2019-01-03T08:59:02Z</time>
      </trkpt>
      <trkpt lat="44.67659" lon="5.08309">
        <ele>508.67</ele>
        <time>2019-01-03T08:59:03Z</time>
      </trkpt>
      <trkpt lat="44.67655" lon="5.08309">
        <ele>507.71</ele>
        <time>2019-01-03T08:59:04Z</time>
      </trkpt>
      <trkpt lat="44.67652" lon="5.08309">
        <ele>507.71</ele>
        <time>2019-01-03T08:59:05Z</time>
      </trkpt>
      <trkpt lat="44.67651" lon="5.08309">
        <ele>508.19</ele>
        <time>2019-01-03T08:59:06Z</time>
      </trkpt>
      <trkpt lat="44.6765" lon="5.0831">
        <ele>507.71</ele>
        <time>2019-01-03T08:59:07Z</time>
      </trkpt>
      <trkpt lat="44.67648" lon="5.0831">
        <ele>508.19</ele>
        <time>2019-01-03T08:59:08Z</time>
      </trkpt>
      <trkpt lat="44.67647" lon="5.0831">
        <ele>507.71</ele>
        <time>2019-01-03T08:59:09Z</time>
      </trkpt>
      <trkpt lat="44.67646" lon="5.08311">
        <ele>507.71</ele>
        <time>2019-01-03T08:59:10Z</time>
      </trkpt>
      <trkpt lat="44.67642" lon="5.08313">
        <ele>507.71</ele>
        <time>2019-01-03T08:59:19Z</time>
      </trkpt>
      <trkpt lat="44.67643" lon="5.08313">
        <ele>507.23</ele>
        <time>2019-01-03T08:59:37Z</time>
      </trkpt>
      <trkpt lat="44.67642" lon="5.08313">
        <ele>505.79</ele>
        <time>2019-01-03T09:00:10Z</time>
      </trkpt>
      <trkpt lat="44.67641" lon="5.08312">
        <ele>506.27</ele>
        <time>2019-01-03T09:00:31Z</time>
      </trkpt>
      <trkpt lat="44.67639" lon="5.08311">
        <ele>506.27</ele>
        <time>2019-01-03T09:00:32Z</time>
      </trkpt>
      <trkpt lat="44.67636" lon="5.0831">
        <ele>505.79</ele>
        <time>2019-01-03T09:00:33Z</time>
      </trkpt>
      <trkpt lat="44.67622" lon="5.08303">
        <ele>503.87</ele>
        <time>2019-01-03T09:00:36Z</time>
      </trkpt>
      <trkpt lat="44.67609" lon="5.08294">
        <ele>503.87</ele>
        <time>2019-01-03T09:00:39Z</time>
      </trkpt>
      <trkpt lat="44.67605" lon="5.08293">
        <ele>503.87</ele>
        <time>2019-01-03T09:00:40Z</time>
      </trkpt>
      <trkpt lat="44.67583" lon="5.08294">
        <ele>507.23</ele>
        <time>2019-01-03T09:00:48Z</time>
      </trkpt>
      <trkpt lat="44.67574" lon="5.083">
        <ele>508.67</ele>
        <time>2019-01-03T09:00:54Z</time>
      </trkpt>
      <trkpt lat="44.67573" lon="5.08302">
        <ele>509.16</ele>
        <time>2019-01-03T09:00:55Z</time>
      </trkpt>
      <trkpt lat="44.67573" lon="5.08304">
        <ele>509.16</ele>
        <time>2019-01-03T09:00:56Z</time>
      </trkpt>
      <trkpt lat="44.67572" lon="5.08306">
        <ele>509.16</ele>
        <time>2019-01-03T09:00:57Z</time>
      </trkpt>
      <trkpt lat="44.67571" lon="5.08308">
        <ele>509.16</ele>
        <time>2019-01-03T09:00:58Z</time>
      </trkpt>
      <trkpt lat="44.67564" lon="5.08323">
        <ele>510.12</ele>
        <time>2019-01-03T09:01:04Z</time>
      </trkpt>
      <trkpt lat="44.67539" lon="5.08343">
        <ele>512.52</ele>
        <time>2019-01-03T09:01:17Z</time>
      </trkpt>
      <trkpt lat="44.67533" lon="5.08363">
        <ele>511.08</ele>
        <time>2019-01-03T09:01:21Z</time>
      </trkpt>
      <trkpt lat="44.67531" lon="5.08369">
        <ele>510.6</ele>
        <time>2019-01-03T09:01:22Z</time>
      </trkpt>
      <trkpt lat="44.6753" lon="5.08375">
        <ele>509.16</ele>
        <time>2019-01-03T09:01:23Z</time>
      </trkpt>
      <trkpt lat="44.67528" lon="5.08381">
        <ele>509.64</ele>
        <time>2019-01-03T09:01:24Z</time>
      </trkpt>
      <trkpt lat="44.67526" lon="5.08386">
        <ele>509.64</ele>
        <time>2019-01-03T09:01:25Z</time>
      </trkpt>
      <trkpt lat="44.67524" lon="5.08391">
        <ele>509.64</ele>
        <time>2019-01-03T09:01:26Z</time>
      </trkpt>
      <trkpt lat="44.67521" lon="5.08395">
        <ele>509.64</ele>
        <time>2019-01-03T09:01:27Z</time>
      </trkpt>
      <trkpt lat="44.67519" lon="5.08398">
        <ele>509.64</ele>
        <time>2019-01-03T09:01:28Z</time>
      </trkpt>
      <trkpt lat="44.67515" lon="5.08402">
        <ele>509.16</ele>
        <time>2019-01-03T09:01:29Z</time>
      </trkpt>
      <trkpt lat="44.67512" lon="5.08407">
        <ele>509.16</ele>
        <time>2019-01-03T09:01:30Z</time>
      </trkpt>
      <trkpt lat="44.67491" lon="5.08438">
        <ele>509.16</ele>
        <time>2019-01-03T09:01:39Z</time>
      </trkpt>
      <trkpt lat="44.67483" lon="5.0844">
        <ele>509.16</ele>
        <time>2019-01-03T09:01:41Z</time>
      </trkpt>
      <trkpt lat="44.67475" lon="5.08438">
        <ele>508.67</ele>
        <time>2019-01-03T09:01:43Z</time>
      </trkpt>
      <trkpt lat="44.67471" lon="5.08436">
        <ele>508.67</ele>
        <time>2019-01-03T09:01:44Z</time>
      </trkpt>
      <trkpt lat="44.67454" lon="5.08431">
        <ele>509.16</ele>
        <time>2019-01-03T09:01:49Z</time>
      </trkpt>
      <trkpt lat="44.6745" lon="5.08434">
        <ele>508.19</ele>
        <time>2019-01-03T09:01:50Z</time>
      </trkpt>
      <trkpt lat="44.67431" lon="5.08456">
        <ele>504.35</ele>
        <time>2019-01-03T09:01:54Z</time>
      </trkpt>
      <trkpt lat="44.6742" lon="5.08466">
        <ele>503.87</ele>
        <time>2019-01-03T09:01:56Z</time>
      </trkpt>
      <trkpt lat="44.67415" lon="5.0847">
        <ele>503.87</ele>
        <time>2019-01-03T09:01:57Z</time>
      </trkpt>
      <trkpt lat="44.67411" lon="5.08474">
        <ele>503.87</ele>
        <time>2019-01-03T09:01:58Z</time>
      </trkpt>
      <trkpt lat="44.67398" lon="5.08488">
        <ele>503.87</ele>
        <time>2019-01-03T09:02:01Z</time>
      </trkpt>
      <trkpt lat="44.67367" lon="5.08539">
        <ele>505.79</ele>
        <time>2019-01-03T09:02:13Z</time>
      </trkpt>
      <trkpt lat="44.67353" lon="5.08565">
        <ele>508.19</ele>
        <time>2019-01-03T09:02:21Z</time>
      </trkpt>
      <trkpt lat="44.67347" lon="5.08585">
        <ele>506.75</ele>
        <time>2019-01-03T09:02:25Z</time>
      </trkpt>
      <trkpt lat="44.6734" lon="5.08604">
        <ele>505.79</ele>
        <time>2019-01-03T09:02:28Z</time>
      </trkpt>
      <trkpt lat="44.67339" lon="5.08611">
        <ele>505.79</ele>
        <time>2019-01-03T09:02:29Z</time>
      </trkpt>
      <trkpt lat="44.67338" lon="5.08617">
        <ele>506.27</ele>
        <time>2019-01-03T09:02:30Z</time>
      </trkpt>
      <trkpt lat="44.67337" lon="5.08632">
        <ele>509.64</ele>
        <time>2019-01-03T09:02:33Z</time>
      </trkpt>
      <trkpt lat="44.67337" lon="5.08635">
        <ele>509.64</ele>
        <time>2019-01-03T09:02:34Z</time>
      </trkpt>
      <trkpt lat="44.67335" lon="5.08662">
        <ele>512.04</ele>
        <time>2019-01-03T09:02:41Z</time>
      </trkpt>
      <trkpt lat="44.67336" lon="5.08665">
        <ele>512.52</ele>
        <time>2019-01-03T09:02:42Z</time>
      </trkpt>
      <trkpt lat="44.67336" lon="5.08671">
        <ele>512.52</ele>
        <time>2019-01-03T09:02:44Z</time>
      </trkpt>
      <trkpt lat="44.67335" lon="5.08675">
        <ele>512.52</ele>
        <time>2019-01-03T09:02:45Z</time>
      </trkpt>
      <trkpt lat="44.67334" lon="5.08679">
        <ele>512.04</ele>
        <time>2019-01-03T09:02:46Z</time>
      </trkpt>
      <trkpt lat="44.67335" lon="5.08706">
        <ele>513.96</ele>
        <time>2019-01-03T09:02:52Z</time>
      </trkpt>
      <trkpt lat="44.67334" lon="5.08709">
        <ele>514.44</ele>
        <time>2019-01-03T09:02:53Z</time>
      </trkpt>
      <trkpt lat="44.67334" lon="5.08712">
        <ele>514.44</ele>
        <time>2019-01-03T09:02:54Z</time>
      </trkpt>
      <trkpt lat="44.67333" lon="5.08714">
        <ele>514.44</ele>
        <time>2019-01-03T09:02:55Z</time>
      </trkpt>
      <trkpt lat="44.67331" lon="5.08717">
        <ele>514.92</ele>
        <time>2019-01-03T09:02:56Z</time>
      </trkpt>
      <trkpt lat="44.67329" lon="5.0872">
        <ele>514.92</ele>
        <time>2019-01-03T09:02:57Z</time>
      </trkpt>
      <trkpt lat="44.67327" lon="5.08724">
        <ele>514.44</ele>
        <time>2019-01-03T09:02:58Z</time>
      </trkpt>
      <trkpt lat="44.67325" lon="5.08728">
        <ele>513.96</ele>
        <time>2019-01-03T09:02:59Z</time>
      </trkpt>
      <trkpt lat="44.67323" lon="5.08733">
        <ele>513.48</ele>
        <time>2019-01-03T09:03:00Z</time>
      </trkpt>
      <trkpt lat="44.67322" lon="5.08739">
        <ele>513</ele>
        <time>2019-01-03T09:03:01Z</time>
      </trkpt>
      <trkpt lat="44.67322" lon="5.08746">
        <ele>512.04</ele>
        <time>2019-01-03T09:03:02Z</time>
      </trkpt>
      <trkpt lat="44.67322" lon="5.08752">
        <ele>511.08</ele>
        <time>2019-01-03T09:03:03Z</time>
      </trkpt>
      <trkpt lat="44.67325" lon="5.08758">
        <ele>511.08</ele>
        <time>2019-01-03T09:03:04Z</time>
      </trkpt>
      <trkpt lat="44.67331" lon="5.08768">
        <ele>510.6</ele>
        <time>2019-01-03T09:03:06Z</time>
      </trkpt>
      <trkpt lat="44.67341" lon="5.08792">
        <ele>511.56</ele>
        <time>2019-01-03T09:03:11Z</time>
      </trkpt>
      <trkpt lat="44.67344" lon="5.08795">
        <ele>511.56</ele>
        <time>2019-01-03T09:03:12Z</time>
      </trkpt>
      <trkpt lat="44.67347" lon="5.08799">
        <ele>511.08</ele>
        <time>2019-01-03T09:03:13Z</time>
      </trkpt>
      <trkpt lat="44.67349" lon="5.08803">
        <ele>511.08</ele>
        <time>2019-01-03T09:03:14Z</time>
      </trkpt>
      <trkpt lat="44.67351" lon="5.08809">
        <ele>511.08</ele>
        <time>2019-01-03T09:03:15Z</time>
      </trkpt>
      <trkpt lat="44.67353" lon="5.08815">
        <ele>511.08</ele>
        <time>2019-01-03T09:03:16Z</time>
      </trkpt>
      <trkpt lat="44.67354" lon="5.08822">
        <ele>510.6</ele>
        <time>2019-01-03T09:03:17Z</time>
      </trkpt>
      <trkpt lat="44.67355" lon="5.08829">
        <ele>510.12</ele>
        <time>2019-01-03T09:03:18Z</time>
      </trkpt>
      <trkpt lat="44.67355" lon="5.08836">
        <ele>510.12</ele>
        <time>2019-01-03T09:03:19Z</time>
      </trkpt>
      <trkpt lat="44.67353" lon="5.08842">
        <ele>509.16</ele>
        <time>2019-01-03T09:03:20Z</time>
      </trkpt>
      <trkpt lat="44.67351" lon="5.08849">
        <ele>508.67</ele>
        <time>2019-01-03T09:03:21Z</time>
      </trkpt>
      <trkpt lat="44.67349" lon="5.08855">
        <ele>508.67</ele>
        <time>2019-01-03T09:03:22Z</time>
      </trkpt>
      <trkpt lat="44.67347" lon="5.08862">
        <ele>508.67</ele>
        <time>2019-01-03T09:03:23Z</time>
      </trkpt>
      <trkpt lat="44.67346" lon="5.08868">
        <ele>508.19</ele>
        <time>2019-01-03T09:03:24Z</time>
      </trkpt>
      <trkpt lat="44.67344" lon="5.08874">
        <ele>508.19</ele>
        <time>2019-01-03T09:03:25Z</time>
      </trkpt>
      <trkpt lat="44.67342" lon="5.08881">
        <ele>507.71</ele>
        <time>2019-01-03T09:03:26Z</time>
      </trkpt>
      <trkpt lat="44.6734" lon="5.08887">
        <ele>507.23</ele>
        <time>2019-01-03T09:03:27Z</time>
      </trkpt>
      <trkpt lat="44.6734" lon="5.08894">
        <ele>506.75</ele>
        <time>2019-01-03T09:03:28Z</time>
      </trkpt>
      <trkpt lat="44.67339" lon="5.08901">
        <ele>506.27</ele>
        <time>2019-01-03T09:03:29Z</time>
      </trkpt>
      <trkpt lat="44.67337" lon="5.08908">
        <ele>506.27</ele>
        <time>2019-01-03T09:03:30Z</time>
      </trkpt>
      <trkpt lat="44.67336" lon="5.08915">
        <ele>505.79</ele>
        <time>2019-01-03T09:03:31Z</time>
      </trkpt>
      <trkpt lat="44.67335" lon="5.08923">
        <ele>505.31</ele>
        <time>2019-01-03T09:03:32Z</time>
      </trkpt>
      <trkpt lat="44.67332" lon="5.08938">
        <ele>504.83</ele>
        <time>2019-01-03T09:03:34Z</time>
      </trkpt>
      <trkpt lat="44.67332" lon="5.08945">
        <ele>504.35</ele>
        <time>2019-01-03T09:03:35Z</time>
      </trkpt>
      <trkpt lat="44.67329" lon="5.08959">
        <ele>503.39</ele>
        <time>2019-01-03T09:03:37Z</time>
      </trkpt>
      <trkpt lat="44.67328" lon="5.08967">
        <ele>502.43</ele>
        <time>2019-01-03T09:03:38Z</time>
      </trkpt>
      <trkpt lat="44.67327" lon="5.08975">
        <ele>501.95</ele>
        <time>2019-01-03T09:03:39Z</time>
      </trkpt>
      <trkpt lat="44.67326" lon="5.08982">
        <ele>500.98</ele>
        <time>2019-01-03T09:03:40Z</time>
      </trkpt>
      <trkpt lat="44.67325" lon="5.0899">
        <ele>500.5</ele>
        <time>2019-01-03T09:03:41Z</time>
      </trkpt>
      <trkpt lat="44.67324" lon="5.08998">
        <ele>500.02</ele>
        <time>2019-01-03T09:03:42Z</time>
      </trkpt>
      <trkpt lat="44.67322" lon="5.09006">
        <ele>499.54</ele>
        <time>2019-01-03T09:03:43Z</time>
      </trkpt>
      <trkpt lat="44.67317" lon="5.09032">
        <ele>498.1</ele>
        <time>2019-01-03T09:03:46Z</time>
      </trkpt>
      <trkpt lat="44.67315" lon="5.09039">
        <ele>497.62</ele>
        <time>2019-01-03T09:03:47Z</time>
      </trkpt>
      <trkpt lat="44.67311" lon="5.09044">
        <ele>497.62</ele>
        <time>2019-01-03T09:03:48Z</time>
      </trkpt>
      <trkpt lat="44.67306" lon="5.09047">
        <ele>497.14</ele>
        <time>2019-01-03T09:03:49Z</time>
      </trkpt>
      <trkpt lat="44.67302" lon="5.09049">
        <ele>497.14</ele>
        <time>2019-01-03T09:03:50Z</time>
      </trkpt>
      <trkpt lat="44.67298" lon="5.09051">
        <ele>497.14</ele>
        <time>2019-01-03T09:03:51Z</time>
      </trkpt>
      <trkpt lat="44.67293" lon="5.09052">
        <ele>497.62</ele>
        <time>2019-01-03T09:03:52Z</time>
      </trkpt>
      <trkpt lat="44.67276" lon="5.09054">
        <ele>497.62</ele>
        <time>2019-01-03T09:04:02Z</time>
      </trkpt>
      <trkpt lat="44.67258" lon="5.09052">
        <ele>497.14</ele>
        <time>2019-01-03T09:04:12Z</time>
      </trkpt>
      <trkpt lat="44.6724" lon="5.09046">
        <ele>494.74</ele>
        <time>2019-01-03T09:04:16Z</time>
      </trkpt>
      <trkpt lat="44.67227" lon="5.09045">
        <ele>492.81</ele>
        <time>2019-01-03T09:04:19Z</time>
      </trkpt>
      <trkpt lat="44.67224" lon="5.09049">
        <ele>492.33</ele>
        <time>2019-01-03T09:04:20Z</time>
      </trkpt>
      <trkpt lat="44.67222" lon="5.09053">
        <ele>492.81</ele>
        <time>2019-01-03T09:04:21Z</time>
      </trkpt>
      <trkpt lat="44.67221" lon="5.09057">
        <ele>493.77</ele>
        <time>2019-01-03T09:04:22Z</time>
      </trkpt>
      <trkpt lat="44.6722" lon="5.09061">
        <ele>494.26</ele>
        <time>2019-01-03T09:04:23Z</time>
      </trkpt>
      <trkpt lat="44.67218" lon="5.09066">
        <ele>493.29</ele>
        <time>2019-01-03T09:04:24Z</time>
      </trkpt>
      <trkpt lat="44.67214" lon="5.09072">
        <ele>491.85</ele>
        <time>2019-01-03T09:04:25Z</time>
      </trkpt>
      <trkpt lat="44.67212" lon="5.09077">
        <ele>489.93</ele>
        <time>2019-01-03T09:04:26Z</time>
      </trkpt>
      <trkpt lat="44.67212" lon="5.09091">
        <ele>489.45</ele>
        <time>2019-01-03T09:04:27Z</time>
      </trkpt>
      <trkpt lat="44.67212" lon="5.09102">
        <ele>488.01</ele>
        <time>2019-01-03T09:04:28Z</time>
      </trkpt>
      <trkpt lat="44.67213" lon="5.09112">
        <ele>487.05</ele>
        <time>2019-01-03T09:04:29Z</time>
      </trkpt>
      <trkpt lat="44.67213" lon="5.09131">
        <ele>485.12</ele>
        <time>2019-01-03T09:04:31Z</time>
      </trkpt>
      <trkpt lat="44.67213" lon="5.09141">
        <ele>484.16</ele>
        <time>2019-01-03T09:04:32Z</time>
      </trkpt>
      <trkpt lat="44.67214" lon="5.0916">
        <ele>483.2</ele>
        <time>2019-01-03T09:04:34Z</time>
      </trkpt>
      <trkpt lat="44.67216" lon="5.09166">
        <ele>483.2</ele>
        <time>2019-01-03T09:04:35Z</time>
      </trkpt>
      <trkpt lat="44.67216" lon="5.09171">
        <ele>483.68</ele>
        <time>2019-01-03T09:04:36Z</time>
      </trkpt>
      <trkpt lat="44.67215" lon="5.09182">
        <ele>484.16</ele>
        <time>2019-01-03T09:04:45Z</time>
      </trkpt>
      <trkpt lat="44.67215" lon="5.09193">
        <ele>484.16</ele>
        <time>2019-01-03T09:04:57Z</time>
      </trkpt>
      <trkpt lat="44.67215" lon="5.09197">
        <ele>484.16</ele>
        <time>2019-01-03T09:04:58Z</time>
      </trkpt>
      <trkpt lat="44.67216" lon="5.09201">
        <ele>484.16</ele>
        <time>2019-01-03T09:04:59Z</time>
      </trkpt>
      <trkpt lat="44.67217" lon="5.09205">
        <ele>484.16</ele>
        <time>2019-01-03T09:05:00Z</time>
      </trkpt>
      <trkpt lat="44.67218" lon="5.09209">
        <ele>484.16</ele>
        <time>2019-01-03T09:05:01Z</time>
      </trkpt>
      <trkpt lat="44.67218" lon="5.09214">
        <ele>484.16</ele>
        <time>2019-01-03T09:05:02Z</time>
      </trkpt>
      <trkpt lat="44.67216" lon="5.09218">
        <ele>484.16</ele>
        <time>2019-01-03T09:05:03Z</time>
      </trkpt>
      <trkpt lat="44.67215" lon="5.09221">
        <ele>484.16</ele>
        <time>2019-01-03T09:05:04Z</time>
      </trkpt>
      <trkpt lat="44.67213" lon="5.09225">
        <ele>484.64</ele>
        <time>2019-01-03T09:05:05Z</time>
      </trkpt>
      <trkpt lat="44.67213" lon="5.09228">
        <ele>485.12</ele>
        <time>2019-01-03T09:05:06Z</time>
      </trkpt>
      <trkpt lat="44.67213" lon="5.09232">
        <ele>485.12</ele>
        <time>2019-01-03T09:05:07Z</time>
      </trkpt>
      <trkpt lat="44.67213" lon="5.09235">
        <ele>485.6</ele>
        <time>2019-01-03T09:05:08Z</time>
      </trkpt>
      <trkpt lat="44.67214" lon="5.09248">
        <ele>485.12</ele>
        <time>2019-01-03T09:05:11Z</time>
      </trkpt>
      <trkpt lat="44.67214" lon="5.09253">
        <ele>485.12</ele>
        <time>2019-01-03T09:05:12Z</time>
      </trkpt>
      <trkpt lat="44.67214" lon="5.09259">
        <ele>484.16</ele>
        <time>2019-01-03T09:05:13Z</time>
      </trkpt>
      <trkpt lat="44.67214" lon="5.09267">
        <ele>483.2</ele>
        <time>2019-01-03T09:05:14Z</time>
      </trkpt>
      <trkpt lat="44.67213" lon="5.09276">
        <ele>483.2</ele>
        <time>2019-01-03T09:05:15Z</time>
      </trkpt>
      <trkpt lat="44.67212" lon="5.09284">
        <ele>482.72</ele>
        <time>2019-01-03T09:05:16Z</time>
      </trkpt>
      <trkpt lat="44.67211" lon="5.09293">
        <ele>482.24</ele>
        <time>2019-01-03T09:05:17Z</time>
      </trkpt>
      <trkpt lat="44.67209" lon="5.09302">
        <ele>482.24</ele>
        <time>2019-01-03T09:05:18Z</time>
      </trkpt>
      <trkpt lat="44.67204" lon="5.09328">
        <ele>482.24</ele>
        <time>2019-01-03T09:05:21Z</time>
      </trkpt>
      <trkpt lat="44.672" lon="5.09353">
        <ele>481.76</ele>
        <time>2019-01-03T09:05:24Z</time>
      </trkpt>
      <trkpt lat="44.67199" lon="5.0937">
        <ele>482.24</ele>
        <time>2019-01-03T09:05:26Z</time>
      </trkpt>
      <trkpt lat="44.67199" lon="5.09394">
        <ele>482.72</ele>
        <time>2019-01-03T09:05:29Z</time>
      </trkpt>
      <trkpt lat="44.67198" lon="5.09403">
        <ele>482.72</ele>
        <time>2019-01-03T09:05:30Z</time>
      </trkpt>
      <trkpt lat="44.67198" lon="5.09411">
        <ele>482.24</ele>
        <time>2019-01-03T09:05:31Z</time>
      </trkpt>
      <trkpt lat="44.67197" lon="5.09435">
        <ele>483.2</ele>
        <time>2019-01-03T09:05:34Z</time>
      </trkpt>
      <trkpt lat="44.67197" lon="5.09442">
        <ele>483.2</ele>
        <time>2019-01-03T09:05:35Z</time>
      </trkpt>
      <trkpt lat="44.67195" lon="5.09457">
        <ele>483.2</ele>
        <time>2019-01-03T09:05:37Z</time>
      </trkpt>
      <trkpt lat="44.67195" lon="5.09463">
        <ele>483.68</ele>
        <time>2019-01-03T09:05:38Z</time>
      </trkpt>
      <trkpt lat="44.67195" lon="5.09469">
        <ele>483.2</ele>
        <time>2019-01-03T09:05:39Z</time>
      </trkpt>
      <trkpt lat="44.67194" lon="5.09476">
        <ele>483.68</ele>
        <time>2019-01-03T09:05:40Z</time>
      </trkpt>
      <trkpt lat="44.67193" lon="5.09481">
        <ele>483.68</ele>
        <time>2019-01-03T09:05:41Z</time>
      </trkpt>
      <trkpt lat="44.67192" lon="5.09487">
        <ele>484.16</ele>
        <time>2019-01-03T09:05:42Z</time>
      </trkpt>
      <trkpt lat="44.67191" lon="5.09491">
        <ele>484.16</ele>
        <time>2019-01-03T09:05:43Z</time>
      </trkpt>
      <trkpt lat="44.6719" lon="5.09495">
        <ele>484.16</ele>
        <time>2019-01-03T09:05:44Z</time>
      </trkpt>
      <trkpt lat="44.6719" lon="5.09497">
        <ele>484.64</ele>
        <time>2019-01-03T09:05:45Z</time>
      </trkpt>
      <trkpt lat="44.67189" lon="5.095">
        <ele>484.64</ele>
        <time>2019-01-03T09:05:46Z</time>
      </trkpt>
      <trkpt lat="44.67189" lon="5.09503">
        <ele>484.16</ele>
        <time>2019-01-03T09:05:47Z</time>
      </trkpt>
      <trkpt lat="44.67188" lon="5.09505">
        <ele>484.64</ele>
        <time>2019-01-03T09:05:48Z</time>
      </trkpt>
      <trkpt lat="44.67188" lon="5.09507">
        <ele>484.16</ele>
        <time>2019-01-03T09:05:49Z</time>
      </trkpt>
      <trkpt lat="44.67188" lon="5.09509">
        <ele>484.16</ele>
        <time>2019-01-03T09:05:50Z</time>
      </trkpt>
      <trkpt lat="44.67187" lon="5.0951">
        <ele>483.68</ele>
        <time>2019-01-03T09:06:05Z</time>
      </trkpt>
      <trkpt lat="44.67187" lon="5.0951">
        <ele>484.16</ele>
        <time>2019-01-03T09:06:29Z</time>
      </trkpt>
      <trkpt lat="44.67187" lon="5.0951">
        <ele>484.16</ele>
        <time>2019-01-03T09:06:55Z</time>
      </trkpt>
      <trkpt lat="44.67188" lon="5.0951">
        <ele>483.68</ele>
        <time>2019-01-03T09:07:17Z</time>
      </trkpt>
      <trkpt lat="44.67187" lon="5.0952">
        <ele>482.24</ele>
        <time>2019-01-03T09:07:22Z</time>
      </trkpt>
      <trkpt lat="44.67187" lon="5.09526">
        <ele>482.24</ele>
        <time>2019-01-03T09:07:23Z</time>
      </trkpt>
      <trkpt lat="44.67186" lon="5.09533">
        <ele>481.76</ele>
        <time>2019-01-03T09:07:24Z</time>
      </trkpt>
      <trkpt lat="44.67185" lon="5.09548">
        <ele>480.8</ele>
        <time>2019-01-03T09:07:26Z</time>
      </trkpt>
      <trkpt lat="44.67184" lon="5.09564">
        <ele>480.8</ele>
        <time>2019-01-03T09:07:28Z</time>
      </trkpt>
      <trkpt lat="44.67183" lon="5.09571">
        <ele>481.28</ele>
        <time>2019-01-03T09:07:29Z</time>
      </trkpt>
      <trkpt lat="44.67184" lon="5.09578">
        <ele>481.28</ele>
        <time>2019-01-03T09:07:30Z</time>
      </trkpt>
      <trkpt lat="44.67184" lon="5.096">
        <ele>483.2</ele>
        <time>2019-01-03T09:07:37Z</time>
      </trkpt>
      <trkpt lat="44.67184" lon="5.09602">
        <ele>484.16</ele>
        <time>2019-01-03T09:07:43Z</time>
      </trkpt>
      <trkpt lat="44.67185" lon="5.09604">
        <ele>483.68</ele>
        <time>2019-01-03T09:07:44Z</time>
      </trkpt>
      <trkpt lat="44.67185" lon="5.09608">
        <ele>483.2</ele>
        <time>2019-01-03T09:07:45Z</time>
      </trkpt>
      <trkpt lat="44.67185" lon="5.09613">
        <ele>482.72</ele>
        <time>2019-01-03T09:07:46Z</time>
      </trkpt>
      <trkpt lat="44.67186" lon="5.0962">
        <ele>481.76</ele>
        <time>2019-01-03T09:07:47Z</time>
      </trkpt>
      <trkpt lat="44.67188" lon="5.09627">
        <ele>480.8</ele>
        <time>2019-01-03T09:07:48Z</time>
      </trkpt>
      <trkpt lat="44.67191" lon="5.09633">
        <ele>480.32</ele>
        <time>2019-01-03T09:07:49Z</time>
      </trkpt>
      <trkpt lat="44.67194" lon="5.09638">
        <ele>480.8</ele>
        <time>2019-01-03T09:07:50Z</time>
      </trkpt>
      <trkpt lat="44.67197" lon="5.09644">
        <ele>480.32</ele>
        <time>2019-01-03T09:07:51Z</time>
      </trkpt>
      <trkpt lat="44.672" lon="5.0965">
        <ele>480.32</ele>
        <time>2019-01-03T09:07:52Z</time>
      </trkpt>
      <trkpt lat="44.67213" lon="5.09674">
        <ele>481.28</ele>
        <time>2019-01-03T09:07:56Z</time>
      </trkpt>
      <trkpt lat="44.67216" lon="5.09677">
        <ele>481.28</ele>
        <time>2019-01-03T09:07:57Z</time>
      </trkpt>
      <trkpt lat="44.67224" lon="5.09684">
        <ele>480.8</ele>
        <time>2019-01-03T09:07:59Z</time>
      </trkpt>
      <trkpt lat="44.67229" lon="5.09687">
        <ele>480.32</ele>
        <time>2019-01-03T09:08:00Z</time>
      </trkpt>
      <trkpt lat="44.67234" lon="5.09691">
        <ele>478.87</ele>
        <time>2019-01-03T09:08:01Z</time>
      </trkpt>
      <trkpt lat="44.6724" lon="5.09695">
        <ele>477.91</ele>
        <time>2019-01-03T09:08:02Z</time>
      </trkpt>
      <trkpt lat="44.67245" lon="5.09699">
        <ele>477.43</ele>
        <time>2019-01-03T09:08:03Z</time>
      </trkpt>
      <trkpt lat="44.67258" lon="5.09706">
        <ele>475.99</ele>
        <time>2019-01-03T09:08:05Z</time>
      </trkpt>
      <trkpt lat="44.67266" lon="5.09708">
        <ele>475.51</ele>
        <time>2019-01-03T09:08:06Z</time>
      </trkpt>
      <trkpt lat="44.67272" lon="5.09708">
        <ele>475.03</ele>
        <time>2019-01-03T09:08:07Z</time>
      </trkpt>
      <trkpt lat="44.67277" lon="5.09709">
        <ele>475.51</ele>
        <time>2019-01-03T09:08:08Z</time>
      </trkpt>
      <trkpt lat="44.6728" lon="5.09709">
        <ele>475.99</ele>
        <time>2019-01-03T09:08:09Z</time>
      </trkpt>
      <trkpt lat="44.67283" lon="5.0971">
        <ele>476.47</ele>
        <time>2019-01-03T09:08:10Z</time>
      </trkpt>
      <trkpt lat="44.67284" lon="5.09712">
        <ele>476.47</ele>
        <time>2019-01-03T09:08:11Z</time>
      </trkpt>
      <trkpt lat="44.67286" lon="5.09715">
        <ele>476.95</ele>
        <time>2019-01-03T09:08:12Z</time>
      </trkpt>
      <trkpt lat="44.67287" lon="5.09718">
        <ele>476.95</ele>
        <time>2019-01-03T09:08:13Z</time>
      </trkpt>
      <trkpt lat="44.67287" lon="5.09721">
        <ele>476.95</ele>
        <time>2019-01-03T09:08:14Z</time>
      </trkpt>
      <trkpt lat="44.67287" lon="5.09723">
        <ele>477.43</ele>
        <time>2019-01-03T09:08:15Z</time>
      </trkpt>
      <trkpt lat="44.67286" lon="5.09725">
        <ele>477.91</ele>
        <time>2019-01-03T09:08:16Z</time>
      </trkpt>
      <trkpt lat="44.67285" lon="5.09729">
        <ele>477.91</ele>
        <time>2019-01-03T09:08:17Z</time>
      </trkpt>
      <trkpt lat="44.67284" lon="5.09733">
        <ele>477.43</ele>
        <time>2019-01-03T09:08:18Z</time>
      </trkpt>
      <trkpt lat="44.67285" lon="5.09738">
        <ele>477.43</ele>
        <time>2019-01-03T09:08:19Z</time>
      </trkpt>
      <trkpt lat="44.67285" lon="5.09743">
        <ele>476.47</ele>
        <time>2019-01-03T09:08:20Z</time>
      </trkpt>
      <trkpt lat="44.67285" lon="5.09749">
        <ele>475.99</ele>
        <time>2019-01-03T09:08:21Z</time>
      </trkpt>
      <trkpt lat="44.67286" lon="5.09758">
        <ele>474.55</ele>
        <time>2019-01-03T09:08:22Z</time>
      </trkpt>
      <trkpt lat="44.67309" lon="5.09833">
        <ele>471.66</ele>
        <time>2019-01-03T09:08:30Z</time>
      </trkpt>
      <trkpt lat="44.67311" lon="5.09841">
        <ele>472.14</ele>
        <time>2019-01-03T09:08:31Z</time>
      </trkpt>
      <trkpt lat="44.67312" lon="5.09848">
        <ele>473.11</ele>
        <time>2019-01-03T09:08:32Z</time>
      </trkpt>
      <trkpt lat="44.67312" lon="5.09853">
        <ele>473.59</ele>
        <time>2019-01-03T09:08:33Z</time>
      </trkpt>
      <trkpt lat="44.6731" lon="5.09858">
        <ele>474.07</ele>
        <time>2019-01-03T09:08:34Z</time>
      </trkpt>
      <trkpt lat="44.67309" lon="5.09862">
        <ele>474.07</ele>
        <time>2019-01-03T09:08:35Z</time>
      </trkpt>
      <trkpt lat="44.67308" lon="5.09865">
        <ele>474.07</ele>
        <time>2019-01-03T09:08:36Z</time>
      </trkpt>
      <trkpt lat="44.67286" lon="5.09895">
        <ele>474.07</ele>
        <time>2019-01-03T09:08:47Z</time>
      </trkpt>
      <trkpt lat="44.67282" lon="5.09901">
        <ele>475.03</ele>
        <time>2019-01-03T09:08:50Z</time>
      </trkpt>
      <trkpt lat="44.67279" lon="5.09905">
        <ele>476.47</ele>
        <time>2019-01-03T09:09:00Z</time>
      </trkpt>
      <trkpt lat="44.67278" lon="5.09907">
        <ele>476.47</ele>
        <time>2019-01-03T09:09:01Z</time>
      </trkpt>
      <trkpt lat="44.67277" lon="5.09909">
        <ele>476.47</ele>
        <time>2019-01-03T09:09:02Z</time>
      </trkpt>
      <trkpt lat="44.67275" lon="5.09911">
        <ele>476.47</ele>
        <time>2019-01-03T09:09:03Z</time>
      </trkpt>
      <trkpt lat="44.67274" lon="5.09914">
        <ele>476.95</ele>
        <time>2019-01-03T09:09:04Z</time>
      </trkpt>
      <trkpt lat="44.67273" lon="5.09916">
        <ele>476.95</ele>
        <time>2019-01-03T09:09:05Z</time>
      </trkpt>
      <trkpt lat="44.67272" lon="5.09918">
        <ele>476.95</ele>
        <time>2019-01-03T09:09:06Z</time>
      </trkpt>
      <trkpt lat="44.67258" lon="5.09944">
        <ele>480.32</ele>
        <time>2019-01-03T09:09:16Z</time>
      </trkpt>
      <trkpt lat="44.67248" lon="5.09955">
        <ele>483.68</ele>
        <time>2019-01-03T09:09:21Z</time>
      </trkpt>
      <trkpt lat="44.67245" lon="5.09956">
        <ele>482.72</ele>
        <time>2019-01-03T09:09:22Z</time>
      </trkpt>
      <trkpt lat="44.67243" lon="5.09957">
        <ele>482.72</ele>
        <time>2019-01-03T09:09:23Z</time>
      </trkpt>
      <trkpt lat="44.67241" lon="5.09959">
        <ele>482.72</ele>
        <time>2019-01-03T09:09:24Z</time>
      </trkpt>
      <trkpt lat="44.6724" lon="5.09961">
        <ele>483.2</ele>
        <time>2019-01-03T09:09:25Z</time>
      </trkpt>
      <trkpt lat="44.67235" lon="5.09967">
        <ele>484.64</ele>
        <time>2019-01-03T09:09:29Z</time>
      </trkpt>
      <trkpt lat="44.67233" lon="5.09969">
        <ele>484.64</ele>
        <time>2019-01-03T09:09:30Z</time>
      </trkpt>
      <trkpt lat="44.67229" lon="5.09976">
        <ele>485.6</ele>
        <time>2019-01-03T09:09:33Z</time>
      </trkpt>
      <trkpt lat="44.67227" lon="5.09978">
        <ele>485.6</ele>
        <time>2019-01-03T09:09:34Z</time>
      </trkpt>
      <trkpt lat="44.67225" lon="5.09981">
        <ele>486.08</ele>
        <time>2019-01-03T09:09:35Z</time>
      </trkpt>
      <trkpt lat="44.67223" lon="5.09983">
        <ele>486.08</ele>
        <time>2019-01-03T09:09:36Z</time>
      </trkpt>
      <trkpt lat="44.6722" lon="5.09985">
        <ele>486.08</ele>
        <time>2019-01-03T09:09:37Z</time>
      </trkpt>
      <trkpt lat="44.67218" lon="5.09988">
        <ele>486.08</ele>
        <time>2019-01-03T09:09:38Z</time>
      </trkpt>
      <trkpt lat="44.67206" lon="5.10003">
        <ele>487.53</ele>
        <time>2019-01-03T09:09:46Z</time>
      </trkpt>
      <trkpt lat="44.67203" lon="5.10008">
        <ele>488.49</ele>
        <time>2019-01-03T09:09:48Z</time>
      </trkpt>
      <trkpt lat="44.67201" lon="5.10009">
        <ele>488.49</ele>
        <time>2019-01-03T09:09:49Z</time>
      </trkpt>
      <trkpt lat="44.67198" lon="5.10011">
        <ele>488.97</ele>
        <time>2019-01-03T09:09:50Z</time>
      </trkpt>
      <trkpt lat="44.67197" lon="5.10012">
        <ele>489.45</ele>
        <time>2019-01-03T09:09:51Z</time>
      </trkpt>
      <trkpt lat="44.67194" lon="5.10017">
        <ele>490.41</ele>
        <time>2019-01-03T09:09:53Z</time>
      </trkpt>
      <trkpt lat="44.67194" lon="5.10019">
        <ele>490.89</ele>
        <time>2019-01-03T09:09:54Z</time>
      </trkpt>
      <trkpt lat="44.67194" lon="5.10022">
        <ele>490.89</ele>
        <time>2019-01-03T09:09:55Z</time>
      </trkpt>
      <trkpt lat="44.67194" lon="5.10026">
        <ele>491.37</ele>
        <time>2019-01-03T09:09:56Z</time>
      </trkpt>
      <trkpt lat="44.67194" lon="5.10029">
        <ele>491.85</ele>
        <time>2019-01-03T09:09:57Z</time>
      </trkpt>
      <trkpt lat="44.67193" lon="5.10031">
        <ele>492.33</ele>
        <time>2019-01-03T09:09:58Z</time>
      </trkpt>
      <trkpt lat="44.67191" lon="5.10034">
        <ele>492.81</ele>
        <time>2019-01-03T09:09:59Z</time>
      </trkpt>
      <trkpt lat="44.6719" lon="5.10036">
        <ele>493.29</ele>
        <time>2019-01-03T09:10:00Z</time>
      </trkpt>
      <trkpt lat="44.67188" lon="5.10038">
        <ele>493.29</ele>
        <time>2019-01-03T09:10:01Z</time>
      </trkpt>
      <trkpt lat="44.67186" lon="5.10041">
        <ele>493.77</ele>
        <time>2019-01-03T09:10:02Z</time>
      </trkpt>
      <trkpt lat="44.67185" lon="5.10044">
        <ele>493.77</ele>
        <time>2019-01-03T09:10:03Z</time>
      </trkpt>
      <trkpt lat="44.67184" lon="5.10047">
        <ele>494.26</ele>
        <time>2019-01-03T09:10:04Z</time>
      </trkpt>
      <trkpt lat="44.67183" lon="5.10051">
        <ele>494.74</ele>
        <time>2019-01-03T09:10:05Z</time>
      </trkpt>
      <trkpt lat="44.67182" lon="5.10054">
        <ele>495.22</ele>
        <time>2019-01-03T09:10:06Z</time>
      </trkpt>
      <trkpt lat="44.67181" lon="5.10057">
        <ele>495.7</ele>
        <time>2019-01-03T09:10:07Z</time>
      </trkpt>
      <trkpt lat="44.67173" lon="5.10075">
        <ele>497.62</ele>
        <time>2019-01-03T09:10:14Z</time>
      </trkpt>
      <trkpt lat="44.67172" lon="5.10077">
        <ele>498.1</ele>
        <time>2019-01-03T09:10:15Z</time>
      </trkpt>
      <trkpt lat="44.67171" lon="5.10079">
        <ele>498.1</ele>
        <time>2019-01-03T09:10:16Z</time>
      </trkpt>
      <trkpt lat="44.6717" lon="5.10082">
        <ele>498.1</ele>
        <time>2019-01-03T09:10:17Z</time>
      </trkpt>
      <trkpt lat="44.6717" lon="5.10084">
        <ele>498.58</ele>
        <time>2019-01-03T09:10:18Z</time>
      </trkpt>
      <trkpt lat="44.67169" lon="5.10086">
        <ele>498.58</ele>
        <time>2019-01-03T09:10:19Z</time>
      </trkpt>
      <trkpt lat="44.67168" lon="5.10094">
        <ele>499.06</ele>
        <time>2019-01-03T09:10:22Z</time>
      </trkpt>
      <trkpt lat="44.67167" lon="5.10097">
        <ele>499.06</ele>
        <time>2019-01-03T09:10:23Z</time>
      </trkpt>
      <trkpt lat="44.67166" lon="5.101">
        <ele>499.54</ele>
        <time>2019-01-03T09:10:24Z</time>
      </trkpt>
      <trkpt lat="44.67166" lon="5.10103">
        <ele>499.54</ele>
        <time>2019-01-03T09:10:25Z</time>
      </trkpt>
      <trkpt lat="44.67165" lon="5.10106">
        <ele>500.02</ele>
        <time>2019-01-03T09:10:26Z</time>
      </trkpt>
      <trkpt lat="44.67164" lon="5.10109">
        <ele>499.54</ele>
        <time>2019-01-03T09:10:27Z</time>
      </trkpt>
      <trkpt lat="44.67164" lon="5.10112">
        <ele>500.02</ele>
        <time>2019-01-03T09:10:28Z</time>
      </trkpt>
      <trkpt lat="44.67162" lon="5.10115">
        <ele>500.02</ele>
        <time>2019-01-03T09:10:29Z</time>
      </trkpt>
      <trkpt lat="44.67161" lon="5.10119">
        <ele>500.02</ele>
        <time>2019-01-03T09:10:30Z</time>
      </trkpt>
      <trkpt lat="44.67158" lon="5.10127">
        <ele>500.5</ele>
        <time>2019-01-03T09:10:32Z</time>
      </trkpt>
      <trkpt lat="44.67156" lon="5.1013">
        <ele>500.5</ele>
        <time>2019-01-03T09:10:33Z</time>
      </trkpt>
      <trkpt lat="44.67152" lon="5.10138">
        <ele>500.98</ele>
        <time>2019-01-03T09:10:36Z</time>
      </trkpt>
      <trkpt lat="44.67151" lon="5.10141">
        <ele>500.98</ele>
        <time>2019-01-03T09:10:37Z</time>
      </trkpt>
      <trkpt lat="44.67149" lon="5.10143">
        <ele>500.98</ele>
        <time>2019-01-03T09:10:38Z</time>
      </trkpt>
      <trkpt lat="44.67149" lon="5.10146">
        <ele>501.46</ele>
        <time>2019-01-03T09:10:39Z</time>
      </trkpt>
      <trkpt lat="44.67147" lon="5.10149">
        <ele>501.46</ele>
        <time>2019-01-03T09:10:40Z</time>
      </trkpt>
      <trkpt lat="44.67146" lon="5.10152">
        <ele>501.46</ele>
        <time>2019-01-03T09:10:41Z</time>
      </trkpt>
      <trkpt lat="44.67146" lon="5.10154">
        <ele>501.46</ele>
        <time>2019-01-03T09:10:42Z</time>
      </trkpt>
      <trkpt lat="44.67144" lon="5.10158">
        <ele>501.46</ele>
        <time>2019-01-03T09:10:43Z</time>
      </trkpt>
      <trkpt lat="44.67143" lon="5.10161">
        <ele>501.46</ele>
        <time>2019-01-03T09:10:44Z</time>
      </trkpt>
      <trkpt lat="44.67142" lon="5.10165">
        <ele>501.46</ele>
        <time>2019-01-03T09:10:45Z</time>
      </trkpt>
      <trkpt lat="44.67141" lon="5.10167">
        <ele>501.95</ele>
        <time>2019-01-03T09:10:46Z</time>
      </trkpt>
      <trkpt lat="44.6714" lon="5.1017">
        <ele>501.95</ele>
        <time>2019-01-03T09:10:47Z</time>
      </trkpt>
      <trkpt lat="44.67139" lon="5.10172">
        <ele>502.43</ele>
        <time>2019-01-03T09:10:48Z</time>
      </trkpt>
      <trkpt lat="44.67129" lon="5.10199">
        <ele>504.35</ele>
        <time>2019-01-03T09:10:57Z</time>
      </trkpt>
      <trkpt lat="44.67128" lon="5.10202">
        <ele>504.35</ele>
        <time>2019-01-03T09:10:58Z</time>
      </trkpt>
      <trkpt lat="44.67121" lon="5.10219">
        <ele>505.31</ele>
        <time>2019-01-03T09:11:04Z</time>
      </trkpt>
      <trkpt lat="44.6712" lon="5.10224">
        <ele>505.31</ele>
        <time>2019-01-03T09:11:06Z</time>
      </trkpt>
      <trkpt lat="44.67111" lon="5.10242">
        <ele>506.27</ele>
        <time>2019-01-03T09:11:12Z</time>
      </trkpt>
      <trkpt lat="44.6711" lon="5.10244">
        <ele>505.31</ele>
        <time>2019-01-03T09:11:13Z</time>
      </trkpt>
      <trkpt lat="44.67108" lon="5.10246">
        <ele>504.83</ele>
        <time>2019-01-03T09:11:14Z</time>
      </trkpt>
      <trkpt lat="44.67105" lon="5.10252">
        <ele>509.16</ele>
        <time>2019-01-03T09:11:16Z</time>
      </trkpt>
      <trkpt lat="44.67104" lon="5.10255">
        <ele>505.79</ele>
        <time>2019-01-03T09:11:17Z</time>
      </trkpt>
      <trkpt lat="44.67087" lon="5.10304">
        <ele>504.83</ele>
        <time>2019-01-03T09:11:26Z</time>
      </trkpt>
      <trkpt lat="44.67086" lon="5.10308">
        <ele>504.83</ele>
        <time>2019-01-03T09:11:27Z</time>
      </trkpt>
      <trkpt lat="44.67086" lon="5.10318">
        <ele>504.83</ele>
        <time>2019-01-03T09:11:31Z</time>
      </trkpt>
      <trkpt lat="44.67089" lon="5.10319">
        <ele>504.83</ele>
        <time>2019-01-03T09:11:34Z</time>
      </trkpt>
      <trkpt lat="44.67092" lon="5.10303">
        <ele>502.91</ele>
        <time>2019-01-03T09:11:41Z</time>
      </trkpt>
      <trkpt lat="44.67096" lon="5.10301">
        <ele>501.46</ele>
        <time>2019-01-03T09:11:42Z</time>
      </trkpt>
      <trkpt lat="44.67099" lon="5.10297">
        <ele>499.54</ele>
        <time>2019-01-03T09:11:43Z</time>
      </trkpt>
      <trkpt lat="44.67103" lon="5.10294">
        <ele>498.1</ele>
        <time>2019-01-03T09:11:44Z</time>
      </trkpt>
      <trkpt lat="44.67108" lon="5.10291">
        <ele>496.66</ele>
        <time>2019-01-03T09:11:45Z</time>
      </trkpt>
      <trkpt lat="44.67112" lon="5.1029">
        <ele>494.74</ele>
        <time>2019-01-03T09:11:46Z</time>
      </trkpt>
      <trkpt lat="44.67117" lon="5.10291">
        <ele>493.29</ele>
        <time>2019-01-03T09:11:47Z</time>
      </trkpt>
      <trkpt lat="44.67122" lon="5.10289">
        <ele>492.33</ele>
        <time>2019-01-03T09:11:48Z</time>
      </trkpt>
      <trkpt lat="44.67128" lon="5.10286">
        <ele>491.37</ele>
        <time>2019-01-03T09:11:49Z</time>
      </trkpt>
      <trkpt lat="44.67133" lon="5.10283">
        <ele>490.41</ele>
        <time>2019-01-03T09:11:50Z</time>
      </trkpt>
      <trkpt lat="44.67137" lon="5.10279">
        <ele>489.93</ele>
        <time>2019-01-03T09:11:51Z</time>
      </trkpt>
      <trkpt lat="44.6714" lon="5.10276">
        <ele>488.97</ele>
        <time>2019-01-03T09:11:52Z</time>
      </trkpt>
      <trkpt lat="44.67141" lon="5.10275">
        <ele>488.97</ele>
        <time>2019-01-03T09:11:53Z</time>
      </trkpt>
      <trkpt lat="44.6714" lon="5.10274">
        <ele>489.93</ele>
        <time>2019-01-03T09:12:05Z</time>
      </trkpt>
      <trkpt lat="44.6714" lon="5.10274">
        <ele>489.93</ele>
        <time>2019-01-03T09:12:31Z</time>
      </trkpt>
      <trkpt lat="44.6714" lon="5.10274">
        <ele>489.93</ele>
        <time>2019-01-03T09:13:01Z</time>
      </trkpt>
      <trkpt lat="44.6714" lon="5.10274">
        <ele>489.93</ele>
        <time>2019-01-03T09:13:25Z</time>
      </trkpt>
      <trkpt lat="44.67142" lon="5.10272">
        <ele>488.97</ele>
        <time>2019-01-03T09:13:26Z</time>
      </trkpt>
      <trkpt lat="44.67144" lon="5.1027">
        <ele>488.01</ele>
        <time>2019-01-03T09:13:27Z</time>
      </trkpt>
      <trkpt lat="44.67148" lon="5.10267">
        <ele>487.05</ele>
        <time>2019-01-03T09:13:28Z</time>
      </trkpt>
      <trkpt lat="44.67151" lon="5.10264">
        <ele>486.08</ele>
        <time>2019-01-03T09:13:29Z</time>
      </trkpt>
      <trkpt lat="44.67155" lon="5.10261">
        <ele>484.64</ele>
        <time>2019-01-03T09:13:30Z</time>
      </trkpt>
      <trkpt lat="44.6716" lon="5.10259">
        <ele>483.68</ele>
        <time>2019-01-03T09:13:31Z</time>
      </trkpt>
      <trkpt lat="44.67164" lon="5.10258">
        <ele>482.72</ele>
        <time>2019-01-03T09:13:32Z</time>
      </trkpt>
      <trkpt lat="44.67167" lon="5.10258">
        <ele>482.24</ele>
        <time>2019-01-03T09:13:33Z</time>
      </trkpt>
      <trkpt lat="44.67176" lon="5.10255">
        <ele>479.35</ele>
        <time>2019-01-03T09:13:36Z</time>
      </trkpt>
      <trkpt lat="44.6718" lon="5.10253">
        <ele>478.39</ele>
        <time>2019-01-03T09:13:37Z</time>
      </trkpt>
      <trkpt lat="44.67195" lon="5.10244">
        <ele>475.51</ele>
        <time>2019-01-03T09:13:41Z</time>
      </trkpt>
      <trkpt lat="44.67199" lon="5.10243">
        <ele>474.55</ele>
        <time>2019-01-03T09:13:42Z</time>
      </trkpt>
      <trkpt lat="44.67214" lon="5.10234">
        <ele>471.18</ele>
        <time>2019-01-03T09:13:46Z</time>
      </trkpt>
      <trkpt lat="44.6722" lon="5.10229">
        <ele>469.26</ele>
        <time>2019-01-03T09:13:48Z</time>
      </trkpt>
      <trkpt lat="44.67223" lon="5.10226">
        <ele>468.3</ele>
        <time>2019-01-03T09:13:49Z</time>
      </trkpt>
      <trkpt lat="44.67226" lon="5.10224">
        <ele>467.82</ele>
        <time>2019-01-03T09:13:50Z</time>
      </trkpt>
      <trkpt lat="44.67229" lon="5.10223">
        <ele>466.86</ele>
        <time>2019-01-03T09:13:51Z</time>
      </trkpt>
      <trkpt lat="44.67233" lon="5.10221">
        <ele>466.38</ele>
        <time>2019-01-03T09:13:52Z</time>
      </trkpt>
      <trkpt lat="44.67251" lon="5.10218">
        <ele>463.01</ele>
        <time>2019-01-03T09:13:57Z</time>
      </trkpt>
      <trkpt lat="44.67254" lon="5.1022">
        <ele>462.05</ele>
        <time>2019-01-03T09:13:58Z</time>
      </trkpt>
      <trkpt lat="44.67257" lon="5.10221">
        <ele>461.09</ele>
        <time>2019-01-03T09:13:59Z</time>
      </trkpt>
      <trkpt lat="44.67259" lon="5.1022">
        <ele>460.13</ele>
        <time>2019-01-03T09:14:00Z</time>
      </trkpt>
      <trkpt lat="44.67261" lon="5.10219">
        <ele>460.13</ele>
        <time>2019-01-03T09:14:01Z</time>
      </trkpt>
      <trkpt lat="44.67263" lon="5.10217">
        <ele>459.17</ele>
        <time>2019-01-03T09:14:02Z</time>
      </trkpt>
      <trkpt lat="44.67266" lon="5.10215">
        <ele>458.69</ele>
        <time>2019-01-03T09:14:03Z</time>
      </trkpt>
      <trkpt lat="44.67279" lon="5.10207">
        <ele>455.8</ele>
        <time>2019-01-03T09:14:06Z</time>
      </trkpt>
      <trkpt lat="44.67291" lon="5.102">
        <ele>454.36</ele>
        <time>2019-01-03T09:14:08Z</time>
      </trkpt>
      <trkpt lat="44.67297" lon="5.10195">
        <ele>452.92</ele>
        <time>2019-01-03T09:14:09Z</time>
      </trkpt>
      <trkpt lat="44.67319" lon="5.10176">
        <ele>449.55</ele>
        <time>2019-01-03T09:14:12Z</time>
      </trkpt>
      <trkpt lat="44.6735" lon="5.10148">
        <ele>449.07</ele>
        <time>2019-01-03T09:14:17Z</time>
      </trkpt>
      <trkpt lat="44.67358" lon="5.10141">
        <ele>449.07</ele>
        <time>2019-01-03T09:14:19Z</time>
      </trkpt>
      <trkpt lat="44.67363" lon="5.1014">
        <ele>448.59</ele>
        <time>2019-01-03T09:14:20Z</time>
      </trkpt>
      <trkpt lat="44.67368" lon="5.10139">
        <ele>447.63</ele>
        <time>2019-01-03T09:14:21Z</time>
      </trkpt>
      <trkpt lat="44.67379" lon="5.10137">
        <ele>447.15</ele>
        <time>2019-01-03T09:14:23Z</time>
      </trkpt>
      <trkpt lat="44.67402" lon="5.10131">
        <ele>446.19</ele>
        <time>2019-01-03T09:14:27Z</time>
      </trkpt>
      <trkpt lat="44.67425" lon="5.10121">
        <ele>443.31</ele>
        <time>2019-01-03T09:14:31Z</time>
      </trkpt>
      <trkpt lat="44.67447" lon="5.10102">
        <ele>438.98</ele>
        <time>2019-01-03T09:14:35Z</time>
      </trkpt>
      <trkpt lat="44.67467" lon="5.10088">
        <ele>435.61</ele>
        <time>2019-01-03T09:14:38Z</time>
      </trkpt>
      <trkpt lat="44.67486" lon="5.10073">
        <ele>432.25</ele>
        <time>2019-01-03T09:14:41Z</time>
      </trkpt>
      <trkpt lat="44.67505" lon="5.10059">
        <ele>429.37</ele>
        <time>2019-01-03T09:14:44Z</time>
      </trkpt>
      <trkpt lat="44.67525" lon="5.10045">
        <ele>424.08</ele>
        <time>2019-01-03T09:14:47Z</time>
      </trkpt>
      <trkpt lat="44.67549" lon="5.10031">
        <ele>421.19</ele>
        <time>2019-01-03T09:14:50Z</time>
      </trkpt>
      <trkpt lat="44.67568" lon="5.10019">
        <ele>418.31</ele>
        <time>2019-01-03T09:14:53Z</time>
      </trkpt>
      <trkpt lat="44.67597" lon="5.10002">
        <ele>414.95</ele>
        <time>2019-01-03T09:14:58Z</time>
      </trkpt>
      <trkpt lat="44.67615" lon="5.09996">
        <ele>412.06</ele>
        <time>2019-01-03T09:15:01Z</time>
      </trkpt>
      <trkpt lat="44.67622" lon="5.09995">
        <ele>410.62</ele>
        <time>2019-01-03T09:15:02Z</time>
      </trkpt>
      <trkpt lat="44.6763" lon="5.09995">
        <ele>409.18</ele>
        <time>2019-01-03T09:15:03Z</time>
      </trkpt>
      <trkpt lat="44.67637" lon="5.09996">
        <ele>408.22</ele>
        <time>2019-01-03T09:15:04Z</time>
      </trkpt>
      <trkpt lat="44.67643" lon="5.09998">
        <ele>406.77</ele>
        <time>2019-01-03T09:15:05Z</time>
      </trkpt>
      <trkpt lat="44.6765" lon="5.10001">
        <ele>404.85</ele>
        <time>2019-01-03T09:15:06Z</time>
      </trkpt>
      <trkpt lat="44.67655" lon="5.10005">
        <ele>404.37</ele>
        <time>2019-01-03T09:15:07Z</time>
      </trkpt>
      <trkpt lat="44.67661" lon="5.10008">
        <ele>403.89</ele>
        <time>2019-01-03T09:15:08Z</time>
      </trkpt>
      <trkpt lat="44.67666" lon="5.10008">
        <ele>403.41</ele>
        <time>2019-01-03T09:15:09Z</time>
      </trkpt>
      <trkpt lat="44.6767" lon="5.10004">
        <ele>402.93</ele>
        <time>2019-01-03T09:15:10Z</time>
      </trkpt>
      <trkpt lat="44.67675" lon="5.10001">
        <ele>402.45</ele>
        <time>2019-01-03T09:15:11Z</time>
      </trkpt>
      <trkpt lat="44.67693" lon="5.09987">
        <ele>398.6</ele>
        <time>2019-01-03T09:15:14Z</time>
      </trkpt>
      <trkpt lat="44.67698" lon="5.09981">
        <ele>398.12</ele>
        <time>2019-01-03T09:15:15Z</time>
      </trkpt>
      <trkpt lat="44.67703" lon="5.09973">
        <ele>397.16</ele>
        <time>2019-01-03T09:15:16Z</time>
      </trkpt>
      <trkpt lat="44.67712" lon="5.09957">
        <ele>396.2</ele>
        <time>2019-01-03T09:15:18Z</time>
      </trkpt>
      <trkpt lat="44.67718" lon="5.09951">
        <ele>395.72</ele>
        <time>2019-01-03T09:15:19Z</time>
      </trkpt>
      <trkpt lat="44.67724" lon="5.09945">
        <ele>394.76</ele>
        <time>2019-01-03T09:15:20Z</time>
      </trkpt>
      <trkpt lat="44.6773" lon="5.09941">
        <ele>393.32</ele>
        <time>2019-01-03T09:15:21Z</time>
      </trkpt>
      <trkpt lat="44.67736" lon="5.09937">
        <ele>391.87</ele>
        <time>2019-01-03T09:15:22Z</time>
      </trkpt>
      <trkpt lat="44.67743" lon="5.09934">
        <ele>390.91</ele>
        <time>2019-01-03T09:15:23Z</time>
      </trkpt>
      <trkpt lat="44.6775" lon="5.09933">
        <ele>390.91</ele>
        <time>2019-01-03T09:15:24Z</time>
      </trkpt>
      <trkpt lat="44.67755" lon="5.09935">
        <ele>391.39</ele>
        <time>2019-01-03T09:15:25Z</time>
      </trkpt>
      <trkpt lat="44.6776" lon="5.09939">
        <ele>391.39</ele>
        <time>2019-01-03T09:15:26Z</time>
      </trkpt>
      <trkpt lat="44.67763" lon="5.09945">
        <ele>390.43</ele>
        <time>2019-01-03T09:15:27Z</time>
      </trkpt>
      <trkpt lat="44.67766" lon="5.09952">
        <ele>390.43</ele>
        <time>2019-01-03T09:15:28Z</time>
      </trkpt>
      <trkpt lat="44.67768" lon="5.0996">
        <ele>389.95</ele>
        <time>2019-01-03T09:15:29Z</time>
      </trkpt>
      <trkpt lat="44.6777" lon="5.09968">
        <ele>389.47</ele>
        <time>2019-01-03T09:15:30Z</time>
      </trkpt>
      <trkpt lat="44.67769" lon="5.09976">
        <ele>388.03</ele>
        <time>2019-01-03T09:15:31Z</time>
      </trkpt>
      <trkpt lat="44.67768" lon="5.09983">
        <ele>387.55</ele>
        <time>2019-01-03T09:15:32Z</time>
      </trkpt>
      <trkpt lat="44.67768" lon="5.09989">
        <ele>387.07</ele>
        <time>2019-01-03T09:15:33Z</time>
      </trkpt>
      <trkpt lat="44.6777" lon="5.09993">
        <ele>387.07</ele>
        <time>2019-01-03T09:15:34Z</time>
      </trkpt>
      <trkpt lat="44.67776" lon="5.09988">
        <ele>386.11</ele>
        <time>2019-01-03T09:15:36Z</time>
      </trkpt>
      <trkpt lat="44.67778" lon="5.09982">
        <ele>385.63</ele>
        <time>2019-01-03T09:15:37Z</time>
      </trkpt>
      <trkpt lat="44.6778" lon="5.09976">
        <ele>384.66</ele>
        <time>2019-01-03T09:15:38Z</time>
      </trkpt>
      <trkpt lat="44.67781" lon="5.09969">
        <ele>383.7</ele>
        <time>2019-01-03T09:15:39Z</time>
      </trkpt>
      <trkpt lat="44.67782" lon="5.09962">
        <ele>383.22</ele>
        <time>2019-01-03T09:15:40Z</time>
      </trkpt>
      <trkpt lat="44.67782" lon="5.09955">
        <ele>382.74</ele>
        <time>2019-01-03T09:15:41Z</time>
      </trkpt>
      <trkpt lat="44.6778" lon="5.09939">
        <ele>382.26</ele>
        <time>2019-01-03T09:15:43Z</time>
      </trkpt>
      <trkpt lat="44.67776" lon="5.09924">
        <ele>380.82</ele>
        <time>2019-01-03T09:15:45Z</time>
      </trkpt>
      <trkpt lat="44.67768" lon="5.09899">
        <ele>379.38</ele>
        <time>2019-01-03T09:15:48Z</time>
      </trkpt>
      <trkpt lat="44.67764" lon="5.09892">
        <ele>379.38</ele>
        <time>2019-01-03T09:15:49Z</time>
      </trkpt>
      <trkpt lat="44.6776" lon="5.09884">
        <ele>378.9</ele>
        <time>2019-01-03T09:15:50Z</time>
      </trkpt>
      <trkpt lat="44.67757" lon="5.09877">
        <ele>376.97</ele>
        <time>2019-01-03T09:15:51Z</time>
      </trkpt>
      <trkpt lat="44.67755" lon="5.0987">
        <ele>376.49</ele>
        <time>2019-01-03T09:15:52Z</time>
      </trkpt>
      <trkpt lat="44.67756" lon="5.09863">
        <ele>376.97</ele>
        <time>2019-01-03T09:15:53Z</time>
      </trkpt>
      <trkpt lat="44.67759" lon="5.09857">
        <ele>376.97</ele>
        <time>2019-01-03T09:15:54Z</time>
      </trkpt>
      <trkpt lat="44.67763" lon="5.09854">
        <ele>376.01</ele>
        <time>2019-01-03T09:15:55Z</time>
      </trkpt>
      <trkpt lat="44.67768" lon="5.09852">
        <ele>376.01</ele>
        <time>2019-01-03T09:15:56Z</time>
      </trkpt>
      <trkpt lat="44.67773" lon="5.09852">
        <ele>376.01</ele>
        <time>2019-01-03T09:15:57Z</time>
      </trkpt>
      <trkpt lat="44.67787" lon="5.09853">
        <ele>376.01</ele>
        <time>2019-01-03T09:16:00Z</time>
      </trkpt>
      <trkpt lat="44.67792" lon="5.09854">
        <ele>376.01</ele>
        <time>2019-01-03T09:16:01Z</time>
      </trkpt>
      <trkpt lat="44.67828" lon="5.09869">
        <ele>373.13</ele>
        <time>2019-01-03T09:16:09Z</time>
      </trkpt>
      <trkpt lat="44.67834" lon="5.09869">
        <ele>372.65</ele>
        <time>2019-01-03T09:16:10Z</time>
      </trkpt>
      <trkpt lat="44.6787" lon="5.09871">
        <ele>369.76</ele>
        <time>2019-01-03T09:16:16Z</time>
      </trkpt>
      <trkpt lat="44.67876" lon="5.09869">
        <ele>369.28</ele>
        <time>2019-01-03T09:16:17Z</time>
      </trkpt>
      <trkpt lat="44.6788" lon="5.09867">
        <ele>368.8</ele>
        <time>2019-01-03T09:16:18Z</time>
      </trkpt>
      <trkpt lat="44.67888" lon="5.09864">
        <ele>368.8</ele>
        <time>2019-01-03T09:16:20Z</time>
      </trkpt>
      <trkpt lat="44.67898" lon="5.0986">
        <ele>366.88</ele>
        <time>2019-01-03T09:16:22Z</time>
      </trkpt>
      <trkpt lat="44.67901" lon="5.09856">
        <ele>366.4</ele>
        <time>2019-01-03T09:16:23Z</time>
      </trkpt>
      <trkpt lat="44.67903" lon="5.09854">
        <ele>366.4</ele>
        <time>2019-01-03T09:16:24Z</time>
      </trkpt>
      <trkpt lat="44.67905" lon="5.09854">
        <ele>365.92</ele>
        <time>2019-01-03T09:16:25Z</time>
      </trkpt>
      <trkpt lat="44.67906" lon="5.09855">
        <ele>366.4</ele>
        <time>2019-01-03T09:16:26Z</time>
      </trkpt>
      <trkpt lat="44.67907" lon="5.09858">
        <ele>366.4</ele>
        <time>2019-01-03T09:16:27Z</time>
      </trkpt>
      <trkpt lat="44.67905" lon="5.09861">
        <ele>365.92</ele>
        <time>2019-01-03T09:16:28Z</time>
      </trkpt>
      <trkpt lat="44.67903" lon="5.09864">
        <ele>364.96</ele>
        <time>2019-01-03T09:16:29Z</time>
      </trkpt>
      <trkpt lat="44.67896" lon="5.09872">
        <ele>362.55</ele>
        <time>2019-01-03T09:16:31Z</time>
      </trkpt>
      <trkpt lat="44.67893" lon="5.09876">
        <ele>362.07</ele>
        <time>2019-01-03T09:16:32Z</time>
      </trkpt>
      <trkpt lat="44.67892" lon="5.09879">
        <ele>361.11</ele>
        <time>2019-01-03T09:16:33Z</time>
      </trkpt>
      <trkpt lat="44.67893" lon="5.09882">
        <ele>360.63</ele>
        <time>2019-01-03T09:16:34Z</time>
      </trkpt>
      <trkpt lat="44.67895" lon="5.09884">
        <ele>360.15</ele>
        <time>2019-01-03T09:16:35Z</time>
      </trkpt>
      <trkpt lat="44.67898" lon="5.09885">
        <ele>358.71</ele>
        <time>2019-01-03T09:16:36Z</time>
      </trkpt>
      <trkpt lat="44.67902" lon="5.09884">
        <ele>357.75</ele>
        <time>2019-01-03T09:16:37Z</time>
      </trkpt>
      <trkpt lat="44.67906" lon="5.09883">
        <ele>356.79</ele>
        <time>2019-01-03T09:16:38Z</time>
      </trkpt>
      <trkpt lat="44.6792" lon="5.09879">
        <ele>352.94</ele>
        <time>2019-01-03T09:16:42Z</time>
      </trkpt>
      <trkpt lat="44.67924" lon="5.09878">
        <ele>352.46</ele>
        <time>2019-01-03T09:16:43Z</time>
      </trkpt>
      <trkpt lat="44.67928" lon="5.09875">
        <ele>351.5</ele>
        <time>2019-01-03T09:16:44Z</time>
      </trkpt>
      <trkpt lat="44.67933" lon="5.09872">
        <ele>350.06</ele>
        <time>2019-01-03T09:16:45Z</time>
      </trkpt>
      <trkpt lat="44.67937" lon="5.09869">
        <ele>348.62</ele>
        <time>2019-01-03T09:16:46Z</time>
      </trkpt>
      <trkpt lat="44.6794" lon="5.09865">
        <ele>346.69</ele>
        <time>2019-01-03T09:16:47Z</time>
      </trkpt>
      <trkpt lat="44.67943" lon="5.09862">
        <ele>344.77</ele>
        <time>2019-01-03T09:16:48Z</time>
      </trkpt>
      <trkpt lat="44.67947" lon="5.09861">
        <ele>343.81</ele>
        <time>2019-01-03T09:16:49Z</time>
      </trkpt>
      <trkpt lat="44.67951" lon="5.09863">
        <ele>343.33</ele>
        <time>2019-01-03T09:16:50Z</time>
      </trkpt>
      <trkpt lat="44.67955" lon="5.09866">
        <ele>342.85</ele>
        <time>2019-01-03T09:16:51Z</time>
      </trkpt>
      <trkpt lat="44.67959" lon="5.09872">
        <ele>341.89</ele>
        <time>2019-01-03T09:16:52Z</time>
      </trkpt>
      <trkpt lat="44.67966" lon="5.09879">
        <ele>339.96</ele>
        <time>2019-01-03T09:16:54Z</time>
      </trkpt>
      <trkpt lat="44.67971" lon="5.09882">
        <ele>338.52</ele>
        <time>2019-01-03T09:16:55Z</time>
      </trkpt>
      <trkpt lat="44.67976" lon="5.09886">
        <ele>337.08</ele>
        <time>2019-01-03T09:16:56Z</time>
      </trkpt>
      <trkpt lat="44.67987" lon="5.09899">
        <ele>334.68</ele>
        <time>2019-01-03T09:16:58Z</time>
      </trkpt>
      <trkpt lat="44.67994" lon="5.09905">
        <ele>332.27</ele>
        <time>2019-01-03T09:16:59Z</time>
      </trkpt>
      <trkpt lat="44.68001" lon="5.0991">
        <ele>330.35</ele>
        <time>2019-01-03T09:17:00Z</time>
      </trkpt>
      <trkpt lat="44.68009" lon="5.09915">
        <ele>329.39</ele>
        <time>2019-01-03T09:17:01Z</time>
      </trkpt>
      <trkpt lat="44.68017" lon="5.09919">
        <ele>328.91</ele>
        <time>2019-01-03T09:17:02Z</time>
      </trkpt>
      <trkpt lat="44.68026" lon="5.09923">
        <ele>328.91</ele>
        <time>2019-01-03T09:17:03Z</time>
      </trkpt>
      <trkpt lat="44.68098" lon="5.09949">
        <ele>326.5</ele>
        <time>2019-01-03T09:17:12Z</time>
      </trkpt>
      <trkpt lat="44.68113" lon="5.09957">
        <ele>325.54</ele>
        <time>2019-01-03T09:17:14Z</time>
      </trkpt>
      <trkpt lat="44.6812" lon="5.09962">
        <ele>325.06</ele>
        <time>2019-01-03T09:17:15Z</time>
      </trkpt>
      <trkpt lat="44.68127" lon="5.09968">
        <ele>324.58</ele>
        <time>2019-01-03T09:17:16Z</time>
      </trkpt>
      <trkpt lat="44.68148" lon="5.09995">
        <ele>326.02</ele>
        <time>2019-01-03T09:17:20Z</time>
      </trkpt>
      <trkpt lat="44.68155" lon="5.1001">
        <ele>326.02</ele>
        <time>2019-01-03T09:17:22Z</time>
      </trkpt>
      <trkpt lat="44.68159" lon="5.10016">
        <ele>326.99</ele>
        <time>2019-01-03T09:17:23Z</time>
      </trkpt>
      <trkpt lat="44.68163" lon="5.10021">
        <ele>326.99</ele>
        <time>2019-01-03T09:17:24Z</time>
      </trkpt>
      <trkpt lat="44.68167" lon="5.10024">
        <ele>326.99</ele>
        <time>2019-01-03T09:17:25Z</time>
      </trkpt>
      <trkpt lat="44.6817" lon="5.10027">
        <ele>327.95</ele>
        <time>2019-01-03T09:17:26Z</time>
      </trkpt>
      <trkpt lat="44.68173" lon="5.10029">
        <ele>328.91</ele>
        <time>2019-01-03T09:17:27Z</time>
      </trkpt>
      <trkpt lat="44.68184" lon="5.10039">
        <ele>331.79</ele>
        <time>2019-01-03T09:17:32Z</time>
      </trkpt>
      <trkpt lat="44.68186" lon="5.10041">
        <ele>332.27</ele>
        <time>2019-01-03T09:17:33Z</time>
      </trkpt>
      <trkpt lat="44.68189" lon="5.10045">
        <ele>332.27</ele>
        <time>2019-01-03T09:17:37Z</time>
      </trkpt>
      <trkpt lat="44.68189" lon="5.10043">
        <ele>332.27</ele>
        <time>2019-01-03T09:17:38Z</time>
      </trkpt>
      <trkpt lat="44.68188" lon="5.10041">
        <ele>332.27</ele>
        <time>2019-01-03T09:17:39Z</time>
      </trkpt>
      <trkpt lat="44.68186" lon="5.1004">
        <ele>332.27</ele>
        <time>2019-01-03T09:17:40Z</time>
      </trkpt>
      <trkpt lat="44.68185" lon="5.10039">
        <ele>331.79</ele>
        <time>2019-01-03T09:17:41Z</time>
      </trkpt>
      <trkpt lat="44.68185" lon="5.10037">
        <ele>331.79</ele>
        <time>2019-01-03T09:17:42Z</time>
      </trkpt>
      <trkpt lat="44.68183" lon="5.10034">
        <ele>331.79</ele>
        <time>2019-01-03T09:17:43Z</time>
      </trkpt>
      <trkpt lat="44.68181" lon="5.10031">
        <ele>330.83</ele>
        <time>2019-01-03T09:17:44Z</time>
      </trkpt>
      <trkpt lat="44.68177" lon="5.10028">
        <ele>329.87</ele>
        <time>2019-01-03T09:17:45Z</time>
      </trkpt>
      <trkpt lat="44.68158" lon="5.10009">
        <ele>326.99</ele>
        <time>2019-01-03T09:17:49Z</time>
      </trkpt>
      <trkpt lat="44.68156" lon="5.10005">
        <ele>326.99</ele>
        <time>2019-01-03T09:17:50Z</time>
      </trkpt>
      <trkpt lat="44.68168" lon="5.10008">
        <ele>325.06</ele>
        <time>2019-01-03T09:17:56Z</time>
      </trkpt>
      <trkpt lat="44.68174" lon="5.10014">
        <ele>326.02</ele>
        <time>2019-01-03T09:17:58Z</time>
      </trkpt>
      <trkpt lat="44.68207" lon="5.10052">
        <ele>329.39</ele>
        <time>2019-01-03T09:18:10Z</time>
      </trkpt>
      <trkpt lat="44.6822" lon="5.10084">
        <ele>332.27</ele>
        <time>2019-01-03T09:18:19Z</time>
      </trkpt>
      <trkpt lat="44.68242" lon="5.10112">
        <ele>335.64</ele>
        <time>2019-01-03T09:18:28Z</time>
      </trkpt>
      <trkpt lat="44.68247" lon="5.10117">
        <ele>336.6</ele>
        <time>2019-01-03T09:18:30Z</time>
      </trkpt>
      <trkpt lat="44.68287" lon="5.10161">
        <ele>338.04</ele>
        <time>2019-01-03T09:18:43Z</time>
      </trkpt>
      <trkpt lat="44.68316" lon="5.10188">
        <ele>333.71</ele>
        <time>2019-01-03T09:18:50Z</time>
      </trkpt>
      <trkpt lat="44.68322" lon="5.10193">
        <ele>332.27</ele>
        <time>2019-01-03T09:18:51Z</time>
      </trkpt>
      <trkpt lat="44.68329" lon="5.10196">
        <ele>330.35</ele>
        <time>2019-01-03T09:18:52Z</time>
      </trkpt>
      <trkpt lat="44.68336" lon="5.10199">
        <ele>330.35</ele>
        <time>2019-01-03T09:18:53Z</time>
      </trkpt>
      <trkpt lat="44.68345" lon="5.10202">
        <ele>327.47</ele>
        <time>2019-01-03T09:18:54Z</time>
      </trkpt>
      <trkpt lat="44.68363" lon="5.10211">
        <ele>323.14</ele>
        <time>2019-01-03T09:18:56Z</time>
      </trkpt>
      <trkpt lat="44.68372" lon="5.10217">
        <ele>322.18</ele>
        <time>2019-01-03T09:18:57Z</time>
      </trkpt>
      <trkpt lat="44.68389" lon="5.10231">
        <ele>318.33</ele>
        <time>2019-01-03T09:18:59Z</time>
      </trkpt>
      <trkpt lat="44.68398" lon="5.10237">
        <ele>317.85</ele>
        <time>2019-01-03T09:19:00Z</time>
      </trkpt>
      <trkpt lat="44.68416" lon="5.10247">
        <ele>316.41</ele>
        <time>2019-01-03T09:19:02Z</time>
      </trkpt>
      <trkpt lat="44.68424" lon="5.10252">
        <ele>316.41</ele>
        <time>2019-01-03T09:19:03Z</time>
      </trkpt>
      <trkpt lat="44.68431" lon="5.10257">
        <ele>316.89</ele>
        <time>2019-01-03T09:19:04Z</time>
      </trkpt>
      <trkpt lat="44.68445" lon="5.10267">
        <ele>321.22</ele>
        <time>2019-01-03T09:19:07Z</time>
      </trkpt>
      <trkpt lat="44.68457" lon="5.10272">
        <ele>324.1</ele>
        <time>2019-01-03T09:19:11Z</time>
      </trkpt>
      <trkpt lat="44.68464" lon="5.10272">
        <ele>325.54</ele>
        <time>2019-01-03T09:19:15Z</time>
      </trkpt>
      <trkpt lat="44.68466" lon="5.10271">
        <ele>325.54</ele>
        <time>2019-01-03T09:19:16Z</time>
      </trkpt>
      <trkpt lat="44.68469" lon="5.1027">
        <ele>325.54</ele>
        <time>2019-01-03T09:19:17Z</time>
      </trkpt>
      <trkpt lat="44.68471" lon="5.1027">
        <ele>326.02</ele>
        <time>2019-01-03T09:19:18Z</time>
      </trkpt>
      <trkpt lat="44.68474" lon="5.10269">
        <ele>326.02</ele>
        <time>2019-01-03T09:19:19Z</time>
      </trkpt>
      <trkpt lat="44.68477" lon="5.10267">
        <ele>326.02</ele>
        <time>2019-01-03T09:19:20Z</time>
      </trkpt>
      <trkpt lat="44.6848" lon="5.10266">
        <ele>326.02</ele>
        <time>2019-01-03T09:19:21Z</time>
      </trkpt>
      <trkpt lat="44.68483" lon="5.10265">
        <ele>326.02</ele>
        <time>2019-01-03T09:19:22Z</time>
      </trkpt>
      <trkpt lat="44.68487" lon="5.10263">
        <ele>326.02</ele>
        <time>2019-01-03T09:19:23Z</time>
      </trkpt>
      <trkpt lat="44.68491" lon="5.10262">
        <ele>326.02</ele>
        <time>2019-01-03T09:19:24Z</time>
      </trkpt>
      <trkpt lat="44.68502" lon="5.10259">
        <ele>326.5</ele>
        <time>2019-01-03T09:19:27Z</time>
      </trkpt>
      <trkpt lat="44.68506" lon="5.10259">
        <ele>326.02</ele>
        <time>2019-01-03T09:19:28Z</time>
      </trkpt>
      <trkpt lat="44.6851" lon="5.10259">
        <ele>325.54</ele>
        <time>2019-01-03T09:19:29Z</time>
      </trkpt>
      <trkpt lat="44.68513" lon="5.10258">
        <ele>326.02</ele>
        <time>2019-01-03T09:19:30Z</time>
      </trkpt>
      <trkpt lat="44.68517" lon="5.10257">
        <ele>326.02</ele>
        <time>2019-01-03T09:19:31Z</time>
      </trkpt>
      <trkpt lat="44.68535" lon="5.10253">
        <ele>327.47</ele>
        <time>2019-01-03T09:19:36Z</time>
      </trkpt>
      <trkpt lat="44.68544" lon="5.10252">
        <ele>328.43</ele>
        <time>2019-01-03T09:19:40Z</time>
      </trkpt>
      <trkpt lat="44.68548" lon="5.10251">
        <ele>328.91</ele>
        <time>2019-01-03T09:19:41Z</time>
      </trkpt>
      <trkpt lat="44.68552" lon="5.10251">
        <ele>328.91</ele>
        <time>2019-01-03T09:19:42Z</time>
      </trkpt>
      <trkpt lat="44.68556" lon="5.10251">
        <ele>328.91</ele>
        <time>2019-01-03T09:19:43Z</time>
      </trkpt>
      <trkpt lat="44.68559" lon="5.10251">
        <ele>329.39</ele>
        <time>2019-01-03T09:19:44Z</time>
      </trkpt>
      <trkpt lat="44.68582" lon="5.10249">
        <ele>330.83</ele>
        <time>2019-01-03T09:19:50Z</time>
      </trkpt>
      <trkpt lat="44.68603" lon="5.10244">
        <ele>333.23</ele>
        <time>2019-01-03T09:19:57Z</time>
      </trkpt>
      <trkpt lat="44.68622" lon="5.10248">
        <ele>335.16</ele>
        <time>2019-01-03T09:20:06Z</time>
      </trkpt>
      <trkpt lat="44.68636" lon="5.10251">
        <ele>336.6</ele>
        <time>2019-01-03T09:20:15Z</time>
      </trkpt>
      <trkpt lat="44.6864" lon="5.10252">
        <ele>337.08</ele>
        <time>2019-01-03T09:20:17Z</time>
      </trkpt>
      <trkpt lat="44.68641" lon="5.10253">
        <ele>337.56</ele>
        <time>2019-01-03T09:20:18Z</time>
      </trkpt>
      <trkpt lat="44.68644" lon="5.10253">
        <ele>337.56</ele>
        <time>2019-01-03T09:20:19Z</time>
      </trkpt>
      <trkpt lat="44.68646" lon="5.10255">
        <ele>338.04</ele>
        <time>2019-01-03T09:20:20Z</time>
      </trkpt>
      <trkpt lat="44.68648" lon="5.10256">
        <ele>338.52</ele>
        <time>2019-01-03T09:20:21Z</time>
      </trkpt>
      <trkpt lat="44.68651" lon="5.10258">
        <ele>338.52</ele>
        <time>2019-01-03T09:20:22Z</time>
      </trkpt>
      <trkpt lat="44.68653" lon="5.10259">
        <ele>338.52</ele>
        <time>2019-01-03T09:20:23Z</time>
      </trkpt>
      <trkpt lat="44.68655" lon="5.1026">
        <ele>338.52</ele>
        <time>2019-01-03T09:20:24Z</time>
      </trkpt>
      <trkpt lat="44.68658" lon="5.1026">
        <ele>338.52</ele>
        <time>2019-01-03T09:20:25Z</time>
      </trkpt>
      <trkpt lat="44.68661" lon="5.10261">
        <ele>338.52</ele>
        <time>2019-01-03T09:20:26Z</time>
      </trkpt>
      <trkpt lat="44.68665" lon="5.10261">
        <ele>338.52</ele>
        <time>2019-01-03T09:20:27Z</time>
      </trkpt>
      <trkpt lat="44.68668" lon="5.10261">
        <ele>338.52</ele>
        <time>2019-01-03T09:20:28Z</time>
      </trkpt>
      <trkpt lat="44.68672" lon="5.1026">
        <ele>338.52</ele>
        <time>2019-01-03T09:20:29Z</time>
      </trkpt>
      <trkpt lat="44.68675" lon="5.10259">
        <ele>338.52</ele>
        <time>2019-01-03T09:20:30Z</time>
      </trkpt>
      <trkpt lat="44.68678" lon="5.10257">
        <ele>338.52</ele>
        <time>2019-01-03T09:20:31Z</time>
      </trkpt>
      <trkpt lat="44.6868" lon="5.10257">
        <ele>338.52</ele>
        <time>2019-01-03T09:20:32Z</time>
      </trkpt>
      <trkpt lat="44.68684" lon="5.10258">
        <ele>338.52</ele>
        <time>2019-01-03T09:20:33Z</time>
      </trkpt>
      <trkpt lat="44.68688" lon="5.10258">
        <ele>338.52</ele>
        <time>2019-01-03T09:20:34Z</time>
      </trkpt>
      <trkpt lat="44.68693" lon="5.10258">
        <ele>338.52</ele>
        <time>2019-01-03T09:20:35Z</time>
      </trkpt>
      <trkpt lat="44.68696" lon="5.10258">
        <ele>339</ele>
        <time>2019-01-03T09:20:36Z</time>
      </trkpt>
      <trkpt lat="44.68726" lon="5.10255">
        <ele>339</ele>
        <time>2019-01-03T09:20:46Z</time>
      </trkpt>
      <trkpt lat="44.68748" lon="5.10252">
        <ele>342.37</ele>
        <time>2019-01-03T09:20:52Z</time>
      </trkpt>
      <trkpt lat="44.68754" lon="5.10254">
        <ele>341.89</ele>
        <time>2019-01-03T09:20:54Z</time>
      </trkpt>
      <trkpt lat="44.68757" lon="5.10252">
        <ele>341.41</ele>
        <time>2019-01-03T09:20:55Z</time>
      </trkpt>
      <trkpt lat="44.68763" lon="5.10249">
        <ele>341.41</ele>
        <time>2019-01-03T09:20:57Z</time>
      </trkpt>
      <trkpt lat="44.68767" lon="5.10249">
        <ele>341.89</ele>
        <time>2019-01-03T09:20:58Z</time>
      </trkpt>
      <trkpt lat="44.688" lon="5.10251">
        <ele>340.92</ele>
        <time>2019-01-03T09:21:07Z</time>
      </trkpt>
      <trkpt lat="44.68804" lon="5.10252">
        <ele>340.44</ele>
        <time>2019-01-03T09:21:08Z</time>
      </trkpt>
      <trkpt lat="44.68837" lon="5.1026">
        <ele>339.48</ele>
        <time>2019-01-03T09:21:16Z</time>
      </trkpt>
      <trkpt lat="44.68847" lon="5.10263">
        <ele>338.52</ele>
        <time>2019-01-03T09:21:19Z</time>
      </trkpt>
      <trkpt lat="44.68851" lon="5.10264">
        <ele>338.04</ele>
        <time>2019-01-03T09:21:20Z</time>
      </trkpt>
      <trkpt lat="44.68861" lon="5.1027">
        <ele>337.08</ele>
        <time>2019-01-03T09:21:22Z</time>
      </trkpt>
      <trkpt lat="44.68879" lon="5.10279">
        <ele>336.12</ele>
        <time>2019-01-03T09:21:25Z</time>
      </trkpt>
      <trkpt lat="44.68885" lon="5.10284">
        <ele>336.12</ele>
        <time>2019-01-03T09:21:26Z</time>
      </trkpt>
      <trkpt lat="44.6889" lon="5.10288">
        <ele>336.12</ele>
        <time>2019-01-03T09:21:27Z</time>
      </trkpt>
      <trkpt lat="44.68897" lon="5.10292">
        <ele>335.64</ele>
        <time>2019-01-03T09:21:28Z</time>
      </trkpt>
      <trkpt lat="44.68905" lon="5.10296">
        <ele>335.16</ele>
        <time>2019-01-03T09:21:29Z</time>
      </trkpt>
      <trkpt lat="44.68924" lon="5.10307">
        <ele>335.64</ele>
        <time>2019-01-03T09:21:32Z</time>
      </trkpt>
      <trkpt lat="44.6893" lon="5.10309">
        <ele>335.64</ele>
        <time>2019-01-03T09:21:33Z</time>
      </trkpt>
      <trkpt lat="44.68935" lon="5.1031">
        <ele>335.16</ele>
        <time>2019-01-03T09:21:34Z</time>
      </trkpt>
      <trkpt lat="44.68939" lon="5.10313">
        <ele>334.68</ele>
        <time>2019-01-03T09:21:35Z</time>
      </trkpt>
      <trkpt lat="44.68944" lon="5.10317">
        <ele>334.2</ele>
        <time>2019-01-03T09:21:36Z</time>
      </trkpt>
      <trkpt lat="44.68949" lon="5.10321">
        <ele>333.71</ele>
        <time>2019-01-03T09:21:37Z</time>
      </trkpt>
      <trkpt lat="44.68954" lon="5.10326">
        <ele>333.23</ele>
        <time>2019-01-03T09:21:38Z</time>
      </trkpt>
      <trkpt lat="44.68958" lon="5.1033">
        <ele>332.75</ele>
        <time>2019-01-03T09:21:39Z</time>
      </trkpt>
      <trkpt lat="44.68962" lon="5.10334">
        <ele>331.79</ele>
        <time>2019-01-03T09:21:40Z</time>
      </trkpt>
      <trkpt lat="44.68966" lon="5.10337">
        <ele>331.31</ele>
        <time>2019-01-03T09:21:41Z</time>
      </trkpt>
      <trkpt lat="44.6897" lon="5.10339">
        <ele>330.83</ele>
        <time>2019-01-03T09:21:42Z</time>
      </trkpt>
      <trkpt lat="44.68975" lon="5.1034">
        <ele>329.39</ele>
        <time>2019-01-03T09:21:43Z</time>
      </trkpt>
      <trkpt lat="44.6898" lon="5.1034">
        <ele>329.39</ele>
        <time>2019-01-03T09:21:44Z</time>
      </trkpt>
      <trkpt lat="44.68983" lon="5.10341">
        <ele>329.39</ele>
        <time>2019-01-03T09:21:45Z</time>
      </trkpt>
      <trkpt lat="44.68985" lon="5.10343">
        <ele>328.91</ele>
        <time>2019-01-03T09:21:46Z</time>
      </trkpt>
      <trkpt lat="44.68995" lon="5.10354">
        <ele>326.99</ele>
        <time>2019-01-03T09:21:49Z</time>
      </trkpt>
      <trkpt lat="44.68999" lon="5.10357">
        <ele>326.5</ele>
        <time>2019-01-03T09:21:50Z</time>
      </trkpt>
      <trkpt lat="44.69002" lon="5.1036">
        <ele>326.02</ele>
        <time>2019-01-03T09:21:51Z</time>
      </trkpt>
      <trkpt lat="44.69006" lon="5.10361">
        <ele>325.54</ele>
        <time>2019-01-03T09:21:52Z</time>
      </trkpt>
      <trkpt lat="44.6901" lon="5.10361">
        <ele>324.58</ele>
        <time>2019-01-03T09:21:53Z</time>
      </trkpt>
      <trkpt lat="44.69014" lon="5.10361">
        <ele>324.58</ele>
        <time>2019-01-03T09:21:54Z</time>
      </trkpt>
      <trkpt lat="44.69017" lon="5.10361">
        <ele>323.62</ele>
        <time>2019-01-03T09:21:55Z</time>
      </trkpt>
      <trkpt lat="44.69021" lon="5.1036">
        <ele>323.14</ele>
        <time>2019-01-03T09:21:56Z</time>
      </trkpt>
      <trkpt lat="44.69026" lon="5.10361">
        <ele>323.14</ele>
        <time>2019-01-03T09:21:57Z</time>
      </trkpt>
      <trkpt lat="44.69032" lon="5.10362">
        <ele>322.18</ele>
        <time>2019-01-03T09:21:58Z</time>
      </trkpt>
      <trkpt lat="44.69037" lon="5.10364">
        <ele>321.7</ele>
        <time>2019-01-03T09:21:59Z</time>
      </trkpt>
      <trkpt lat="44.69048" lon="5.10368">
        <ele>321.22</ele>
        <time>2019-01-03T09:22:01Z</time>
      </trkpt>
      <trkpt lat="44.69052" lon="5.10371">
        <ele>321.22</ele>
        <time>2019-01-03T09:22:02Z</time>
      </trkpt>
      <trkpt lat="44.69057" lon="5.10374">
        <ele>321.22</ele>
        <time>2019-01-03T09:22:03Z</time>
      </trkpt>
      <trkpt lat="44.6907" lon="5.10384">
        <ele>320.74</ele>
        <time>2019-01-03T09:22:06Z</time>
      </trkpt>
      <trkpt lat="44.69074" lon="5.10386">
        <ele>320.26</ele>
        <time>2019-01-03T09:22:07Z</time>
      </trkpt>
      <trkpt lat="44.69077" lon="5.10386">
        <ele>320.26</ele>
        <time>2019-01-03T09:22:08Z</time>
      </trkpt>
      <trkpt lat="44.69095" lon="5.10382">
        <ele>319.78</ele>
        <time>2019-01-03T09:22:12Z</time>
      </trkpt>
      <trkpt lat="44.69099" lon="5.10383">
        <ele>320.26</ele>
        <time>2019-01-03T09:22:13Z</time>
      </trkpt>
      <trkpt lat="44.69103" lon="5.10385">
        <ele>320.74</ele>
        <time>2019-01-03T09:22:14Z</time>
      </trkpt>
      <trkpt lat="44.69123" lon="5.1039">
        <ele>324.1</ele>
        <time>2019-01-03T09:22:20Z</time>
      </trkpt>
      <trkpt lat="44.69125" lon="5.10391">
        <ele>325.06</ele>
        <time>2019-01-03T09:22:21Z</time>
      </trkpt>
      <trkpt lat="44.69128" lon="5.10392">
        <ele>325.54</ele>
        <time>2019-01-03T09:22:22Z</time>
      </trkpt>
      <trkpt lat="44.69132" lon="5.10392">
        <ele>325.54</ele>
        <time>2019-01-03T09:22:23Z</time>
      </trkpt>
      <trkpt lat="44.69137" lon="5.10393">
        <ele>326.99</ele>
        <time>2019-01-03T09:22:26Z</time>
      </trkpt>
      <trkpt lat="44.69139" lon="5.10394">
        <ele>327.47</ele>
        <time>2019-01-03T09:22:27Z</time>
      </trkpt>
      <trkpt lat="44.69143" lon="5.10396">
        <ele>328.43</ele>
        <time>2019-01-03T09:22:30Z</time>
      </trkpt>
      <trkpt lat="44.69145" lon="5.10396">
        <ele>328.43</ele>
        <time>2019-01-03T09:22:32Z</time>
      </trkpt>
      <trkpt lat="44.69146" lon="5.10397">
        <ele>329.39</ele>
        <time>2019-01-03T09:22:33Z</time>
      </trkpt>
      <trkpt lat="44.69148" lon="5.10397">
        <ele>329.87</ele>
        <time>2019-01-03T09:22:34Z</time>
      </trkpt>
      <trkpt lat="44.69149" lon="5.10397">
        <ele>329.87</ele>
        <time>2019-01-03T09:22:35Z</time>
      </trkpt>
      <trkpt lat="44.6915" lon="5.10398">
        <ele>329.87</ele>
        <time>2019-01-03T09:22:36Z</time>
      </trkpt>
      <trkpt lat="44.69153" lon="5.104">
        <ele>331.31</ele>
        <time>2019-01-03T09:22:39Z</time>
      </trkpt>
      <trkpt lat="44.69165" lon="5.10403">
        <ele>331.79</ele>
        <time>2019-01-03T09:22:49Z</time>
      </trkpt>
      <trkpt lat="44.69173" lon="5.10404">
        <ele>332.27</ele>
        <time>2019-01-03T09:22:53Z</time>
      </trkpt>
      <trkpt lat="44.69175" lon="5.10404">
        <ele>332.27</ele>
        <time>2019-01-03T09:22:54Z</time>
      </trkpt>
      <trkpt lat="44.69177" lon="5.10405">
        <ele>332.27</ele>
        <time>2019-01-03T09:22:55Z</time>
      </trkpt>
      <trkpt lat="44.69206" lon="5.10402">
        <ele>332.75</ele>
        <time>2019-01-03T09:23:05Z</time>
      </trkpt>
      <trkpt lat="44.69222" lon="5.104">
        <ele>331.31</ele>
        <time>2019-01-03T09:23:09Z</time>
      </trkpt>
      <trkpt lat="44.69227" lon="5.10398">
        <ele>329.87</ele>
        <time>2019-01-03T09:23:10Z</time>
      </trkpt>
      <trkpt lat="44.69233" lon="5.10398">
        <ele>328.91</ele>
        <time>2019-01-03T09:23:11Z</time>
      </trkpt>
      <trkpt lat="44.69239" lon="5.10398">
        <ele>328.43</ele>
        <time>2019-01-03T09:23:12Z</time>
      </trkpt>
      <trkpt lat="44.69244" lon="5.10398">
        <ele>326.99</ele>
        <time>2019-01-03T09:23:13Z</time>
      </trkpt>
      <trkpt lat="44.6925" lon="5.10397">
        <ele>325.54</ele>
        <time>2019-01-03T09:23:14Z</time>
      </trkpt>
      <trkpt lat="44.69261" lon="5.10396">
        <ele>324.58</ele>
        <time>2019-01-03T09:23:16Z</time>
      </trkpt>
      <trkpt lat="44.69273" lon="5.10395">
        <ele>324.1</ele>
        <time>2019-01-03T09:23:18Z</time>
      </trkpt>
      <trkpt lat="44.69279" lon="5.10393">
        <ele>323.14</ele>
        <time>2019-01-03T09:23:19Z</time>
      </trkpt>
      <trkpt lat="44.69286" lon="5.10391">
        <ele>322.18</ele>
        <time>2019-01-03T09:23:20Z</time>
      </trkpt>
      <trkpt lat="44.69304" lon="5.10384">
        <ele>321.22</ele>
        <time>2019-01-03T09:23:23Z</time>
      </trkpt>
      <trkpt lat="44.69309" lon="5.10381">
        <ele>320.74</ele>
        <time>2019-01-03T09:23:24Z</time>
      </trkpt>
      <trkpt lat="44.69315" lon="5.10378">
        <ele>320.26</ele>
        <time>2019-01-03T09:23:25Z</time>
      </trkpt>
      <trkpt lat="44.69321" lon="5.10376">
        <ele>320.26</ele>
        <time>2019-01-03T09:23:26Z</time>
      </trkpt>
      <trkpt lat="44.69326" lon="5.10374">
        <ele>319.3</ele>
        <time>2019-01-03T09:23:27Z</time>
      </trkpt>
      <trkpt lat="44.6933" lon="5.10373">
        <ele>318.81</ele>
        <time>2019-01-03T09:23:28Z</time>
      </trkpt>
      <trkpt lat="44.69336" lon="5.10373">
        <ele>317.37</ele>
        <time>2019-01-03T09:23:29Z</time>
      </trkpt>
      <trkpt lat="44.69347" lon="5.10373">
        <ele>316.89</ele>
        <time>2019-01-03T09:23:31Z</time>
      </trkpt>
      <trkpt lat="44.69369" lon="5.10372">
        <ele>315.93</ele>
        <time>2019-01-03T09:23:35Z</time>
      </trkpt>
      <trkpt lat="44.69379" lon="5.1037">
        <ele>314.97</ele>
        <time>2019-01-03T09:23:37Z</time>
      </trkpt>
      <trkpt lat="44.69383" lon="5.10369">
        <ele>314.49</ele>
        <time>2019-01-03T09:23:38Z</time>
      </trkpt>
      <trkpt lat="44.69386" lon="5.10368">
        <ele>314.97</ele>
        <time>2019-01-03T09:23:39Z</time>
      </trkpt>
      <trkpt lat="44.69412" lon="5.10361">
        <ele>311.6</ele>
        <time>2019-01-03T09:23:45Z</time>
      </trkpt>
      <trkpt lat="44.69417" lon="5.1036">
        <ele>311.12</ele>
        <time>2019-01-03T09:23:46Z</time>
      </trkpt>
      <trkpt lat="44.69424" lon="5.10357">
        <ele>310.16</ele>
        <time>2019-01-03T09:23:48Z</time>
      </trkpt>
      <trkpt lat="44.6943" lon="5.10353">
        <ele>308.72</ele>
        <time>2019-01-03T09:23:50Z</time>
      </trkpt>
      <trkpt lat="44.69433" lon="5.1035">
        <ele>308.24</ele>
        <time>2019-01-03T09:23:51Z</time>
      </trkpt>
      <trkpt lat="44.69438" lon="5.10349">
        <ele>307.28</ele>
        <time>2019-01-03T09:23:52Z</time>
      </trkpt>
      <trkpt lat="44.69443" lon="5.1035">
        <ele>306.8</ele>
        <time>2019-01-03T09:23:53Z</time>
      </trkpt>
      <trkpt lat="44.69448" lon="5.10352">
        <ele>306.32</ele>
        <time>2019-01-03T09:23:54Z</time>
      </trkpt>
      <trkpt lat="44.69454" lon="5.10354">
        <ele>306.8</ele>
        <time>2019-01-03T09:23:55Z</time>
      </trkpt>
      <trkpt lat="44.69461" lon="5.10355">
        <ele>306.32</ele>
        <time>2019-01-03T09:23:56Z</time>
      </trkpt>
      <trkpt lat="44.69466" lon="5.10355">
        <ele>306.32</ele>
        <time>2019-01-03T09:23:57Z</time>
      </trkpt>
      <trkpt lat="44.6947" lon="5.10353">
        <ele>305.84</ele>
        <time>2019-01-03T09:23:58Z</time>
      </trkpt>
      <trkpt lat="44.69475" lon="5.10351">
        <ele>305.84</ele>
        <time>2019-01-03T09:23:59Z</time>
      </trkpt>
      <trkpt lat="44.6948" lon="5.10348">
        <ele>305.84</ele>
        <time>2019-01-03T09:24:00Z</time>
      </trkpt>
      <trkpt lat="44.69485" lon="5.10345">
        <ele>305.84</ele>
        <time>2019-01-03T09:24:01Z</time>
      </trkpt>
      <trkpt lat="44.6949" lon="5.10342">
        <ele>305.84</ele>
        <time>2019-01-03T09:24:02Z</time>
      </trkpt>
      <trkpt lat="44.69494" lon="5.10339">
        <ele>306.8</ele>
        <time>2019-01-03T09:24:03Z</time>
      </trkpt>
      <trkpt lat="44.69498" lon="5.10336">
        <ele>306.8</ele>
        <time>2019-01-03T09:24:04Z</time>
      </trkpt>
      <trkpt lat="44.69502" lon="5.10332">
        <ele>307.28</ele>
        <time>2019-01-03T09:24:05Z</time>
      </trkpt>
      <trkpt lat="44.69505" lon="5.10329">
        <ele>307.28</ele>
        <time>2019-01-03T09:24:06Z</time>
      </trkpt>
      <trkpt lat="44.69521" lon="5.10304">
        <ele>306.8</ele>
        <time>2019-01-03T09:24:12Z</time>
      </trkpt>
      <trkpt lat="44.6953" lon="5.10285">
        <ele>302.95</ele>
        <time>2019-01-03T09:24:15Z</time>
      </trkpt>
      <trkpt lat="44.69533" lon="5.10278">
        <ele>302.47</ele>
        <time>2019-01-03T09:24:16Z</time>
      </trkpt>
      <trkpt lat="44.69536" lon="5.10271">
        <ele>302.47</ele>
        <time>2019-01-03T09:24:17Z</time>
      </trkpt>
      <trkpt lat="44.69539" lon="5.10266">
        <ele>301.99</ele>
        <time>2019-01-03T09:24:18Z</time>
      </trkpt>
      <trkpt lat="44.69542" lon="5.1026">
        <ele>301.51</ele>
        <time>2019-01-03T09:24:19Z</time>
      </trkpt>
      <trkpt lat="44.69546" lon="5.10255">
        <ele>301.03</ele>
        <time>2019-01-03T09:24:20Z</time>
      </trkpt>
      <trkpt lat="44.69549" lon="5.1025">
        <ele>300.07</ele>
        <time>2019-01-03T09:24:21Z</time>
      </trkpt>
      <trkpt lat="44.69553" lon="5.10245">
        <ele>300.07</ele>
        <time>2019-01-03T09:24:22Z</time>
      </trkpt>
      <trkpt lat="44.69557" lon="5.10241">
        <ele>299.59</ele>
        <time>2019-01-03T09:24:23Z</time>
      </trkpt>
      <trkpt lat="44.69567" lon="5.10234">
        <ele>298.63</ele>
        <time>2019-01-03T09:24:25Z</time>
      </trkpt>
      <trkpt lat="44.69571" lon="5.10231">
        <ele>297.67</ele>
        <time>2019-01-03T09:24:26Z</time>
      </trkpt>
      <trkpt lat="44.69575" lon="5.10226">
        <ele>297.67</ele>
        <time>2019-01-03T09:24:27Z</time>
      </trkpt>
      <trkpt lat="44.69579" lon="5.10221">
        <ele>297.18</ele>
        <time>2019-01-03T09:24:28Z</time>
      </trkpt>
      <trkpt lat="44.69583" lon="5.10215">
        <ele>296.22</ele>
        <time>2019-01-03T09:24:29Z</time>
      </trkpt>
      <trkpt lat="44.69586" lon="5.1021">
        <ele>295.26</ele>
        <time>2019-01-03T09:24:30Z</time>
      </trkpt>
      <trkpt lat="44.6959" lon="5.10207">
        <ele>295.26</ele>
        <time>2019-01-03T09:24:31Z</time>
      </trkpt>
      <trkpt lat="44.69594" lon="5.10204">
        <ele>294.3</ele>
        <time>2019-01-03T09:24:32Z</time>
      </trkpt>
      <trkpt lat="44.69598" lon="5.10199">
        <ele>293.34</ele>
        <time>2019-01-03T09:24:33Z</time>
      </trkpt>
      <trkpt lat="44.6961" lon="5.10187">
        <ele>290.46</ele>
        <time>2019-01-03T09:24:36Z</time>
      </trkpt>
      <trkpt lat="44.69627" lon="5.1017">
        <ele>287.57</ele>
        <time>2019-01-03T09:24:42Z</time>
      </trkpt>
      <trkpt lat="44.69637" lon="5.1016">
        <ele>284.69</ele>
        <time>2019-01-03T09:24:46Z</time>
      </trkpt>
      <trkpt lat="44.69651" lon="5.10155">
        <ele>281.8</ele>
        <time>2019-01-03T09:24:50Z</time>
      </trkpt>
      <trkpt lat="44.69659" lon="5.10153">
        <ele>279.88</ele>
        <time>2019-01-03T09:24:52Z</time>
      </trkpt>
      <trkpt lat="44.69663" lon="5.10151">
        <ele>278.92</ele>
        <time>2019-01-03T09:24:53Z</time>
      </trkpt>
      <trkpt lat="44.69668" lon="5.10147">
        <ele>278.44</ele>
        <time>2019-01-03T09:24:54Z</time>
      </trkpt>
      <trkpt lat="44.69676" lon="5.10141">
        <ele>276.52</ele>
        <time>2019-01-03T09:24:56Z</time>
      </trkpt>
      <trkpt lat="44.69684" lon="5.10135">
        <ele>276.52</ele>
        <time>2019-01-03T09:24:58Z</time>
      </trkpt>
      <trkpt lat="44.69688" lon="5.10134">
        <ele>275.56</ele>
        <time>2019-01-03T09:24:59Z</time>
      </trkpt>
      <trkpt lat="44.69694" lon="5.10131">
        <ele>273.63</ele>
        <time>2019-01-03T09:25:00Z</time>
      </trkpt>
      <trkpt lat="44.69704" lon="5.10126">
        <ele>271.71</ele>
        <time>2019-01-03T09:25:02Z</time>
      </trkpt>
      <trkpt lat="44.69709" lon="5.10124">
        <ele>271.71</ele>
        <time>2019-01-03T09:25:03Z</time>
      </trkpt>
      <trkpt lat="44.69714" lon="5.10121">
        <ele>270.27</ele>
        <time>2019-01-03T09:25:04Z</time>
      </trkpt>
      <trkpt lat="44.69719" lon="5.10118">
        <ele>268.83</ele>
        <time>2019-01-03T09:25:05Z</time>
      </trkpt>
      <trkpt lat="44.69723" lon="5.10116">
        <ele>268.35</ele>
        <time>2019-01-03T09:25:06Z</time>
      </trkpt>
      <trkpt lat="44.69737" lon="5.10109">
        <ele>264.5</ele>
        <time>2019-01-03T09:25:09Z</time>
      </trkpt>
      <trkpt lat="44.6975" lon="5.10107">
        <ele>263.06</ele>
        <time>2019-01-03T09:25:11Z</time>
      </trkpt>
      <trkpt lat="44.69756" lon="5.10105">
        <ele>260.65</ele>
        <time>2019-01-03T09:25:12Z</time>
      </trkpt>
      <trkpt lat="44.69763" lon="5.10102">
        <ele>260.17</ele>
        <time>2019-01-03T09:25:13Z</time>
      </trkpt>
      <trkpt lat="44.69768" lon="5.10096">
        <ele>259.21</ele>
        <time>2019-01-03T09:25:14Z</time>
      </trkpt>
      <trkpt lat="44.69773" lon="5.10089">
        <ele>259.21</ele>
        <time>2019-01-03T09:25:15Z</time>
      </trkpt>
      <trkpt lat="44.69776" lon="5.10082">
        <ele>260.17</ele>
        <time>2019-01-03T09:25:16Z</time>
      </trkpt>
      <trkpt lat="44.69779" lon="5.10074">
        <ele>259.69</ele>
        <time>2019-01-03T09:25:17Z</time>
      </trkpt>
      <trkpt lat="44.69781" lon="5.10066">
        <ele>260.17</ele>
        <time>2019-01-03T09:25:18Z</time>
      </trkpt>
      <trkpt lat="44.69783" lon="5.10059">
        <ele>260.17</ele>
        <time>2019-01-03T09:25:19Z</time>
      </trkpt>
      <trkpt lat="44.69788" lon="5.10038">
        <ele>259.21</ele>
        <time>2019-01-03T09:25:22Z</time>
      </trkpt>
      <trkpt lat="44.6979" lon="5.10031">
        <ele>259.21</ele>
        <time>2019-01-03T09:25:23Z</time>
      </trkpt>
      <trkpt lat="44.69791" lon="5.10024">
        <ele>258.73</ele>
        <time>2019-01-03T09:25:24Z</time>
      </trkpt>
      <trkpt lat="44.69795" lon="5.09992">
        <ele>253.93</ele>
        <time>2019-01-03T09:25:28Z</time>
      </trkpt>
      <trkpt lat="44.69798" lon="5.09983">
        <ele>252.96</ele>
        <time>2019-01-03T09:25:29Z</time>
      </trkpt>
      <trkpt lat="44.69803" lon="5.09974">
        <ele>251.04</ele>
        <time>2019-01-03T09:25:30Z</time>
      </trkpt>
      <trkpt lat="44.69809" lon="5.09967">
        <ele>249.12</ele>
        <time>2019-01-03T09:25:31Z</time>
      </trkpt>
      <trkpt lat="44.69814" lon="5.09959">
        <ele>247.68</ele>
        <time>2019-01-03T09:25:32Z</time>
      </trkpt>
      <trkpt lat="44.6982" lon="5.09951">
        <ele>247.68</ele>
        <time>2019-01-03T09:25:33Z</time>
      </trkpt>
      <trkpt lat="44.69832" lon="5.09936">
        <ele>244.31</ele>
        <time>2019-01-03T09:25:35Z</time>
      </trkpt>
      <trkpt lat="44.69839" lon="5.09929">
        <ele>242.39</ele>
        <time>2019-01-03T09:25:36Z</time>
      </trkpt>
      <trkpt lat="44.69845" lon="5.09924">
        <ele>242.39</ele>
        <time>2019-01-03T09:25:37Z</time>
      </trkpt>
      <trkpt lat="44.69866" lon="5.09904">
        <ele>238.54</ele>
        <time>2019-01-03T09:25:40Z</time>
      </trkpt>
      <trkpt lat="44.69872" lon="5.09898">
        <ele>239.02</ele>
        <time>2019-01-03T09:25:41Z</time>
      </trkpt>
      <trkpt lat="44.69891" lon="5.0988">
        <ele>235.18</ele>
        <time>2019-01-03T09:25:44Z</time>
      </trkpt>
      <trkpt lat="44.69898" lon="5.09876">
        <ele>234.22</ele>
        <time>2019-01-03T09:25:45Z</time>
      </trkpt>
      <trkpt lat="44.6991" lon="5.09868">
        <ele>232.78</ele>
        <time>2019-01-03T09:25:47Z</time>
      </trkpt>
      <trkpt lat="44.69914" lon="5.09864">
        <ele>232.3</ele>
        <time>2019-01-03T09:25:48Z</time>
      </trkpt>
      <trkpt lat="44.69927" lon="5.09853">
        <ele>231.33</ele>
        <time>2019-01-03T09:25:51Z</time>
      </trkpt>
      <trkpt lat="44.69931" lon="5.09852">
        <ele>228.45</ele>
        <time>2019-01-03T09:25:52Z</time>
      </trkpt>
      <trkpt lat="44.69936" lon="5.09853">
        <ele>227.49</ele>
        <time>2019-01-03T09:25:53Z</time>
      </trkpt>
      <trkpt lat="44.6994" lon="5.09855">
        <ele>227.01</ele>
        <time>2019-01-03T09:25:54Z</time>
      </trkpt>
      <trkpt lat="44.69943" lon="5.09855">
        <ele>226.53</ele>
        <time>2019-01-03T09:25:55Z</time>
      </trkpt>
      <trkpt lat="44.69945" lon="5.09852">
        <ele>226.53</ele>
        <time>2019-01-03T09:25:56Z</time>
      </trkpt>
      <trkpt lat="44.69946" lon="5.09848">
        <ele>226.53</ele>
        <time>2019-01-03T09:25:57Z</time>
      </trkpt>
      <trkpt lat="44.69946" lon="5.09843">
        <ele>226.05</ele>
        <time>2019-01-03T09:25:58Z</time>
      </trkpt>
      <trkpt lat="44.69946" lon="5.09837">
        <ele>225.57</ele>
        <time>2019-01-03T09:25:59Z</time>
      </trkpt>
      <trkpt lat="44.69945" lon="5.09825">
        <ele>225.09</ele>
        <time>2019-01-03T09:26:01Z</time>
      </trkpt>
      <trkpt lat="44.69943" lon="5.09819">
        <ele>225.09</ele>
        <time>2019-01-03T09:26:02Z</time>
      </trkpt>
      <trkpt lat="44.69942" lon="5.09812">
        <ele>224.61</ele>
        <time>2019-01-03T09:26:03Z</time>
      </trkpt>
      <trkpt lat="44.69938" lon="5.09768">
        <ele>223.16</ele>
        <time>2019-01-03T09:26:11Z</time>
      </trkpt>
      <trkpt lat="44.69936" lon="5.09766">
        <ele>223.64</ele>
        <time>2019-01-03T09:26:12Z</time>
      </trkpt>
      <trkpt lat="44.69933" lon="5.09764">
        <ele>224.12</ele>
        <time>2019-01-03T09:26:13Z</time>
      </trkpt>
      <trkpt lat="44.69913" lon="5.09759">
        <ele>224.12</ele>
        <time>2019-01-03T09:26:19Z</time>
      </trkpt>
      <trkpt lat="44.6991" lon="5.09758">
        <ele>224.61</ele>
        <time>2019-01-03T09:26:20Z</time>
      </trkpt>
      <trkpt lat="44.69898" lon="5.09755">
        <ele>224.61</ele>
        <time>2019-01-03T09:26:23Z</time>
      </trkpt>
      <trkpt lat="44.69894" lon="5.09752">
        <ele>225.09</ele>
        <time>2019-01-03T09:26:24Z</time>
      </trkpt>
      <trkpt lat="44.69892" lon="5.09748">
        <ele>225.57</ele>
        <time>2019-01-03T09:26:25Z</time>
      </trkpt>
      <trkpt lat="44.69891" lon="5.09744">
        <ele>225.57</ele>
        <time>2019-01-03T09:26:26Z</time>
      </trkpt>
      <trkpt lat="44.69889" lon="5.09738">
        <ele>225.57</ele>
        <time>2019-01-03T09:26:27Z</time>
      </trkpt>
      <trkpt lat="44.69888" lon="5.09732">
        <ele>224.61</ele>
        <time>2019-01-03T09:26:28Z</time>
      </trkpt>
      <trkpt lat="44.69882" lon="5.09718">
        <ele>225.09</ele>
        <time>2019-01-03T09:26:31Z</time>
      </trkpt>
      <trkpt lat="44.6988" lon="5.09714">
        <ele>225.09</ele>
        <time>2019-01-03T09:26:32Z</time>
      </trkpt>
      <trkpt lat="44.69878" lon="5.09709">
        <ele>225.09</ele>
        <time>2019-01-03T09:26:33Z</time>
      </trkpt>
      <trkpt lat="44.69875" lon="5.09697">
        <ele>227.01</ele>
        <time>2019-01-03T09:26:36Z</time>
      </trkpt>
      <trkpt lat="44.69876" lon="5.09686">
        <ele>228.93</ele>
        <time>2019-01-03T09:26:39Z</time>
      </trkpt>
      <trkpt lat="44.69879" lon="5.09684">
        <ele>228.93</ele>
        <time>2019-01-03T09:26:40Z</time>
      </trkpt>
      <trkpt lat="44.69887" lon="5.09682">
        <ele>227.49</ele>
        <time>2019-01-03T09:26:43Z</time>
      </trkpt>
      <trkpt lat="44.69893" lon="5.09684">
        <ele>227.01</ele>
        <time>2019-01-03T09:26:45Z</time>
      </trkpt>
      <trkpt lat="44.69895" lon="5.09688">
        <ele>227.49</ele>
        <time>2019-01-03T09:26:46Z</time>
      </trkpt>
      <trkpt lat="44.69896" lon="5.09691">
        <ele>227.49</ele>
        <time>2019-01-03T09:26:47Z</time>
      </trkpt>
      <trkpt lat="44.69898" lon="5.09693">
        <ele>226.05</ele>
        <time>2019-01-03T09:26:57Z</time>
      </trkpt>
    </trkseg>
  </trk>
</gpx>